
Distance (Route):
Temperature : 0°C
Humidity : 0%
Pressure : 0hPa| Receiver | Frames | First received | Last received |
|---|---|---|---|
| PETON7-10 | 346 | 2026-09-03 11:32:45 | 2026-09-03 13:40:12 |
| OE3OSB-13 | 187 | 2026-09-03 11:32:42 | 2026-09-03 13:39:08 |
| OM5KV | 126 | 2026-09-03 11:43:37 | 2026-09-03 13:41:11 |
| OE5DXL-15 | 106 | 2026-09-03 11:56:54 | 2026-09-03 12:55:46 |
| OE5MMP-10 | 102 | 2026-09-03 12:30:53 | 2026-09-03 12:55:39 |
| S52SK | 101 | 2026-09-03 11:45:01 | 2026-09-03 13:35:39 |
| OE3JTB-15 | 99 | 2026-09-03 11:31:20 | 2026-09-03 12:55:23 |
| ATIDSZ-14 | 88 | 2026-09-03 12:51:11 | 2026-09-03 13:41:09 |
| OK1ALN | 56 | 2026-09-03 12:35:40 | 2026-09-03 13:16:30 |
| PG1ADW-2 | 55 | 2026-09-03 11:48:44 | 2026-09-03 12:48:23 |
| HA6NAB-11 | 28 | 2026-09-03 12:28:17 | 2026-09-03 13:36:31 |
| OK1SLM-15 | 6 | 2026-09-03 13:14:13 | 2026-09-03 13:16:25 |
| Receiver | Date | Latitude | Longitude | Direction | Speed | Altitude | Climb | Temperature | Humidity | Pressure | Voltage | Killtimer | Uptime | BKT | XDATA |
|---|---|---|---|---|---|---|---|---|---|---|---|---|---|---|---|
| OM5KV | 2026-09-03 13:41:11 | 47.71533 | 17.50191 | 111° | 35km/h | 509m | -11.2m/s | 0°C | 0% | 0hPa | 0V | 00:00:00 | 00:00:00 | 00:00:00 | |
| ATIDSZ-14 | 2026-09-03 13:41:09 | 47.71538 | 17.50168 | 107° | 33km/h | 533m | -13.5m/s | 0°C | 0% | 0hPa | 0V | 00:00:00 | 00:00:00 | 00:00:00 | |
| OM5KV | 2026-09-03 13:41:03 | 47.71556 | 17.50093 | 116° | 44km/h | 602m | -10.4m/s | 0°C | 0% | 0hPa | 0V | 00:00:00 | 00:00:00 | 00:00:00 | |
| OM5KV | 2026-09-03 13:40:56 | 47.71593 | 17.49995 | 119° | 31km/h | 683m | -10.8m/s | 0°C | 0% | 0hPa | 0V | 00:00:00 | 00:00:00 | 00:00:00 | |
| OM5KV | 2026-09-03 13:40:49 | 47.71620 | 17.49908 | 116° | 35km/h | 770m | -11.5m/s | 0°C | 0% | 0hPa | 0V | 00:00:00 | 00:00:00 | 00:00:00 | |
| ATIDSZ-14 | 2026-09-03 13:40:47 | 47.71627 | 17.49886 | 112° | 35km/h | 795m | -11.4m/s | 0°C | 0% | 0hPa | 0V | 00:00:00 | 00:00:00 | 00:00:00 | |
| OM5KV | 2026-09-03 13:40:37 | 47.71669 | 17.49760 | 117° | 37km/h | 917m | -14.6m/s | 0°C | 0% | 0hPa | 0V | 00:00:00 | 00:00:00 | 00:00:00 | |
| OM5KV | 2026-09-03 13:40:26 | 47.71714 | 17.49626 | 114° | 33km/h | 1054m | -11.7m/s | 0°C | 0% | 0hPa | 0V | 00:00:00 | 00:00:00 | 00:00:00 | |
| ATIDSZ-14 | 2026-09-03 13:40:18 | 47.71747 | 17.49525 | 120° | 38km/h | 1145m | -12.2m/s | 0°C | 0% | 0hPa | 0V | 00:00:00 | 00:00:00 | 00:00:00 | |
| PETON7-10 | 2026-09-03 13:40:12 | 47.71771 | 17.49452 | 115° | 37km/h | 1215m | -11.3m/s | 0°C | 0% | 0hPa | 0V | 00:00:00 | 00:00:00 | 00:00:00 | |
| PETON7-10 | 2026-09-03 13:40:07 | 47.71790 | 17.49388 | 112° | 37km/h | 1271m | -11.4m/s | 0°C | 0% | 0hPa | 0V | 00:00:00 | 00:00:00 | 00:00:00 | |
| PETON7-10 | 2026-09-03 13:40:01 | 47.71812 | 17.49308 | 112° | 35km/h | 1342m | -11.5m/s | 0°C | 0% | 0hPa | 0V | 00:00:00 | 00:00:00 | 00:00:00 | |
| PETON7-10 | 2026-09-03 13:39:56 | 47.71830 | 17.49247 | 110° | 31km/h | 1399m | -10.8m/s | 0°C | 0% | 0hPa | 0V | 00:00:00 | 00:00:00 | 00:00:00 | |
| OM5KV | 2026-09-03 13:39:52 | 47.71840 | 17.49201 | 108° | 35km/h | 1444m | -10.1m/s | 0°C | 0% | 0hPa | 0V | 00:00:00 | 00:00:00 | 00:00:00 | |
| PETON7-10 | 2026-09-03 13:39:51 | 47.71842 | 17.49188 | 105° | 35km/h | 1455m | -11.0m/s | 0°C | 0% | 0hPa | 0V | 00:00:00 | 00:00:00 | 00:00:00 | |
| PETON7-10 | 2026-09-03 13:39:45 | 47.71863 | 17.49115 | 109° | 37km/h | 1526m | -9.3m/s | 0°C | 0% | 0hPa | 0V | 00:00:00 | 00:00:00 | 00:00:00 | |
| PETON7-10 | 2026-09-03 13:39:39 | 47.71884 | 17.49040 | 103° | 37km/h | 1595m | -12.2m/s | 0°C | 0% | 0hPa | 0V | 00:00:00 | 00:00:00 | 00:00:00 | |
| ATIDSZ-14 | 2026-09-03 13:39:38 | 47.71886 | 17.49024 | 103° | 46km/h | 1607m | -11.1m/s | 0°C | 0% | 0hPa | 0V | 00:00:00 | 00:00:00 | 00:00:00 | |
| OM5KV | 2026-09-03 13:39:32 | 47.71906 | 17.48942 | 116° | 33km/h | 1678m | -11.2m/s | 0°C | 0% | 0hPa | 0V | 00:00:00 | 00:00:00 | 00:00:00 | |
| PETON7-10 | 2026-09-03 13:39:28 | 47.71920 | 17.48893 | 106° | 37km/h | 1725m | -11.9m/s | 0°C | 0% | 0hPa | 0V | 00:00:00 | 00:00:00 | 00:00:00 | |
| OM5KV | 2026-09-03 13:39:26 | 47.71927 | 17.48867 | 111° | 38km/h | 1748m | -11.8m/s | 0°C | 0% | 0hPa | 0V | 00:00:00 | 00:00:00 | 00:00:00 | |
| OM5KV | 2026-09-03 13:39:21 | 47.71943 | 17.48806 | 116° | 35km/h | 1812m | -12.9m/s | 0°C | 0% | 0hPa | 0V | 00:00:00 | 00:00:00 | 00:00:00 | |
| PETON7-10 | 2026-09-03 13:39:18 | 47.71954 | 17.48772 | 109° | 35km/h | 1848m | -12.8m/s | 0°C | 0% | 0hPa | 0V | 00:00:00 | 00:00:00 | 00:00:00 | |
| ATIDSZ-14 | 2026-09-03 13:39:17 | 47.71957 | 17.48760 | 105° | 35km/h | 1861m | -12.0m/s | 0°C | 0% | 0hPa | 0V | 00:00:00 | 00:00:00 | 00:00:00 | |
| OM5KV | 2026-09-03 13:39:10 | 47.71976 | 17.48670 | 109° | 35km/h | 1944m | -12.2m/s | 0°C | 0% | 0hPa | 0V | 00:00:00 | 00:00:00 | 00:00:00 | |
| OE3OSB-13 | 2026-09-03 13:39:08 | 47.71986 | 17.48632 | 106° | 35km/h | 1980m | -11.7m/s | 10.1°C | 71.4% | 812.2hPa | 0V | 00:00:00 | 00:00:00 | 00:00:00 | |
| PETON7-10 | 2026-09-03 13:39:04 | 47.71995 | 17.48596 | 108° | 35km/h | 2017m | -11.0m/s | 0°C | 0% | 0hPa | 0V | 00:00:00 | 00:00:00 | 00:00:00 | |
| ATIDSZ-14 | 2026-09-03 13:38:57 | 47.72017 | 17.48508 | 107° | 37km/h | 2104m | -9.3m/s | 0°C | 0% | 0hPa | 0V | 00:00:00 | 00:00:00 | 00:00:00 | |
| PETON7-10 | 2026-09-03 13:38:53 | 47.72027 | 17.48458 | 107° | 37km/h | 2152m | -12.3m/s | 0°C | 0% | 0hPa | 0V | 00:00:00 | 00:00:00 | 00:00:00 | |
| OM5KV | 2026-09-03 13:38:52 | 47.72030 | 17.48446 | 111° | 38km/h | 2165m | -11.9m/s | 0°C | 0% | 0hPa | 0V | 00:00:00 | 00:00:00 | 00:00:00 | |
| PETON7-10 | 2026-09-03 13:38:43 | 47.72059 | 17.48328 | 118° | 37km/h | 2277m | -11.2m/s | 0°C | 0% | 0hPa | 0V | 00:00:00 | 00:00:00 | 00:00:00 | |
| OE3OSB-13 | 2026-09-03 13:38:37 | 47.72081 | 17.48237 | 104° | 38km/h | 2361m | -12.9m/s | 6.7°C | 83.1% | 775.8hPa | 0V | 00:00:00 | 00:00:00 | 00:00:00 | |
| OM5KV | 2026-09-03 13:38:35 | 47.72084 | 17.48223 | 113° | 42km/h | 2375m | -12.5m/s | 0°C | 0% | 0hPa | 0V | 00:00:00 | 00:00:00 | 00:00:00 | |
| PETON7-10 | 2026-09-03 13:38:28 | 47.72117 | 17.48136 | 117° | 37km/h | 2459m | -10.6m/s | 0°C | 0% | 0hPa | 0V | 00:00:00 | 00:00:00 | 00:00:00 | |
| OM5KV | 2026-09-03 13:38:22 | 47.72147 | 17.48064 | 119° | 37km/h | 2531m | -12.1m/s | 0°C | 0% | 0hPa | 0V | 00:00:00 | 00:00:00 | 00:00:00 | |
| ATIDSZ-14 | 2026-09-03 13:38:16 | 47.72179 | 17.47989 | 122° | 42km/h | 2604m | -12.9m/s | 0°C | 0% | 0hPa | 0V | 00:00:00 | 00:00:00 | 00:00:00 | |
| PETON7-10 | 2026-09-03 13:38:13 | 47.72195 | 17.47952 | 123° | 42km/h | 2642m | -10.7m/s | 0°C | 0% | 0hPa | 0V | 00:00:00 | 00:00:00 | 00:00:00 | |
| OE3OSB-13 | 2026-09-03 13:38:06 | 47.72244 | 17.47848 | 128° | 42km/h | 2738m | -12.3m/s | 4.1°C | 84.6% | 740.4hPa | 0V | 00:00:00 | 00:00:00 | 00:00:00 | |
| PETON7-10 | 2026-09-03 13:37:58 | 47.72296 | 17.47757 | 137° | 46km/h | 2821m | -10.1m/s | 0°C | 0% | 0hPa | 0V | 00:00:00 | 00:00:00 | 00:00:00 | |
| ATIDSZ-14 | 2026-09-03 13:37:56 | 47.72312 | 17.47731 | 129° | 47km/h | 2845m | -11.6m/s | 0°C | 0% | 0hPa | 0V | 00:00:00 | 00:00:00 | 00:00:00 | |
| OM5KV | 2026-09-03 13:37:50 | 47.72363 | 17.47653 | 137° | 46km/h | 2920m | -11.9m/s | 0°C | 0% | 0hPa | 0V | 00:00:00 | 00:00:00 | 00:00:00 | |
| PETON7-10 | 2026-09-03 13:37:43 | 47.72420 | 17.47565 | 133° | 55km/h | 3002m | -10.4m/s | 0°C | 0% | 0hPa | 0V | 00:00:00 | 00:00:00 | 00:00:00 | |
| OE3OSB-13 | 2026-09-03 13:37:35 | 47.72500 | 17.47424 | 125° | 51km/h | 3113m | -10.6m/s | 2.1°C | 73.8% | 706.7hPa | 0V | 00:00:00 | 00:00:00 | 00:00:00 | |
| PETON7-10 | 2026-09-03 13:37:28 | 47.72553 | 17.47322 | 124° | 62km/h | 3187m | -11.8m/s | 0°C | 0% | 0hPa | 0V | 00:00:00 | 00:00:00 | 00:00:00 | |
| OM5KV | 2026-09-03 13:37:26 | 47.72569 | 17.47286 | 127° | 60km/h | 3212m | -10.8m/s | 0°C | 0% | 0hPa | 0V | 00:00:00 | 00:00:00 | 00:00:00 | |
| ATIDSZ-14 | 2026-09-03 13:37:15 | 47.72675 | 17.47084 | 130° | 57km/h | 3342m | -12.5m/s | 0°C | 0% | 0hPa | 0V | 00:00:00 | 00:00:00 | 00:00:00 | |
| OM5KV | 2026-09-03 13:37:14 | 47.72684 | 17.47066 | 126° | 60km/h | 3354m | -12.1m/s | 0°C | 0% | 0hPa | 0V | 00:00:00 | 00:00:00 | 00:00:00 | |
| PETON7-10 | 2026-09-03 13:37:11 | 47.72714 | 17.47011 | 126° | 66km/h | 3391m | -10.6m/s | 0°C | 0% | 0hPa | 0V | 00:00:00 | 00:00:00 | 00:00:00 | |
| OM5KV | 2026-09-03 13:37:08 | 47.72743 | 17.46953 | 130° | 66km/h | 3426m | -12.1m/s | 0°C | 0% | 0hPa | 0V | 00:00:00 | 00:00:00 | 00:00:00 | |
| OE3OSB-13 | 2026-09-03 13:37:04 | 47.72790 | 17.46856 | 120° | 60km/h | 3488m | -12.8m/s | -0.5°C | 71.3% | 674.6hPa | 0V | 00:00:00 | 00:00:00 | 00:00:00 | |
| OM5KV | 2026-09-03 13:36:59 | 47.72826 | 17.46773 | 127° | 69km/h | 3534m | -11.4m/s | 0°C | 0% | 0hPa | 0V | 00:00:00 | 00:00:00 | 00:00:00 | |
| PETON7-10 | 2026-09-03 13:36:55 | 47.72862 | 17.46688 | 125° | 58km/h | 3583m | -10.7m/s | 0°C | 0% | 0hPa | 0V | 00:00:00 | 00:00:00 | 00:00:00 | |
| ATIDSZ-14 | 2026-09-03 13:36:54 | 47.72872 | 17.46667 | 125° | 66km/h | 3594m | -10.1m/s | 0°C | 0% | 0hPa | 0V | 00:00:00 | 00:00:00 | 00:00:00 | |
| OM5KV | 2026-09-03 13:36:53 | 47.72881 | 17.46647 | 124° | 62km/h | 3605m | -10.8m/s | 0°C | 0% | 0hPa | 0V | 00:00:00 | 00:00:00 | 00:00:00 | |
| OM5KV | 2026-09-03 13:36:41 | 47.72977 | 17.46433 | 128° | 55km/h | 3748m | -11.9m/s | 0°C | 0% | 0hPa | 0V | 00:00:00 | 00:00:00 | 00:00:00 | |
| PETON7-10 | 2026-09-03 13:36:40 | 47.72985 | 17.46416 | 128° | 57km/h | 3760m | -12.2m/s | 0°C | 0% | 0hPa | 0V | 00:00:00 | 00:00:00 | 00:00:00 | |
| OM5KV | 2026-09-03 13:36:35 | 47.73025 | 17.46332 | 121° | 55km/h | 3818m | -11.9m/s | 0°C | 0% | 0hPa | 0V | 00:00:00 | 00:00:00 | 00:00:00 | |
| OE3OSB-13 | 2026-09-03 13:36:33 | 47.73047 | 17.46281 | 123° | 57km/h | 3854m | -12.3m/s | -1.8°C | 44.3% | 643.6hPa | 0V | 00:00:00 | 00:00:00 | 00:00:00 | |
| HA6NAB-11 | 2026-09-03 13:36:31 | 47.73055 | 17.46262 | 123° | 58km/h | 3866m | -11.9m/s | 0°C | 0% | 0hPa | 0V | 00:00:00 | 00:00:00 | 00:00:00 | |
| OM5KV | 2026-09-03 13:36:30 | 47.73064 | 17.46245 | 131° | 57km/h | 3878m | -12.9m/s | 0°C | 0% | 0hPa | 0V | 00:00:00 | 00:00:00 | 00:00:00 | |
| PETON7-10 | 2026-09-03 13:36:23 | 47.73132 | 17.46132 | 135° | 57km/h | 3962m | -10.4m/s | 0°C | 0% | 0hPa | 0V | 00:00:00 | 00:00:00 | 00:00:00 | |
| ATIDSZ-14 | 2026-09-03 13:36:13 | 47.73231 | 17.45971 | 140° | 57km/h | 4081m | -12.1m/s | 0°C | 0% | 0hPa | 0V | 00:00:00 | 00:00:00 | 00:00:00 | |
| PETON7-10 | 2026-09-03 13:36:07 | 47.73292 | 17.45872 | 132° | 58km/h | 4152m | -10.0m/s | 0°C | 0% | 0hPa | 0V | 00:00:00 | 00:00:00 | 00:00:00 | |
| OM5KV | 2026-09-03 13:36:03 | 47.73332 | 17.45807 | 136° | 58km/h | 4196m | -11.4m/s | 0°C | 0% | 0hPa | 0V | 00:00:00 | 00:00:00 | 00:00:00 | |
| HA6NAB-11 | 2026-09-03 13:36:01 | 47.73351 | 17.45775 | 129° | 58km/h | 4222m | -11.6m/s | 0°C | 0% | 0hPa | 0V | 00:00:00 | 00:00:00 | 00:00:00 | |
| HA6NAB-11 | 2026-09-03 13:35:53 | 47.73421 | 17.45651 | 123° | 55km/h | 4320m | -12.1m/s | 0°C | 0% | 0hPa | 0V | 00:00:00 | 00:00:00 | 00:00:00 | |
| PETON7-10 | 2026-09-03 13:35:52 | 47.73428 | 17.45634 | 125° | 53km/h | 4332m | -11.7m/s | 0°C | 0% | 0hPa | 0V | 00:00:00 | 00:00:00 | 00:00:00 | |
| OM5KV | 2026-09-03 13:35:46 | 47.73471 | 17.45534 | 122° | 58km/h | 4406m | -12.6m/s | 0°C | 0% | 0hPa | 0V | 00:00:00 | 00:00:00 | 00:00:00 | |
| HA6NAB-11 | 2026-09-03 13:35:45 | 47.73478 | 17.45515 | 120° | 53km/h | 4419m | -12.3m/s | 0°C | 0% | 0hPa | 0V | 00:00:00 | 00:00:00 | 00:00:00 | |
| OM5KV | 2026-09-03 13:35:41 | 47.73503 | 17.45444 | 115° | 57km/h | 4465m | -12.2m/s | 0°C | 0% | 0hPa | 0V | 00:00:00 | 00:00:00 | 00:00:00 | |
| S52SK | 2026-09-03 13:35:39 | 47.73514 | 17.45408 | 118° | 49km/h | 4490m | -11.3m/s | 0°C | 0% | 0hPa | 0V | 00:00:00 | 00:00:00 | 00:00:00 | |
| HA6NAB-11 | 2026-09-03 13:35:38 | 47.73520 | 17.45391 | 111° | 49km/h | 4502m | -12.4m/s | 0°C | 0% | 0hPa | 0V | 00:00:00 | 00:00:00 | 00:00:00 | |
| PETON7-10 | 2026-09-03 13:35:37 | 47.73524 | 17.45374 | 111° | 51km/h | 4515m | -11.7m/s | 0°C | 0% | 0hPa | 0V | 00:00:00 | 00:00:00 | 00:00:00 | |
| HA6NAB-11 | 2026-09-03 13:35:32 | 47.73550 | 17.45280 | 110° | 53km/h | 4576m | -12.9m/s | 0°C | 0% | 0hPa | 0V | 00:00:00 | 00:00:00 | 00:00:00 | |
| ATIDSZ-14 | 2026-09-03 13:35:31 | 47.73555 | 17.45262 | 117° | 49km/h | 4589m | -12.1m/s | 0°C | 0% | 0hPa | 0V | 00:00:00 | 00:00:00 | 00:00:00 | |
| OE3OSB-13 | 2026-09-03 13:35:30 | 47.73575 | 17.45210 | 118° | 51km/h | 4625m | -12.2m/s | -6.8°C | 48.8% | 583.3hPa | 0V | 00:00:00 | 00:00:00 | 00:00:00 | |
| OM5KV | 2026-09-03 13:35:28 | 47.73575 | 17.45210 | 119° | 53km/h | 4625m | -12.2m/s | 0°C | 0% | 0hPa | 0V | 00:00:00 | 00:00:00 | 00:00:00 | |
| PETON7-10 | 2026-09-03 13:35:19 | 47.73636 | 17.45064 | 121° | 46km/h | 4745m | -13.2m/s | 0°C | 0% | 0hPa | 0V | 00:00:00 | 00:00:00 | 00:00:00 | |
| OM5KV | 2026-09-03 13:35:17 | 47.73648 | 17.45036 | 123° | 42km/h | 4771m | -11.5m/s | 0°C | 0% | 0hPa | 0V | 00:00:00 | 00:00:00 | 00:00:00 | |
| ATIDSZ-14 | 2026-09-03 13:35:10 | 47.73685 | 17.44932 | 112° | 42km/h | 4860m | -12.4m/s | 0°C | 0% | 0hPa | 0V | 00:00:00 | 00:00:00 | 00:00:00 | |
| PETON7-10 | 2026-09-03 13:35:04 | 47.73710 | 17.44835 | 111° | 42km/h | 4944m | -11.8m/s | 0°C | 0% | 0hPa | 0V | 00:00:00 | 00:00:00 | 00:00:00 | |
| OE3OSB-13 | 2026-09-03 13:34:59 | 47.73729 | 17.44757 | 106° | 44km/h | 5010m | -12.1m/s | -7.9°C | 14.8% | 555.1hPa | 0V | 00:00:00 | 00:00:00 | 00:00:00 | |
| S52SK | 2026-09-03 13:34:52 | 47.73758 | 17.44650 | 111° | 40km/h | 5108m | -12.4m/s | 0°C | 0% | 0hPa | 0V | 00:00:00 | 00:00:00 | 00:00:00 | |
| ATIDSZ-14 | 2026-09-03 13:34:49 | 47.73770 | 17.44607 | 111° | 35km/h | 5146m | -11.6m/s | 0°C | 0% | 0hPa | 0V | 00:00:00 | 00:00:00 | 00:00:00 | |
| PETON7-10 | 2026-09-03 13:34:48 | 47.73773 | 17.44593 | 112° | 40km/h | 5158m | -11.4m/s | 0°C | 0% | 0hPa | 0V | 00:00:00 | 00:00:00 | 00:00:00 | |
| S52SK | 2026-09-03 13:34:46 | 47.73782 | 17.44565 | 121° | 40km/h | 5186m | -14.0m/s | 0°C | 0% | 0hPa | 0V | 00:00:00 | 00:00:00 | 00:00:00 | |
| OM5KV | 2026-09-03 13:34:44 | 47.73791 | 17.44538 | 116° | 42km/h | 5215m | -14.9m/s | 0°C | 0% | 0hPa | 0V | 00:00:00 | 00:00:00 | 00:00:00 | |
| S52SK | 2026-09-03 13:34:41 | 47.73806 | 17.44497 | 118° | 40km/h | 5258m | -13.3m/s | 0°C | 0% | 0hPa | 0V | 00:00:00 | 00:00:00 | 00:00:00 | |
| OM5KV | 2026-09-03 13:34:38 | 47.73821 | 17.44457 | 118° | 42km/h | 5299m | -13.3m/s | 0°C | 0% | 0hPa | 0V | 00:00:00 | 00:00:00 | 00:00:00 | |
| OM5KV | 2026-09-03 13:34:33 | 47.73850 | 17.44391 | 127° | 40km/h | 5368m | -13.7m/s | 0°C | 0% | 0hPa | 0V | 00:00:00 | 00:00:00 | 00:00:00 | |
| PETON7-10 | 2026-09-03 13:34:31 | 47.73861 | 17.44367 | 119° | 40km/h | 5396m | -13.0m/s | 0°C | 0% | 0hPa | 0V | 00:00:00 | 00:00:00 | 00:00:00 | |
| ATIDSZ-14 | 2026-09-03 13:34:29 | 47.73872 | 17.44342 | 128° | 37km/h | 5425m | -14.4m/s | 0°C | 0% | 0hPa | 0V | 00:00:00 | 00:00:00 | 00:00:00 | |
| OM5KV | 2026-09-03 13:34:28 | 47.73877 | 17.44331 | 122° | 35km/h | 5440m | -11.3m/s | 0°C | 0% | 0hPa | 0V | 00:00:00 | 00:00:00 | 00:00:00 | |
| PETON7-10 | 2026-09-03 13:34:15 | 47.73956 | 17.44174 | 126° | 49km/h | 5624m | -13.3m/s | 0°C | 0% | 0hPa | 0V | 00:00:00 | 00:00:00 | 00:00:00 | |
| OM5KV | 2026-09-03 13:34:11 | 47.73985 | 17.44115 | 124° | 49km/h | 5680m | -13.2m/s | 0°C | 0% | 0hPa | 0V | 00:00:00 | 00:00:00 | 00:00:00 | |
| ATIDSZ-14 | 2026-09-03 13:34:09 | 47.74001 | 17.44085 | 133° | 49km/h | 5710m | -14.3m/s | 0°C | 0% | 0hPa | 0V | 00:00:00 | 00:00:00 | 00:00:00 | |
| OM5KV | 2026-09-03 13:34:06 | 47.74025 | 17.44043 | 135° | 49km/h | 5753m | -13.1m/s | 0°C | 0% | 0hPa | 0V | 00:00:00 | 00:00:00 | 00:00:00 | |
| PETON7-10 | 2026-09-03 13:34:00 | 47.74075 | 17.43954 | 130° | 57km/h | 5838m | -13.7m/s | 0°C | 0% | 0hPa | 0V | 00:00:00 | 00:00:00 | 00:00:00 | |
| OE3OSB-13 | 2026-09-03 13:33:57 | 47.74108 | 17.43892 | 129° | 53km/h | 5897m | -13.8m/s | -13.1°C | 13.0% | 493.9hPa | 0V | 00:00:00 | 00:00:00 | 00:00:00 | |
| OM5KV | 2026-09-03 13:33:55 | 47.74117 | 17.43876 | 129° | 51km/h | 5912m | -13.5m/s | 0°C | 0% | 0hPa | 0V | 00:00:00 | 00:00:00 | 00:00:00 | |
| OM5KV | 2026-09-03 13:33:50 | 47.74160 | 17.43793 | 128° | 60km/h | 5983m | -15.2m/s | 0°C | 0% | 0hPa | 0V | 00:00:00 | 00:00:00 | 00:00:00 | |
| ATIDSZ-14 | 2026-09-03 13:33:49 | 47.74169 | 17.43776 | 132° | 57km/h | 5998m | -14.3m/s | 0°C | 0% | 0hPa | 0V | 00:00:00 | 00:00:00 | 00:00:00 | |
| PETON7-10 | 2026-09-03 13:33:45 | 47.74207 | 17.43708 | 128° | 57km/h | 6058m | -13.2m/s | 0°C | 0% | 0hPa | 0V | 00:00:00 | 00:00:00 | 00:00:00 | |
| S52SK | 2026-09-03 13:33:43 | 47.74225 | 17.43674 | 132° | 58km/h | 6086m | -14.2m/s | 0°C | 0% | 0hPa | 0V | 00:00:00 | 00:00:00 | 00:00:00 | |
| OM5KV | 2026-09-03 13:33:42 | 47.74235 | 17.43658 | 133° | 53km/h | 6101m | -14.8m/s | 0°C | 0% | 0hPa | 0V | 00:00:00 | 00:00:00 | 00:00:00 | |
| OM5KV | 2026-09-03 13:33:37 | 47.74279 | 17.43576 | 129° | 57km/h | 6174m | -13.7m/s | 0°C | 0% | 0hPa | 0V | 00:00:00 | 00:00:00 | 00:00:00 | |
| OM5KV | 2026-09-03 13:33:31 | 47.74331 | 17.43475 | 126° | 60km/h | 6259m | -13.1m/s | 0°C | 0% | 0hPa | 0V | 00:00:00 | 00:00:00 | 00:00:00 | |
| PETON7-10 | 2026-09-03 13:33:30 | 47.74340 | 17.43456 | 128° | 66km/h | 6273m | -14.0m/s | 0°C | 0% | 0hPa | 0V | 00:00:00 | 00:00:00 | 00:00:00 | |
| ATIDSZ-14 | 2026-09-03 13:33:29 | 47.74348 | 17.43438 | 128° | 57km/h | 6288m | -14.5m/s | 0°C | 0% | 0hPa | 0V | 00:00:00 | 00:00:00 | 00:00:00 | |
| OE3OSB-13 | 2026-09-03 13:33:26 | 47.74385 | 17.43363 | 123° | 66km/h | 6346m | -14.3m/s | -16.2°C | 16.5% | 465.0hPa | 0V | 00:00:00 | 00:00:00 | 00:00:00 | |
| OM5KV | 2026-09-03 13:33:25 | 47.74385 | 17.43364 | 125° | 66km/h | 6346m | -14.3m/s | 0°C | 0% | 0hPa | 0V | 00:00:00 | 00:00:00 | 00:00:00 | |
| PETON7-10 | 2026-09-03 13:33:15 | 47.74484 | 17.43155 | 128° | 73km/h | 6500m | -14.8m/s | 0°C | 0% | 0hPa | 0V | 00:00:00 | 00:00:00 | 00:00:00 | |
| ATIDSZ-14 | 2026-09-03 13:33:08 | 47.74558 | 17.43000 | 124° | 73km/h | 6605m | -15.2m/s | 0°C | 0% | 0hPa | 0V | 00:00:00 | 00:00:00 | 00:00:00 | |
| OM5KV | 2026-09-03 13:33:01 | 47.74632 | 17.42836 | 125° | 73km/h | 6711m | -13.6m/s | 0°C | 0% | 0hPa | 0V | 00:00:00 | 00:00:00 | 00:00:00 | |
| PETON7-10 | 2026-09-03 13:33:00 | 47.74642 | 17.42813 | 124° | 69km/h | 6726m | -13.6m/s | 0°C | 0% | 0hPa | 0V | 00:00:00 | 00:00:00 | 00:00:00 | |
| OE3OSB-13 | 2026-09-03 13:32:55 | 47.74701 | 17.42676 | 120° | 68km/h | 6813m | -13.2m/s | -21.2°C | 57.3% | 437.0hPa | 0V | 00:00:00 | 00:00:00 | 00:00:00 | |
| S52SK | 2026-09-03 13:32:51 | 47.74729 | 17.42609 | 119° | 71km/h | 6859m | -13.6m/s | 0°C | 0% | 0hPa | 0V | 00:00:00 | 00:00:00 | 00:00:00 | |
| ATIDSZ-14 | 2026-09-03 13:32:48 | 47.74754 | 17.42542 | 122° | 71km/h | 6903m | -14.1m/s | 0°C | 0% | 0hPa | 0V | 00:00:00 | 00:00:00 | 00:00:00 | |
| OM5KV | 2026-09-03 13:32:47 | 47.74763 | 17.42519 | 123° | 68km/h | 6918m | -13.6m/s | 0°C | 0% | 0hPa | 0V | 00:00:00 | 00:00:00 | 00:00:00 | |
| S52SK | 2026-09-03 13:32:46 | 47.74773 | 17.42497 | 122° | 71km/h | 6932m | -14.3m/s | 0°C | 0% | 0hPa | 0V | 00:00:00 | 00:00:00 | 00:00:00 | |
| PETON7-10 | 2026-09-03 13:32:45 | 47.74782 | 17.42475 | 124° | 71km/h | 6946m | -13.5m/s | 0°C | 0% | 0hPa | 0V | 00:00:00 | 00:00:00 | 00:00:00 | |
| OM5KV | 2026-09-03 13:32:41 | 47.74818 | 17.42384 | 121° | 73km/h | 7007m | -15.2m/s | 0°C | 0% | 0hPa | 0V | 00:00:00 | 00:00:00 | 00:00:00 | |
| OM5KV | 2026-09-03 13:32:34 | 47.74884 | 17.42225 | 122° | 68km/h | 7113m | -14.6m/s | 0°C | 0% | 0hPa | 0V | 00:00:00 | 00:00:00 | 00:00:00 | |
| PETON7-10 | 2026-09-03 13:32:30 | 47.74922 | 17.42133 | 123° | 69km/h | 7173m | -13.8m/s | 0°C | 0% | 0hPa | 0V | 00:00:00 | 00:00:00 | 00:00:00 | |
| OM5KV | 2026-09-03 13:32:29 | 47.74931 | 17.42110 | 123° | 69km/h | 7188m | -14.8m/s | 0°C | 0% | 0hPa | 0V | 00:00:00 | 00:00:00 | 00:00:00 | |
| ATIDSZ-14 | 2026-09-03 13:32:28 | 47.74941 | 17.42088 | 122° | 71km/h | 7204m | -14.9m/s | 0°C | 0% | 0hPa | 0V | 00:00:00 | 00:00:00 | 00:00:00 | |
| OM5KV | 2026-09-03 13:32:22 | 47.74996 | 17.41954 | 126° | 66km/h | 7295m | -14.8m/s | 0°C | 0% | 0hPa | 0V | 00:00:00 | 00:00:00 | 00:00:00 | |
| OM5KV | 2026-09-03 13:32:17 | 47.75042 | 17.41844 | 123° | 68km/h | 7368m | -12.6m/s | 0°C | 0% | 0hPa | 0V | 00:00:00 | 00:00:00 | 00:00:00 | |
| PETON7-10 | 2026-09-03 13:32:15 | 47.75061 | 17.41799 | 124° | 73km/h | 7395m | -13.4m/s | 0°C | 0% | 0hPa | 0V | 00:00:00 | 00:00:00 | 00:00:00 | |
| OM5KV | 2026-09-03 13:32:11 | 47.75097 | 17.41706 | 125° | 71km/h | 7451m | -13.7m/s | 0°C | 0% | 0hPa | 0V | 00:00:00 | 00:00:00 | 00:00:00 | |
| ATIDSZ-14 | 2026-09-03 13:32:07 | 47.75136 | 17.41615 | 120° | 71km/h | 7511m | -14.3m/s | 0°C | 0% | 0hPa | 0V | 00:00:00 | 00:00:00 | 00:00:00 | |
| OM5KV | 2026-09-03 13:32:05 | 47.75154 | 17.41567 | 122° | 73km/h | 7541m | -14.9m/s | 0°C | 0% | 0hPa | 0V | 00:00:00 | 00:00:00 | 00:00:00 | |
| PETON7-10 | 2026-09-03 13:32:00 | 47.75202 | 17.41443 | 118° | 84km/h | 7615m | -14.3m/s | 0°C | 0% | 0hPa | 0V | 00:00:00 | 00:00:00 | 00:00:00 | |
| S52SK | 2026-09-03 13:31:59 | 47.75211 | 17.41417 | 122° | 78km/h | 7630m | -14.0m/s | 0°C | 0% | 0hPa | 0V | 00:00:00 | 00:00:00 | 00:00:00 | |
| OM5KV | 2026-09-03 13:31:58 | 47.75221 | 17.41392 | 121° | 75km/h | 7645m | -15.0m/s | 0°C | 0% | 0hPa | 0V | 00:00:00 | 00:00:00 | 00:00:00 | |
| OM5KV | 2026-09-03 13:31:52 | 47.75283 | 17.41233 | 124° | 84km/h | 7735m | -14.0m/s | 0°C | 0% | 0hPa | 0V | 00:00:00 | 00:00:00 | 00:00:00 | |
| S52SK | 2026-09-03 13:31:49 | 47.75318 | 17.41150 | 122° | 88km/h | 7778m | -13.7m/s | 0°C | 0% | 0hPa | 0V | 00:00:00 | 00:00:00 | 00:00:00 | |
| ATIDSZ-14 | 2026-09-03 13:31:47 | 47.75341 | 17.41093 | 123° | 88km/h | 7806m | -15.1m/s | 0°C | 0% | 0hPa | 0V | 00:00:00 | 00:00:00 | 00:00:00 | |
| PETON7-10 | 2026-09-03 13:31:45 | 47.75365 | 17.41034 | 123° | 97km/h | 7836m | -14.3m/s | 0°C | 0% | 0hPa | 0V | 00:00:00 | 00:00:00 | 00:00:00 | |
| OM5KV | 2026-09-03 13:31:40 | 47.75427 | 17.40880 | 121° | 95km/h | 7908m | -14.2m/s | 0°C | 0% | 0hPa | 0V | 00:00:00 | 00:00:00 | 00:00:00 | |
| PETON7-10 | 2026-09-03 13:31:29 | 47.75576 | 17.40549 | 125° | 100km/h | 8071m | -13.8m/s | 0°C | 0% | 0hPa | 0V | 00:00:00 | 00:00:00 | 00:00:00 | |
| OM5KV | 2026-09-03 13:31:28 | 47.75590 | 17.40518 | 126° | 100km/h | 8086m | -14.0m/s | 0°C | 0% | 0hPa | 0V | 00:00:00 | 00:00:00 | 00:00:00 | |
| ATIDSZ-14 | 2026-09-03 13:31:26 | 47.75619 | 17.40458 | 124° | 100km/h | 8114m | -13.7m/s | 0°C | 0% | 0hPa | 0V | 00:00:00 | 00:00:00 | 00:00:00 | |
| OE3OSB-13 | 2026-09-03 13:31:22 | 47.75695 | 17.40304 | 127° | 102km/h | 8186m | -13.6m/s | -30.0°C | 81.2% | 360.5hPa | 0V | 00:00:00 | 00:00:00 | 00:00:00 | |
| OM5KV | 2026-09-03 13:31:16 | 47.75769 | 17.40153 | 128° | 97km/h | 8256m | -14.4m/s | 0°C | 0% | 0hPa | 0V | 00:00:00 | 00:00:00 | 00:00:00 | |
| PETON7-10 | 2026-09-03 13:31:14 | 47.75800 | 17.40092 | 129° | 108km/h | 8286m | -13.4m/s | 0°C | 0% | 0hPa | 0V | 00:00:00 | 00:00:00 | 00:00:00 | |
| OM5KV | 2026-09-03 13:31:09 | 47.75880 | 17.39937 | 128° | 108km/h | 8357m | -13.8m/s | 0°C | 0% | 0hPa | 0V | 00:00:00 | 00:00:00 | 00:00:00 | |
| ATIDSZ-14 | 2026-09-03 13:31:05 | 47.75949 | 17.39811 | 131° | 108km/h | 8417m | -14.2m/s | 0°C | 0% | 0hPa | 0V | 00:00:00 | 00:00:00 | 00:00:00 | |
| S52SK | 2026-09-03 13:31:02 | 47.76001 | 17.39715 | 130° | 110km/h | 8460m | -15.3m/s | 0°C | 0% | 0hPa | 0V | 00:00:00 | 00:00:00 | 00:00:00 | |
| OE3OSB-13 | 2026-09-03 13:30:51 | 47.76210 | 17.39320 | 127° | 117km/h | 8634m | -14.5m/s | -33.2°C | 76.0% | 337.9hPa | 0V | 00:00:00 | 00:00:00 | 00:00:00 | |
| ATIDSZ-14 | 2026-09-03 13:30:45 | 47.76304 | 17.39149 | 130° | 119km/h | 8712m | -14.1m/s | 0°C | 0% | 0hPa | 0V | 00:00:00 | 00:00:00 | 00:00:00 | |
| PETON7-10 | 2026-09-03 13:30:43 | 47.76341 | 17.39082 | 130° | 117km/h | 8741m | -15.2m/s | 0°C | 0% | 0hPa | 0V | 00:00:00 | 00:00:00 | 00:00:00 | |
| OM5KV | 2026-09-03 13:30:39 | 47.76418 | 17.38949 | 133° | 117km/h | 8800m | -14.3m/s | 0°C | 0% | 0hPa | 0V | 00:00:00 | 00:00:00 | 00:00:00 | |
| OM5KV | 2026-09-03 13:30:34 | 47.76517 | 17.38786 | 135° | 117km/h | 8874m | -15.3m/s | 0°C | 0% | 0hPa | 0V | 00:00:00 | 00:00:00 | 00:00:00 | |
| PETON7-10 | 2026-09-03 13:30:28 | 47.76638 | 17.38598 | 133° | 117km/h | 8966m | -15.1m/s | 0°C | 0% | 0hPa | 0V | 00:00:00 | 00:00:00 | 00:00:00 | |
| ATIDSZ-14 | 2026-09-03 13:30:24 | 47.76718 | 17.38472 | 135° | 113km/h | 9028m | -16.0m/s | 0°C | 0% | 0hPa | 0V | 00:00:00 | 00:00:00 | 00:00:00 | |
| OE3OSB-13 | 2026-09-03 13:30:20 | 47.76819 | 17.38312 | 131° | 113km/h | 9104m | -15.2m/s | -37.2°C | 58.2% | 315.7hPa | 0V | 00:00:00 | 00:00:00 | 00:00:00 | |
| PETON7-10 | 2026-09-03 13:30:13 | 47.76942 | 17.38112 | 135° | 124km/h | 9198m | -14.0m/s | 0°C | 0% | 0hPa | 0V | 00:00:00 | 00:00:00 | 00:00:00 | |
| OM5KV | 2026-09-03 13:30:12 | 47.76962 | 17.38080 | 136° | 119km/h | 9212m | -14.0m/s | 0°C | 0% | 0hPa | 0V | 00:00:00 | 00:00:00 | 00:00:00 | |
| OM5KV | 2026-09-03 13:30:06 | 47.77092 | 17.37882 | 136° | 126km/h | 9303m | -14.7m/s | 0°C | 0% | 0hPa | 0V | 00:00:00 | 00:00:00 | 00:00:00 | |
| ATIDSZ-14 | 2026-09-03 13:30:04 | 47.77136 | 17.37814 | 134° | 128km/h | 9333m | -14.8m/s | 0°C | 0% | 0hPa | 0V | 00:00:00 | 00:00:00 | 00:00:00 | |
| OM5KV | 2026-09-03 13:30:01 | 47.77201 | 17.37710 | 136° | 128km/h | 9378m | -14.8m/s | 0°C | 0% | 0hPa | 0V | 00:00:00 | 00:00:00 | 00:00:00 | |
| OE3OSB-13 | 2026-09-03 13:29:49 | 47.77562 | 17.37114 | 132° | 122km/h | 9638m | -16.1m/s | -41.8°C | 52.1% | 291.6hPa | 0V | 00:00:00 | 00:00:00 | 00:00:00 | |
| OM5KV | 2026-09-03 13:29:48 | 47.77480 | 17.37256 | 133° | 124km/h | 9577m | -15.4m/s | 0°C | 0% | 0hPa | 0V | 00:00:00 | 00:00:00 | 00:00:00 | |
| ATIDSZ-14 | 2026-09-03 13:29:44 | 47.77562 | 17.37114 | 134° | 124km/h | 9638m | -16.1m/s | 0°C | 0% | 0hPa | 0V | 00:00:00 | 00:00:00 | 00:00:00 | |
| PETON7-10 | 2026-09-03 13:29:43 | 47.77583 | 17.37080 | 131° | 122km/h | 9655m | -15.4m/s | 0°C | 0% | 0hPa | 0V | 00:00:00 | 00:00:00 | 00:00:00 | |
| PETON7-10 | 2026-09-03 13:29:28 | 47.77897 | 17.36573 | 135° | 126km/h | 9893m | -16.2m/s | 0°C | 0% | 0hPa | 0V | 00:00:00 | 00:00:00 | 00:00:00 | |
| ATIDSZ-14 | 2026-09-03 13:29:24 | 47.77987 | 17.36444 | 138° | 126km/h | 9959m | -15.8m/s | 0°C | 0% | 0hPa | 0V | 00:00:00 | 00:00:00 | 00:00:00 | |
| OM5KV | 2026-09-03 13:29:23 | 47.78010 | 17.36412 | 140° | 124km/h | 9975m | -15.9m/s | 0°C | 0% | 0hPa | 0V | 00:00:00 | 00:00:00 | 00:00:00 | |
| OE3OSB-13 | 2026-09-03 13:29:18 | 47.78153 | 17.36221 | 137° | 124km/h | 10073m | -16.7m/s | -45.1°C | 55.0% | 273.0hPa | 0V | 00:00:00 | 00:00:00 | 00:00:00 | |
| PETON7-10 | 2026-09-03 13:29:11 | 47.78302 | 17.36026 | 137° | 133km/h | 10172m | -17.2m/s | 0°C | 0% | 0hPa | 0V | 00:00:00 | 00:00:00 | 00:00:00 | |
| OM5KV | 2026-09-03 13:29:10 | 47.78327 | 17.35992 | 140° | 135km/h | 10189m | -16.8m/s | 0°C | 0% | 0hPa | 0V | 00:00:00 | 00:00:00 | 00:00:00 | |
| S52SK | 2026-09-03 13:29:06 | 47.78428 | 17.35862 | 142° | 133km/h | 10254m | -16.5m/s | 0°C | 0% | 0hPa | 0V | 00:00:00 | 00:00:00 | 00:00:00 | |
| OM5KV | 2026-09-03 13:29:05 | 47.78453 | 17.35830 | 139° | 133km/h | 10271m | -16.8m/s | 0°C | 0% | 0hPa | 0V | 00:00:00 | 00:00:00 | 00:00:00 | |
| ATIDSZ-14 | 2026-09-03 13:29:03 | 47.78505 | 17.35764 | 142° | 131km/h | 10305m | -16.8m/s | 0°C | 0% | 0hPa | 0V | 00:00:00 | 00:00:00 | 00:00:00 | |
| S52SK | 2026-09-03 13:29:01 | 47.78558 | 17.35697 | 141° | 139km/h | 10340m | -17.9m/s | 0°C | 0% | 0hPa | 0V | 00:00:00 | 00:00:00 | 00:00:00 | |
| OE3OSB-13 | 2026-09-03 13:28:46 | 47.78958 | 17.35197 | 138° | 144km/h | 10604m | -16.7m/s | -49.4°C | 45.4% | 251.7hPa | 0V | 00:00:00 | 00:00:00 | 00:00:00 | |
| ATIDSZ-14 | 2026-09-03 13:28:43 | 47.79040 | 17.35089 | 139° | 142km/h | 10656m | -15.7m/s | 0°C | 0% | 0hPa | 0V | 00:00:00 | 00:00:00 | 00:00:00 | |
| PETON7-10 | 2026-09-03 13:28:41 | 47.79093 | 17.35017 | 137° | 144km/h | 10689m | -17.5m/s | 0°C | 0% | 0hPa | 0V | 00:00:00 | 00:00:00 | 00:00:00 | |
| OM5KV | 2026-09-03 13:28:35 | 47.79254 | 17.34800 | 139° | 144km/h | 10790m | -16.9m/s | 0°C | 0% | 0hPa | 0V | 00:00:00 | 00:00:00 | 00:00:00 | |
| OM5KV | 2026-09-03 13:28:29 | 47.79419 | 17.34579 | 138° | 144km/h | 10896m | -17.9m/s | 0°C | 0% | 0hPa | 0V | 00:00:00 | 00:00:00 | 00:00:00 | |
| PETON7-10 | 2026-09-03 13:28:24 | 47.79559 | 17.34395 | 141° | 150km/h | 10990m | -19.3m/s | 0°C | 0% | 0hPa | 0V | 00:00:00 | 00:00:00 | 00:00:00 | |
| ATIDSZ-14 | 2026-09-03 13:28:23 | 47.79588 | 17.34360 | 140° | 144km/h | 11011m | -18.0m/s | 0°C | 0% | 0hPa | 0V | 00:00:00 | 00:00:00 | 00:00:00 | |
| OE3OSB-13 | 2026-09-03 13:28:15 | 47.79817 | 17.34065 | 138° | 151km/h | 11161m | -19.9m/s | -54.1°C | 25.1% | 230.7hPa | 0V | 00:00:00 | 00:00:00 | 00:00:00 | |
| PETON7-10 | 2026-09-03 13:28:07 | 47.80053 | 17.33769 | 141° | 155km/h | 11315m | -18.9m/s | 0°C | 0% | 0hPa | 0V | 00:00:00 | 00:00:00 | 00:00:00 | |
| S52SK | 2026-09-03 13:28:05 | 47.80114 | 17.33696 | 141° | 153km/h | 11354m | -20.2m/s | 0°C | 0% | 0hPa | 0V | 00:00:00 | 00:00:00 | 00:00:00 | |
| ATIDSZ-14 | 2026-09-03 13:28:02 | 47.80207 | 17.33587 | 144° | 153km/h | 11415m | -20.4m/s | 0°C | 0% | 0hPa | 0V | 00:00:00 | 00:00:00 | 00:00:00 | |
| OE3OSB-13 | 2026-09-03 13:27:44 | 47.80816 | 17.32893 | 144° | 164km/h | 11785m | -17.6m/s | -57.8°C | 5.9% | 208.8hPa | 0V | 00:00:00 | 00:00:00 | 00:00:00 | |
| ATIDSZ-14 | 2026-09-03 13:27:41 | 47.80884 | 17.32818 | 145° | 170km/h | 11822m | -17.4m/s | 0°C | 0% | 0hPa | 0V | 00:00:00 | 00:00:00 | 00:00:00 | |
| PETON7-10 | 2026-09-03 13:27:37 | 47.81022 | 17.32669 | 145° | 153km/h | 11893m | -16.4m/s | 0°C | 0% | 0hPa | 0V | 00:00:00 | 00:00:00 | 00:00:00 | |
| OM5KV | 2026-09-03 13:27:32 | 47.81192 | 17.32484 | 144° | 162km/h | 11979m | -17.3m/s | 0°C | 0% | 0hPa | 0V | 00:00:00 | 00:00:00 | 00:00:00 | |
| ATIDSZ-14 | 2026-09-03 13:27:20 | 47.81536 | 17.32066 | 137° | 137km/h | 12192m | -17.4m/s | 0°C | 0% | 0hPa | 0V | 00:00:00 | 00:00:00 | 00:00:00 | |
| OM5KV | 2026-09-03 13:27:15 | 47.81660 | 17.31887 | 135° | 133km/h | 12283m | -17.4m/s | 0°C | 0% | 0hPa | 0V | 00:00:00 | 00:00:00 | 00:00:00 | |
| S52SK | 2026-09-03 13:27:08 | 47.81827 | 17.31642 | 136° | 128km/h | 12413m | -17.9m/s | 0°C | 0% | 0hPa | 0V | 00:00:00 | 00:00:00 | 00:00:00 | |
| OM5KV | 2026-09-03 13:27:03 | 47.81934 | 17.31484 | 136° | 117km/h | 12505m | -18.6m/s | 0°C | 0% | 0hPa | 0V | 00:00:00 | 00:00:00 | 00:00:00 | |
| S52SK | 2026-09-03 13:27:02 | 47.81954 | 17.31454 | 137° | 111km/h | 12525m | -19.7m/s | 0°C | 0% | 0hPa | 0V | 00:00:00 | 00:00:00 | 00:00:00 | |
| ATIDSZ-14 | 2026-09-03 13:26:57 | 47.82049 | 17.31306 | 132° | 108km/h | 12621m | -18.9m/s | 0°C | 0% | 0hPa | 0V | 00:00:00 | 00:00:00 | 00:00:00 | |
| OM5KV | 2026-09-03 13:26:39 | 47.82351 | 17.30801 | 125° | 86km/h | 12963m | -18.7m/s | 0°C | 0% | 0hPa | 0V | 00:00:00 | 00:00:00 | 00:00:00 | |
| ATIDSZ-14 | 2026-09-03 13:26:36 | 47.82384 | 17.30726 | 123° | 77km/h | 13021m | -18.5m/s | 0°C | 0% | 0hPa | 0V | 00:00:00 | 00:00:00 | 00:00:00 | |
| OM5KV | 2026-09-03 13:26:33 | 47.82414 | 17.30649 | 120° | 80km/h | 13080m | -19.1m/s | 0°C | 0% | 0hPa | 0V | 00:00:00 | 00:00:00 | 00:00:00 | |
| OM5KV | 2026-09-03 13:26:21 | 47.82502 | 17.30313 | 111° | 82km/h | 13324m | -21.3m/s | 0°C | 0% | 0hPa | 0V | 00:00:00 | 00:00:00 | 00:00:00 | |
| ATIDSZ-14 | 2026-09-03 13:26:13 | 47.82570 | 17.30066 | 113° | 91km/h | 13498m | -20.7m/s | 0°C | 0% | 0hPa | 0V | 00:00:00 | 00:00:00 | 00:00:00 | |
| OE3OSB-13 | 2026-09-03 13:26:11 | 47.82598 | 17.29972 | 116° | 91km/h | 13561m | -19.0m/s | -53.7°C | 0.0% | 156.9hPa | 0V | 00:00:00 | 00:00:00 | 00:00:00 | |
| OM5KV | 2026-09-03 13:26:10 | 47.82598 | 17.29972 | 118° | 91km/h | 13561m | -19.0m/s | 0°C | 0% | 0hPa | 0V | 00:00:00 | 00:00:00 | 00:00:00 | |
| PETON7-10 | 2026-09-03 13:26:06 | 47.82642 | 17.29848 | 120° | 93km/h | 13646m | -19.6m/s | 0°C | 0% | 0hPa | 0V | 00:00:00 | 00:00:00 | 00:00:00 | |
| OM5KV | 2026-09-03 13:26:02 | 47.82693 | 17.29725 | 122° | 95km/h | 13731m | -21.2m/s | 0°C | 0% | 0hPa | 0V | 00:00:00 | 00:00:00 | 00:00:00 | |
| S52SK | 2026-09-03 13:26:01 | 47.82706 | 17.29695 | 124° | 97km/h | 13753m | -20.9m/s | 0°C | 0% | 0hPa | 0V | 00:00:00 | 00:00:00 | 00:00:00 | |
| S52SK | 2026-09-03 13:25:55 | 47.82788 | 17.29531 | 130° | 86km/h | 13880m | -20.4m/s | 0°C | 0% | 0hPa | 0V | 00:00:00 | 00:00:00 | 00:00:00 | |
| ATIDSZ-14 | 2026-09-03 13:25:52 | 47.82830 | 17.29454 | 128° | 88km/h | 13942m | -20.2m/s | 0°C | 0% | 0hPa | 0V | 00:00:00 | 00:00:00 | 00:00:00 | |
| PETON7-10 | 2026-09-03 13:25:51 | 47.82844 | 17.29429 | 131° | 73km/h | 13964m | -21.0m/s | 0°C | 0% | 0hPa | 0V | 00:00:00 | 00:00:00 | 00:00:00 | |
| S52SK | 2026-09-03 13:25:48 | 47.82883 | 17.29356 | 127° | 84km/h | 14028m | -20.4m/s | 0°C | 0% | 0hPa | 0V | 00:00:00 | 00:00:00 | 00:00:00 | |
| OE3OSB-13 | 2026-09-03 13:25:40 | 47.83001 | 17.29146 | 130° | 77km/h | 14220m | -20.3m/s | -53.7°C | 0.0% | 141.3hPa | 0V | 00:00:00 | 00:00:00 | 00:00:00 | |
| ATIDSZ-14 | 2026-09-03 13:25:30 | 47.83101 | 17.28947 | 124° | 68km/h | 14415m | -20.7m/s | 0°C | 0% | 0hPa | 0V | 00:00:00 | 00:00:00 | 00:00:00 | |
| OE3OSB-13 | 2026-09-03 13:25:09 | 47.83352 | 17.28463 | 129° | 75km/h | 14894m | -21.8m/s | -54.4°C | 0.0% | 126.7hPa | 0V | 00:00:00 | 00:00:00 | 00:00:00 | |
| OM5KV | 2026-09-03 13:25:08 | 47.83352 | 17.28463 | 131° | 75km/h | 14894m | -21.8m/s | 0°C | 0% | 0hPa | 0V | 00:00:00 | 00:00:00 | 00:00:00 | |
| OM5KV | 2026-09-03 13:25:03 | 47.83409 | 17.28365 | 130° | 69km/h | 15008m | -22.0m/s | 0°C | 0% | 0hPa | 0V | 00:00:00 | 00:00:00 | 00:00:00 | |
| OM5KV | 2026-09-03 13:24:57 | 47.83471 | 17.28243 | 127° | 69km/h | 15149m | -21.6m/s | 0°C | 0% | 0hPa | 0V | 00:00:00 | 00:00:00 | 00:00:00 | |
| PETON7-10 | 2026-09-03 13:24:51 | 47.83530 | 17.28119 | 126° | 64km/h | 15285m | -22.2m/s | 0°C | 0% | 0hPa | 0V | 00:00:00 | 00:00:00 | 00:00:00 | |
| ATIDSZ-14 | 2026-09-03 13:24:48 | 47.83562 | 17.28060 | 129° | 68km/h | 15351m | -21.2m/s | 0°C | 0% | 0hPa | 0V | 00:00:00 | 00:00:00 | 00:00:00 | |
| S52SK | 2026-09-03 13:24:44 | 47.83604 | 17.27984 | 132° | 68km/h | 15440m | -22.3m/s | 0°C | 0% | 0hPa | 0V | 00:00:00 | 00:00:00 | 00:00:00 | |
| S52SK | 2026-09-03 13:24:37 | 47.83668 | 17.27858 | 120° | 60km/h | 15603m | -22.9m/s | 0°C | 0% | 0hPa | 0V | 00:00:00 | 00:00:00 | 00:00:00 | |
| PETON7-10 | 2026-09-03 13:24:36 | 47.83675 | 17.27839 | 121° | 58km/h | 15627m | -23.2m/s | 0°C | 0% | 0hPa | 0V | 00:00:00 | 00:00:00 | 00:00:00 | |
| S52SK | 2026-09-03 13:24:31 | 47.83713 | 17.27741 | 122° | 62km/h | 15744m | -22.7m/s | 0°C | 0% | 0hPa | 0V | 00:00:00 | 00:00:00 | 00:00:00 | |
| S52SK | 2026-09-03 13:24:25 | 47.83758 | 17.27629 | 122° | 60km/h | 15880m | -22.0m/s | 0°C | 0% | 0hPa | 0V | 00:00:00 | 00:00:00 | 00:00:00 | |
| OM5KV | 2026-09-03 13:24:24 | 47.83766 | 17.27609 | 118° | 58km/h | 15903m | -22.8m/s | 0°C | 0% | 0hPa | 0V | 00:00:00 | 00:00:00 | 00:00:00 | |
| ATIDSZ-14 | 2026-09-03 13:24:21 | 47.83789 | 17.27553 | 120° | 57km/h | 15974m | -23.9m/s | 0°C | 0% | 0hPa | 0V | 00:00:00 | 00:00:00 | 00:00:00 | |
| PETON7-10 | 2026-09-03 13:24:20 | 47.83797 | 17.27534 | 124° | 44km/h | 15998m | -23.6m/s | 0°C | 0% | 0hPa | 0V | 00:00:00 | 00:00:00 | 00:00:00 | |
| S52SK | 2026-09-03 13:24:18 | 47.83812 | 17.27499 | 126° | 58km/h | 16046m | -23.5m/s | 0°C | 0% | 0hPa | 0V | 00:00:00 | 00:00:00 | 00:00:00 | |
| S52SK | 2026-09-03 13:24:10 | 47.83880 | 17.27394 | 139° | 42km/h | 16237m | -25.1m/s | 0°C | 0% | 0hPa | 0V | 00:00:00 | 00:00:00 | 00:00:00 | |
| OE3OSB-13 | 2026-09-03 13:24:07 | 47.83905 | 17.27355 | 137° | 33km/h | 16341m | -25.3m/s | -54.6°C | 0.0% | 100.2hPa | 0V | 00:00:00 | 00:00:00 | 00:00:00 | |
| S52SK | 2026-09-03 13:24:05 | 47.83911 | 17.27346 | 126° | 29km/h | 16366m | -24.5m/s | 0°C | 0% | 0hPa | 0V | 00:00:00 | 00:00:00 | 00:00:00 | |
| PETON7-10 | 2026-09-03 13:24:04 | 47.83916 | 17.27337 | 136° | 33km/h | 16392m | -24.9m/s | 0°C | 0% | 0hPa | 0V | 00:00:00 | 00:00:00 | 00:00:00 | |
| ATIDSZ-14 | 2026-09-03 13:24:01 | 47.83930 | 17.27308 | 122° | 33km/h | 16469m | -25.3m/s | 0°C | 0% | 0hPa | 0V | 00:00:00 | 00:00:00 | 00:00:00 | |
| S52SK | 2026-09-03 13:23:58 | 47.83944 | 17.27277 | 128° | 33km/h | 16546m | -25.0m/s | 0°C | 0% | 0hPa | 0V | 00:00:00 | 00:00:00 | 00:00:00 | |
| S52SK | 2026-09-03 13:23:52 | 47.83966 | 17.27212 | 114° | 35km/h | 16701m | -25.0m/s | 0°C | 0% | 0hPa | 0V | 00:00:00 | 00:00:00 | 00:00:00 | |
| PETON7-10 | 2026-09-03 13:23:48 | 47.83980 | 17.27162 | 116° | 44km/h | 16804m | -25.3m/s | 0°C | 0% | 0hPa | 0V | 00:00:00 | 00:00:00 | 00:00:00 | |
| ATIDSZ-14 | 2026-09-03 13:23:40 | 47.84022 | 17.27044 | 120° | 42km/h | 17014m | -26.2m/s | 0°C | 0% | 0hPa | 0V | 00:00:00 | 00:00:00 | 00:00:00 | |
| OE3OSB-13 | 2026-09-03 13:23:36 | 47.84057 | 17.26980 | 138° | 38km/h | 17147m | -25.3m/s | -55.3°C | 0.0% | 87.8hPa | 0V | 00:00:00 | 00:00:00 | 00:00:00 | |
| PETON7-10 | 2026-09-03 13:23:32 | 47.84078 | 17.26952 | 141° | 31km/h | 17228m | -25.3m/s | 0°C | 0% | 0hPa | 0V | 00:00:00 | 00:00:00 | 00:00:00 | |
| OM5KV | 2026-09-03 13:23:29 | 47.84095 | 17.26927 | 134° | 29km/h | 17306m | -25.7m/s | 0°C | 0% | 0hPa | 0V | 00:00:00 | 00:00:00 | 00:00:00 | |
| ATIDSZ-14 | 2026-09-03 13:23:19 | 47.84137 | 17.26837 | 105° | 29km/h | 17567m | -25.4m/s | 0°C | 0% | 0hPa | 0V | 00:00:00 | 00:00:00 | 00:00:00 | |
| PETON7-10 | 2026-09-03 13:23:17 | 47.84141 | 17.26817 | 109° | 31km/h | 17619m | -25.5m/s | 0°C | 0% | 0hPa | 0V | 00:00:00 | 00:00:00 | 00:00:00 | |
| OM5KV | 2026-09-03 13:23:13 | 47.84151 | 17.26775 | 106° | 33km/h | 17722m | -24.3m/s | 0°C | 0% | 0hPa | 0V | 00:00:00 | 00:00:00 | 00:00:00 | |
| OE3OSB-13 | 2026-09-03 13:23:05 | 47.84178 | 17.26669 | 117° | 29km/h | 17956m | -26.3m/s | -53.9°C | 0.0% | 76.8hPa | 0V | 00:00:00 | 00:00:00 | 00:00:00 | |
| PETON7-10 | 2026-09-03 13:23:01 | 47.84190 | 17.26638 | 118° | 38km/h | 18033m | -24.9m/s | 0°C | 0% | 0hPa | 0V | 00:00:00 | 00:00:00 | 00:00:00 | |
| ATIDSZ-14 | 2026-09-03 13:22:58 | 47.84203 | 17.26602 | 117° | 37km/h | 18111m | -26.1m/s | 0°C | 0% | 0hPa | 0V | 00:00:00 | 00:00:00 | 00:00:00 | |
| S52SK | 2026-09-03 13:22:48 | 47.84249 | 17.26469 | 117° | 38km/h | 18377m | -26.1m/s | 0°C | 0% | 0hPa | 0V | 00:00:00 | 00:00:00 | 00:00:00 | |
| PETON7-10 | 2026-09-03 13:22:46 | 47.84257 | 17.26443 | 114° | 31km/h | 18431m | -26.4m/s | 0°C | 0% | 0hPa | 0V | 00:00:00 | 00:00:00 | 00:00:00 | |
| S52SK | 2026-09-03 13:22:43 | 47.84269 | 17.26402 | 115° | 40km/h | 18509m | -24.1m/s | 0°C | 0% | 0hPa | 0V | 00:00:00 | 00:00:00 | 00:00:00 | |
| S52SK | 2026-09-03 13:22:34 | 47.84291 | 17.26308 | 100° | 24km/h | 18755m | -27.9m/s | 0°C | 0% | 0hPa | 0V | 00:00:00 | 00:00:00 | 00:00:00 | |
| ATIDSZ-14 | 2026-09-03 13:22:33 | 47.84291 | 17.26301 | 94° | 20km/h | 18784m | -28.6m/s | 0°C | 0% | 0hPa | 0V | 00:00:00 | 00:00:00 | 00:00:00 | |
| PETON7-10 | 2026-09-03 13:22:31 | 47.84292 | 17.26289 | 103° | 16km/h | 18842m | -29.5m/s | 0°C | 0% | 0hPa | 0V | 00:00:00 | 00:00:00 | 00:00:00 | |
| S52SK | 2026-09-03 13:22:28 | 47.84291 | 17.26271 | 78° | 20km/h | 18932m | -28.6m/s | 0°C | 0% | 0hPa | 0V | 00:00:00 | 00:00:00 | 00:00:00 | |
| PETON7-10 | 2026-09-03 13:22:16 | 47.84290 | 17.26184 | 113° | 18km/h | 19288m | -30.5m/s | 0°C | 0% | 0hPa | 0V | 00:00:00 | 00:00:00 | 00:00:00 | |
| S52SK | 2026-09-03 13:22:13 | 47.84298 | 17.26164 | 119° | 24km/h | 19382m | -29.4m/s | 0°C | 0% | 0hPa | 0V | 00:00:00 | 00:00:00 | 00:00:00 | |
| ATIDSZ-14 | 2026-09-03 13:22:12 | 47.84300 | 17.26156 | 109° | 22km/h | 19412m | -30.5m/s | 0°C | 0% | 0hPa | 0V | 00:00:00 | 00:00:00 | 00:00:00 | |
| OE3OSB-13 | 2026-09-03 13:22:03 | 47.84305 | 17.26082 | 76° | 18km/h | 19720m | -29.7m/s | -54.3°C | 0.0% | 57.3hPa | 0V | 00:00:00 | 00:00:00 | 00:00:00 | |
| PETON7-10 | 2026-09-03 13:22:01 | 47.84304 | 17.26075 | 85° | 22km/h | 19751m | -29.7m/s | 0°C | 0% | 0hPa | 0V | 00:00:00 | 00:00:00 | 00:00:00 | |
| OM5KV | 2026-09-03 13:21:55 | 47.84308 | 17.26028 | 95° | 24km/h | 19937m | -31.0m/s | 0°C | 0% | 0hPa | 0V | 00:00:00 | 00:00:00 | 00:00:00 | |
| ATIDSZ-14 | 2026-09-03 13:21:52 | 47.84312 | 17.26001 | 103° | 26km/h | 20031m | -30.8m/s | 0°C | 0% | 0hPa | 0V | 00:00:00 | 00:00:00 | 00:00:00 | |
| OE3OSB-13 | 2026-09-03 13:21:32 | 47.84335 | 17.25897 | 71° | 18km/h | 20759m | -32.8m/s | -53.9°C | 0.0% | 48.1hPa | 0V | 00:00:00 | 00:00:00 | 00:00:00 | |
| PETON7-10 | 2026-09-03 13:21:26 | 47.84335 | 17.25873 | 106° | 18km/h | 20896m | -32.4m/s | 0°C | 0% | 0hPa | 0V | 00:00:00 | 00:00:00 | 00:00:00 | |
| PETON7-10 | 2026-09-03 13:21:11 | 47.84377 | 17.25815 | 154° | 9km/h | 21401m | -34.8m/s | 0°C | 0% | 0hPa | 0V | 00:00:00 | 00:00:00 | 00:00:00 | |
| S52SK | 2026-09-03 13:21:09 | 47.84379 | 17.25813 | 140° | 5km/h | 21473m | -35.0m/s | 0°C | 0% | 0hPa | 0V | 00:00:00 | 00:00:00 | 00:00:00 | |
| OE3OSB-13 | 2026-09-03 13:21:01 | 47.84387 | 17.25793 | 143° | 9km/h | 21804m | -38.6m/s | -51.9°C | 0.0% | 40.3hPa | 0V | 00:00:00 | 00:00:00 | 00:00:00 | |
| PETON7-10 | 2026-09-03 13:20:53 | 47.84406 | 17.25779 | 160° | 5km/h | 22045m | -33.1m/s | 0°C | 0% | 0hPa | 0V | 00:00:00 | 00:00:00 | 00:00:00 | |
| OM5KV | 2026-09-03 13:20:50 | 47.84415 | 17.25779 | 187° | 11km/h | 22148m | -33.1m/s | 0°C | 0% | 0hPa | 0V | 00:00:00 | 00:00:00 | 00:00:00 | |
| ATIDSZ-14 | 2026-09-03 13:20:41 | 47.84426 | 17.25796 | 0° | 0km/h | 22494m | -39.2m/s | 0°C | 0% | 0hPa | 0V | 00:00:00 | 00:00:00 | 00:00:00 | |
| PETON7-10 | 2026-09-03 13:20:34 | 47.84433 | 17.25793 | 154° | 7km/h | 22749m | -33.4m/s | 0°C | 0% | 0hPa | 0V | 00:00:00 | 00:00:00 | 00:00:00 | |
| OM5KV | 2026-09-03 13:20:27 | 47.84438 | 17.25795 | 320° | 5km/h | 23009m | -40.1m/s | 0°C | 0% | 0hPa | 0V | 00:00:00 | 00:00:00 | 00:00:00 | |
| PETON7-10 | 2026-09-03 13:20:19 | 47.84424 | 17.25807 | 330° | 7km/h | 23339m | -40.4m/s | 0°C | 0% | 0hPa | 0V | 00:00:00 | 00:00:00 | 00:00:00 | |
| PETON7-10 | 2026-09-03 13:20:03 | 47.84411 | 17.25795 | 94° | 11km/h | 23994m | -39.7m/s | 0°C | 0% | 0hPa | 0V | 00:00:00 | 00:00:00 | 00:00:00 | |
| OE3OSB-13 | 2026-09-03 13:19:58 | 47.84427 | 17.25771 | 207° | 0km/h | 24397m | -41.1m/s | -49.3°C | 0.0% | 25.6hPa | 0V | 00:00:00 | 00:00:00 | 00:00:00 | |
| ATIDSZ-14 | 2026-09-03 13:19:57 | 47.84422 | 17.25773 | 148° | 9km/h | 24238m | -39.8m/s | 0°C | 0% | 0hPa | 0V | 00:00:00 | 00:00:00 | 00:00:00 | |
| S52SK | 2026-09-03 13:19:55 | 47.84426 | 17.25770 | 166° | 7km/h | 24318m | -38.9m/s | 0°C | 0% | 0hPa | 0V | 00:00:00 | 00:00:00 | 00:00:00 | |
| PETON7-10 | 2026-09-03 13:19:46 | 47.84419 | 17.25772 | 35° | 11km/h | 24712m | -46.7m/s | 0°C | 0% | 0hPa | 0V | 00:00:00 | 00:00:00 | 00:00:00 | |
| ATIDSZ-14 | 2026-09-03 13:19:36 | 47.84404 | 17.25732 | 71° | 11km/h | 25162m | -42.0m/s | 0°C | 0% | 0hPa | 0V | 00:00:00 | 00:00:00 | 00:00:00 | |
| OE3OSB-13 | 2026-09-03 13:19:27 | 47.84394 | 17.25699 | 38° | 11km/h | 25700m | -43.6m/s | -48.1°C | 0.0% | 20.3hPa | 0V | 00:00:00 | 00:00:00 | 00:00:00 | |
| PETON7-10 | 2026-09-03 13:19:23 | 47.84391 | 17.25695 | 51° | 20km/h | 25743m | -41.3m/s | 0°C | 0% | 0hPa | 0V | 00:00:00 | 00:00:00 | 00:00:00 | |
| ATIDSZ-14 | 2026-09-03 13:19:06 | 47.84370 | 17.25573 | 90° | 16km/h | 26501m | -47.1m/s | 0°C | 0% | 0hPa | 0V | 00:00:00 | 00:00:00 | 00:00:00 | |
| PETON7-10 | 2026-09-03 13:19:05 | 47.84370 | 17.25567 | 97° | 15km/h | 26548m | -44.5m/s | 0°C | 0% | 0hPa | 0V | 00:00:00 | 00:00:00 | 00:00:00 | |
| OE3OSB-13 | 2026-09-03 13:18:56 | 47.84364 | 17.25500 | 74° | 9km/h | 27165m | -43.8m/s | -46.4°C | 0.0% | 15.4hPa | 0V | 00:00:00 | 00:00:00 | 00:00:00 | |
| OM5KV | 2026-09-03 13:18:52 | 47.84364 | 17.25503 | 96° | 11km/h | 27121m | -44.3m/s | 0°C | 0% | 0hPa | 0V | 00:00:00 | 00:00:00 | 00:00:00 | |
| ATIDSZ-14 | 2026-09-03 13:18:28 | 47.84380 | 17.25348 | 112° | 20km/h | 28294m | -41.3m/s | 0°C | 0% | 0hPa | 0V | 00:00:00 | 00:00:00 | 00:00:00 | |
| OE3OSB-13 | 2026-09-03 13:18:25 | 47.84396 | 17.25300 | 113° | 24km/h | 28595m | -46.3m/s | -44.7°C | 0.0% | 11.6hPa | 0V | 00:00:00 | 00:00:00 | 00:00:00 | |
| ATIDSZ-14 | 2026-09-03 13:18:05 | 47.84440 | 17.25184 | 150° | 22km/h | 29344m | -50.3m/s | 0°C | 0% | 0hPa | 0V | 00:00:00 | 00:00:00 | 00:00:00 | |
| OE3OSB-13 | 2026-09-03 13:17:54 | 47.84461 | 17.25170 | 2° | 5km/h | 29929m | -51.8m/s | -42.7°C | 0.0% | 8.8hPa | 0V | 00:00:00 | 00:00:00 | 00:00:00 | |
| OM5KV | 2026-09-03 13:17:47 | 47.84456 | 17.25151 | 92° | 13km/h | 30226m | -48.3m/s | 0°C | 0% | 0hPa | 0V | 00:00:00 | 00:00:00 | 00:00:00 | |
| OE3OSB-13 | 2026-09-03 13:17:23 | 47.84412 | 17.25043 | 36° | 16km/h | 31904m | -58.1m/s | -39.3°C | 0.0% | 5.5hPa | 0V | 00:00:00 | 00:00:00 | 00:00:00 | |
| ATIDSZ-14 | 2026-09-03 13:17:12 | 47.84394 | 17.25024 | 40° | 20km/h | 32196m | -55.2m/s | 0°C | 0% | 0hPa | 0V | 00:00:00 | 00:00:00 | 00:00:00 | |
| OE3OSB-13 | 2026-09-03 13:16:53 | 47.84320 | 17.24924 | 52° | 5km/h | 33657m | -63.3m/s | -34.1°C | 0.0% | 3.3hPa | 0V | 00:00:00 | 00:00:00 | 00:00:00 | |
| OM5KV | 2026-09-03 13:16:46 | 47.84319 | 17.24923 | 335° | 5km/h | 33721m | -63.8m/s | 0°C | 0% | 0hPa | 0V | 00:00:00 | 00:00:00 | 00:00:00 | |
| ATIDSZ-14 | 2026-09-03 13:16:43 | 47.84312 | 17.24941 | 296° | 31km/h | 33900m | -51.3m/s | 0°C | 0% | 0hPa | 0V | 00:00:00 | 00:00:00 | 00:00:00 | |
| OK1ALN | 2026-09-03 13:16:30 | 47.84288 | 17.24993 | 15° | 22km/h | 34009m | 8.9m/s | 0°C | 0% | 0hPa | 0V | 00:00:00 | 00:00:00 | 00:00:00 | |
| OK1SLM-15 | 2026-09-03 13:16:25 | 47.84266 | 17.24965 | 356° | 20km/h | 33974m | 8.3m/s | 0°C | 0% | 0hPa | 0V | 00:00:00 | 00:00:00 | 00:00:00 | |
| OM5KV | 2026-09-03 13:16:24 | 47.84261 | 17.24967 | 331° | 22km/h | 33966m | 7.1m/s | 0°C | 0% | 0hPa | 0V | 00:00:00 | 00:00:00 | 00:00:00 | |
| OE3OSB-13 | 2026-09-03 13:16:21 | 47.84244 | 17.24969 | 28° | 22km/h | 33941m | 6.2m/s | -34.3°C | 0.0% | 3.1hPa | 0V | 00:00:00 | 00:00:00 | 00:00:00 | |
| OK1SLM-15 | 2026-09-03 13:16:20 | 47.84245 | 17.24969 | 30° | 24km/h | 33941m | 6.2m/s | 0°C | 0% | 0hPa | 0V | 00:00:00 | 00:00:00 | 00:00:00 | |
| ATIDSZ-14 | 2026-09-03 13:16:19 | 47.84239 | 17.24965 | 26° | 27km/h | 33935m | 7.0m/s | 0°C | 0% | 0hPa | 0V | 00:00:00 | 00:00:00 | 00:00:00 | |
| OM5KV | 2026-09-03 13:16:17 | 47.84223 | 17.24960 | 2° | 37km/h | 33919m | 5.5m/s | 0°C | 0% | 0hPa | 0V | 00:00:00 | 00:00:00 | 00:00:00 | |
| OK1SLM-15 | 2026-09-03 13:16:15 | 47.84205 | 17.24957 | 16° | 33km/h | 33908m | 4.4m/s | 0°C | 0% | 0hPa | 0V | 00:00:00 | 00:00:00 | 00:00:00 | |
| OM5KV | 2026-09-03 13:16:12 | 47.84192 | 17.24943 | 69° | 11km/h | 33887m | 4.8m/s | 0°C | 0% | 0hPa | 0V | 00:00:00 | 00:00:00 | 00:00:00 | |
| OK1ALN | 2026-09-03 13:16:10 | 47.84190 | 17.24944 | 304° | 13km/h | 33874m | 7.4m/s | 0°C | 0% | 0hPa | 0V | 00:00:00 | 00:00:00 | 00:00:00 | |
| OM5KV | 2026-09-03 13:16:05 | 47.84162 | 17.24948 | 55° | 31km/h | 33840m | 8.0m/s | 0°C | 0% | 0hPa | 0V | 00:00:00 | 00:00:00 | 00:00:00 | |
| OE3OSB-13 | 2026-09-03 13:15:50 | 47.84107 | 17.24958 | 266° | 13km/h | 33738m | 6.1m/s | -34.6°C | 0.0% | 3.2hPa | 0V | 00:00:00 | 00:00:00 | 00:00:00 | |
| OM5KV | 2026-09-03 13:15:47 | 47.84110 | 17.24962 | 167° | 7km/h | 33723m | 5.5m/s | 0°C | 0% | 0hPa | 0V | 00:00:00 | 00:00:00 | 00:00:00 | |
| HA6NAB-11 | 2026-09-03 13:15:44 | 47.84106 | 17.24961 | 347° | 16km/h | 33705m | 7.2m/s | 0°C | 0% | 0hPa | 0V | 00:00:00 | 00:00:00 | 00:00:00 | |
| OM5KV | 2026-09-03 13:15:42 | 47.84098 | 17.24966 | 341° | 13km/h | 33695m | 2.9m/s | 0°C | 0% | 0hPa | 0V | 00:00:00 | 00:00:00 | 00:00:00 | |
| HA6NAB-11 | 2026-09-03 13:15:38 | 47.84106 | 17.24959 | 163° | 22km/h | 33665m | 6.7m/s | 0°C | 0% | 0hPa | 0V | 00:00:00 | 00:00:00 | 00:00:00 | |
| ATIDSZ-14 | 2026-09-03 13:15:36 | 47.84113 | 17.24959 | 237° | 9km/h | 33653m | 8.9m/s | 0°C | 0% | 0hPa | 0V | 00:00:00 | 00:00:00 | 00:00:00 | |
| HA6NAB-11 | 2026-09-03 13:15:32 | 47.84108 | 17.24973 | 52° | 4km/h | 33627m | 8.3m/s | 0°C | 0% | 0hPa | 0V | 00:00:00 | 00:00:00 | 00:00:00 | |
| OM5KV | 2026-09-03 13:15:31 | 47.84108 | 17.24970 | 118° | 15km/h | 33619m | 9.0m/s | 0°C | 0% | 0hPa | 0V | 00:00:00 | 00:00:00 | 00:00:00 | |
| OK1ALN | 2026-09-03 13:15:28 | 47.84119 | 17.24956 | 174° | 15km/h | 33600m | 8.9m/s | 0°C | 0% | 0hPa | 0V | 00:00:00 | 00:00:00 | 00:00:00 | |
| HA6NAB-11 | 2026-09-03 13:15:26 | 47.84123 | 17.24960 | 274° | 11km/h | 33584m | 6.8m/s | 0°C | 0% | 0hPa | 0V | 00:00:00 | 00:00:00 | 00:00:00 | |
| HA6NAB-11 | 2026-09-03 13:15:21 | 47.84119 | 17.24942 | 75° | 11km/h | 33539m | 6.0m/s | 0°C | 0% | 0hPa | 0V | 00:00:00 | 00:00:00 | 00:00:00 | |
| OE3OSB-13 | 2026-09-03 13:15:20 | 47.84118 | 17.24942 | 265° | 4km/h | 33528m | 3.2m/s | -35.1°C | 0.0% | 3.5hPa | 0V | 00:00:00 | 00:00:00 | 00:00:00 | |
| ATIDSZ-14 | 2026-09-03 13:15:16 | 47.84119 | 17.24941 | 117° | 11km/h | 33518m | 6.8m/s | 0°C | 0% | 0hPa | 0V | 00:00:00 | 00:00:00 | 00:00:00 | |
| OM5KV | 2026-09-03 13:15:06 | 47.84098 | 17.24904 | 88° | 33km/h | 33448m | 9.5m/s | 0°C | 0% | 0hPa | 0V | 00:00:00 | 00:00:00 | 00:00:00 | |
| OK1ALN | 2026-09-03 13:15:04 | 47.84097 | 17.24881 | 80° | 26km/h | 33436m | 5.8m/s | 0°C | 0% | 0hPa | 0V | 00:00:00 | 00:00:00 | 00:00:00 | |
| OE3OSB-13 | 2026-09-03 13:14:48 | 47.84029 | 17.24809 | 57° | 40km/h | 33322m | 6.1m/s | -35.5°C | 0.0% | 3.8hPa | 0V | 00:00:00 | 00:00:00 | 00:00:00 | |
| OK1ALN | 2026-09-03 13:14:43 | 47.84004 | 17.24795 | 299° | 16km/h | 33296m | 9.5m/s | 0°C | 0% | 0hPa | 0V | 00:00:00 | 00:00:00 | 00:00:00 | |
| ATIDSZ-14 | 2026-09-03 13:14:32 | 47.83977 | 17.24746 | 125° | 22km/h | 33221m | 5.6m/s | 0°C | 0% | 0hPa | 0V | 00:00:00 | 00:00:00 | 00:00:00 | |
| OK1SLM-15 | 2026-09-03 13:14:24 | 47.83957 | 17.24694 | 78° | 18km/h | 33167m | 8.7m/s | 0°C | 0% | 0hPa | 0V | 00:00:00 | 00:00:00 | 00:00:00 | |
| OK1ALN | 2026-09-03 13:14:22 | 47.83956 | 17.24684 | 89° | 7km/h | 33151m | 5.8m/s | 0°C | 0% | 0hPa | 0V | 00:00:00 | 00:00:00 | 00:00:00 | |
| OK1SLM-15 | 2026-09-03 13:14:18 | 47.83964 | 17.24665 | 108° | 26km/h | 33127m | 5.1m/s | 0°C | 0% | 0hPa | 0V | 00:00:00 | 00:00:00 | 00:00:00 | |
| OE3OSB-13 | 2026-09-03 13:14:17 | 47.83964 | 17.24644 | 73° | 27km/h | 33113m | 9.8m/s | -35.9°C | 0.0% | 4.0hPa | 0V | 00:00:00 | 00:00:00 | 00:00:00 | |
| OK1SLM-15 | 2026-09-03 13:14:13 | 47.83953 | 17.24624 | 39° | 16km/h | 33091m | 6.1m/s | 0°C | 0% | 0hPa | 0V | 00:00:00 | 00:00:00 | 00:00:00 | |
| ATIDSZ-14 | 2026-09-03 13:14:09 | 47.83956 | 17.24600 | 113° | 29km/h | 33063m | 7.8m/s | 0°C | 0% | 0hPa | 0V | 00:00:00 | 00:00:00 | 00:00:00 | |
| OK1ALN | 2026-09-03 13:14:01 | 47.83928 | 17.24530 | 85° | 27km/h | 33000m | 6.7m/s | 0°C | 0% | 0hPa | 0V | 00:00:00 | 00:00:00 | 00:00:00 | |
| OK1ALN | 2026-09-03 13:13:38 | 47.83767 | 17.24392 | 10° | 22km/h | 32830m | 4.5m/s | 0°C | 0% | 0hPa | 0V | 00:00:00 | 00:00:00 | 00:00:00 | |
| ATIDSZ-14 | 2026-09-03 13:13:22 | 47.83619 | 17.24339 | 21° | 29km/h | 32723m | 6.7m/s | 0°C | 0% | 0hPa | 0V | 00:00:00 | 00:00:00 | 00:00:00 | |
| OK1ALN | 2026-09-03 13:13:18 | 47.83580 | 17.24316 | 19° | 40km/h | 32698m | 4.7m/s | 0°C | 0% | 0hPa | 0V | 00:00:00 | 00:00:00 | 00:00:00 | |
| OE3OSB-13 | 2026-09-03 13:13:14 | 47.83557 | 17.24312 | 325° | 16km/h | 32673m | 6.2m/s | -36.6°C | 0.0% | 4.5hPa | 0V | 00:00:00 | 00:00:00 | 00:00:00 | |
| OE3OSB-13 | 2026-09-03 13:12:43 | 47.83408 | 17.24257 | 240° | 2km/h | 32470m | 5.8m/s | -37.0°C | 0.0% | 4.8hPa | 0V | 00:00:00 | 00:00:00 | 00:00:00 | |
| OK1ALN | 2026-09-03 13:12:36 | 47.83390 | 17.24198 | 69° | 38km/h | 32431m | 7.1m/s | 0°C | 0% | 0hPa | 0V | 00:00:00 | 00:00:00 | 00:00:00 | |
| ATIDSZ-14 | 2026-09-03 13:12:34 | 47.83383 | 17.24181 | 43° | 20km/h | 32418m | 6.5m/s | 0°C | 0% | 0hPa | 0V | 00:00:00 | 00:00:00 | 00:00:00 | |
| S52SK | 2026-09-03 13:12:20 | 47.83319 | 17.24134 | 266° | 13km/h | 32330m | 8.2m/s | 0°C | 0% | 0hPa | 0V | 00:00:00 | 00:00:00 | 00:00:00 | |
| S52SK | 2026-09-03 13:12:15 | 47.83309 | 17.24094 | 29° | 53km/h | 32297m | 6.0m/s | 0°C | 0% | 0hPa | 0V | 00:00:00 | 00:00:00 | 00:00:00 | |
| ATIDSZ-14 | 2026-09-03 13:11:53 | 47.83185 | 17.24095 | 268° | 9km/h | 32153m | 5.6m/s | 0°C | 0% | 0hPa | 0V | 00:00:00 | 00:00:00 | 00:00:00 | |
| OK1ALN | 2026-09-03 13:11:33 | 47.83128 | 17.24082 | 44° | 22km/h | 32019m | 5.6m/s | 0°C | 0% | 0hPa | 0V | 00:00:00 | 00:00:00 | 00:00:00 | |
| ATIDSZ-14 | 2026-09-03 13:11:32 | 47.83125 | 17.24077 | 48° | 15km/h | 32013m | 4.2m/s | 0°C | 0% | 0hPa | 0V | 00:00:00 | 00:00:00 | 00:00:00 | |
| ATIDSZ-14 | 2026-09-03 13:11:12 | 47.83139 | 17.23980 | 129° | 16km/h | 31883m | 5.7m/s | 0°C | 0% | 0hPa | 0V | 00:00:00 | 00:00:00 | 00:00:00 | |
| ATIDSZ-14 | 2026-09-03 13:10:49 | 47.83139 | 17.23793 | 121° | 18km/h | 31736m | 8.0m/s | 0°C | 0% | 0hPa | 0V | 00:00:00 | 00:00:00 | 00:00:00 | |
| ATIDSZ-14 | 2026-09-03 13:10:29 | 47.83112 | 17.23635 | 49° | 35km/h | 31604m | 5.8m/s | 0°C | 0% | 0hPa | 0V | 00:00:00 | 00:00:00 | 00:00:00 | |
| ATIDSZ-14 | 2026-09-03 13:10:09 | 47.83048 | 17.23485 | 110° | 24km/h | 31465m | 6.5m/s | 0°C | 0% | 0hPa | 0V | 00:00:00 | 00:00:00 | 00:00:00 | |
| ATIDSZ-14 | 2026-09-03 13:09:48 | 47.82980 | 17.23377 | 45° | 18km/h | 31332m | 7.4m/s | 0°C | 0% | 0hPa | 0V | 00:00:00 | 00:00:00 | 00:00:00 | |
| OK1ALN | 2026-09-03 13:09:47 | 47.82977 | 17.23372 | 77° | 16km/h | 31325m | 7.9m/s | 0°C | 0% | 0hPa | 0V | 00:00:00 | 00:00:00 | 00:00:00 | |
| S52SK | 2026-09-03 13:09:40 | 47.82962 | 17.23341 | 63° | 29km/h | 31274m | 9.1m/s | 0°C | 0% | 0hPa | 0V | 00:00:00 | 00:00:00 | 00:00:00 | |
| ATIDSZ-14 | 2026-09-03 13:09:26 | 47.82917 | 17.23286 | 4° | 13km/h | 31176m | 7.2m/s | 0°C | 0% | 0hPa | 0V | 00:00:00 | 00:00:00 | 00:00:00 | |
| OK1ALN | 2026-09-03 13:09:05 | 47.82847 | 17.23313 | 350° | 24km/h | 31033m | 6.9m/s | 0°C | 0% | 0hPa | 0V | 00:00:00 | 00:00:00 | 00:00:00 | |
| ATIDSZ-14 | 2026-09-03 13:09:04 | 47.82842 | 17.23315 | 322° | 13km/h | 31025m | 9.1m/s | 0°C | 0% | 0hPa | 0V | 00:00:00 | 00:00:00 | 00:00:00 | |
| OK1ALN | 2026-09-03 13:08:45 | 47.82845 | 17.23352 | 96° | 9km/h | 30890m | 8.1m/s | 0°C | 0% | 0hPa | 0V | 00:00:00 | 00:00:00 | 00:00:00 | |
| ATIDSZ-14 | 2026-09-03 13:08:44 | 47.82844 | 17.23349 | 55° | 11km/h | 30884m | 4.7m/s | 0°C | 0% | 0hPa | 0V | 00:00:00 | 00:00:00 | 00:00:00 | |
| ATIDSZ-14 | 2026-09-03 13:08:24 | 47.82895 | 17.23332 | 106° | 20km/h | 30749m | 8.7m/s | 0°C | 0% | 0hPa | 0V | 00:00:00 | 00:00:00 | 00:00:00 | |
| OE3OSB-13 | 2026-09-03 12:56:04 | 47.83149 | 17.19534 | 355° | 18km/h | 26012m | 7.4m/s | -47.9°C | 0.0% | 19.2hPa | 0V | 00:00:00 | 00:00:00 | 00:00:00 | |
| OE5DXL-15 | 2026-09-03 12:55:46 | 47.83149 | 17.19534 | 356° | 20km/h | 26013m | 7.4m/s | 0°C | 0% | 0hPa | 0V | 00:00:00 | 00:00:00 | 00:00:00 | |
| PETON7-10 | 2026-09-03 12:55:42 | 47.83138 | 17.19525 | 45° | 22km/h | 25990m | 4.8m/s | 0°C | 0% | 0hPa | 0V | 00:00:00 | 00:00:00 | 00:00:00 | |
| OE5MMP-10 | 2026-09-03 12:55:39 | 47.83119 | 17.19508 | 32° | 20km/h | 25976m | 4.1m/s | 0°C | 0% | 0hPa | 0V | 00:00:00 | 00:00:00 | 00:00:00 | |
| ATIDSZ-14 | 2026-09-03 12:55:37 | 47.83108 | 17.19494 | 54° | 24km/h | 25967m | 6.0m/s | 0°C | 0% | 0hPa | 0V | 00:00:00 | 00:00:00 | 00:00:00 | |
| OK1ALN | 2026-09-03 12:55:35 | 47.83101 | 17.19481 | 60° | 18km/h | 25958m | 6.3m/s | 0°C | 0% | 0hPa | 0V | 00:00:00 | 00:00:00 | 00:00:00 | |
| OE3OSB-13 | 2026-09-03 12:55:33 | 47.83088 | 17.19473 | 16° | 18km/h | 25942m | 4.4m/s | -47.7°C | 0.0% | 19.5hPa | 0V | 00:00:00 | 00:00:00 | 00:00:00 | |
| OE5MMP-10 | 2026-09-03 12:55:29 | 47.83079 | 17.19465 | 38° | 24km/h | 25927m | 4.2m/s | 0°C | 0% | 0hPa | 0V | 00:00:00 | 00:00:00 | 00:00:00 | |
| PETON7-10 | 2026-09-03 12:55:26 | 47.83065 | 17.19446 | 48° | 20km/h | 25911m | 4.0m/s | 0°C | 0% | 0hPa | 0V | 00:00:00 | 00:00:00 | 00:00:00 | |
| S52SK | 2026-09-03 12:55:25 | 47.83059 | 17.19436 | 54° | 35km/h | 25907m | 7.4m/s | 0°C | 0% | 0hPa | 0V | 00:00:00 | 00:00:00 | 00:00:00 | |
| OE3JTB-15 | 2026-09-03 12:55:23 | 47.83053 | 17.19419 | 57° | 13km/h | 25896m | 4.7m/s | 0°C | 0% | 0hPa | 0V | 00:00:00 | 00:00:00 | 00:00:00 | |
| S52SK | 2026-09-03 12:55:20 | 47.83042 | 17.19417 | 339° | 18km/h | 25876m | 4.0m/s | 0°C | 0% | 0hPa | 0V | 00:00:00 | 00:00:00 | 00:00:00 | |
| OE5MMP-10 | 2026-09-03 12:55:19 | 47.83039 | 17.19419 | 348° | 18km/h | 25870m | 2.7m/s | 0°C | 0% | 0hPa | 0V | 00:00:00 | 00:00:00 | 00:00:00 | |
| OE5DXL-15 | 2026-09-03 12:55:16 | 47.83031 | 17.19407 | 82° | 11km/h | 25851m | 5.5m/s | 0°C | 0% | 0hPa | 0V | 00:00:00 | 00:00:00 | 00:00:00 | |
| OK1ALN | 2026-09-03 12:55:14 | 47.83026 | 17.19390 | 33° | 24km/h | 25838m | 6.8m/s | 0°C | 0% | 0hPa | 0V | 00:00:00 | 00:00:00 | 00:00:00 | |
| PETON7-10 | 2026-09-03 12:55:09 | 47.83010 | 17.19381 | 16° | 11km/h | 25805m | 4.3m/s | 0°C | 0% | 0hPa | 0V | 00:00:00 | 00:00:00 | 00:00:00 | |
| OE3OSB-13 | 2026-09-03 12:55:02 | 47.82998 | 17.19363 | 78° | 9km/h | 25756m | 6.2m/s | -47.5°C | 0.0% | 20.2hPa | 0V | 00:00:00 | 00:00:00 | 00:00:00 | |
| OE5MMP-10 | 2026-09-03 12:54:58 | 47.82992 | 17.19362 | 337° | 9km/h | 25736m | 3.5m/s | 0°C | 0% | 0hPa | 0V | 00:00:00 | 00:00:00 | 00:00:00 | |
| ATIDSZ-14 | 2026-09-03 12:54:56 | 47.82990 | 17.19361 | 107° | 13km/h | 25725m | 6.6m/s | 0°C | 0% | 0hPa | 0V | 00:00:00 | 00:00:00 | 00:00:00 | |
| OE3JTB-15 | 2026-09-03 12:54:54 | 47.82992 | 17.19347 | 76° | 11km/h | 25707m | 5.9m/s | 0°C | 0% | 0hPa | 0V | 00:00:00 | 00:00:00 | 00:00:00 | |
| OK1ALN | 2026-09-03 12:54:53 | 47.82992 | 17.19347 | 76° | 5km/h | 25707m | 5.9m/s | 0°C | 0% | 0hPa | 0V | 00:00:00 | 00:00:00 | 00:00:00 | |
| OE5MMP-10 | 2026-09-03 12:54:48 | 47.82996 | 17.19340 | 101° | 13km/h | 25676m | 6.1m/s | 0°C | 0% | 0hPa | 0V | 00:00:00 | 00:00:00 | 00:00:00 | |
| OE5DXL-15 | 2026-09-03 12:54:46 | 47.82992 | 17.19332 | 23° | 13km/h | 25659m | 5.8m/s | 0°C | 0% | 0hPa | 0V | 00:00:00 | 00:00:00 | 00:00:00 | |
| OE5MMP-10 | 2026-09-03 12:54:38 | 47.82995 | 17.19326 | 35° | 11km/h | 25611m | 4.9m/s | 0°C | 0% | 0hPa | 0V | 00:00:00 | 00:00:00 | 00:00:00 | |
| PETON7-10 | 2026-09-03 12:54:37 | 47.82993 | 17.19322 | 71° | 16km/h | 25605m | 6.6m/s | 0°C | 0% | 0hPa | 0V | 00:00:00 | 00:00:00 | 00:00:00 | |
| ATIDSZ-14 | 2026-09-03 12:54:36 | 47.82992 | 17.19316 | 66° | 20km/h | 25599m | 5.1m/s | 0°C | 0% | 0hPa | 0V | 00:00:00 | 00:00:00 | 00:00:00 | |
| OE3OSB-13 | 2026-09-03 12:54:31 | 47.82997 | 17.19306 | 184° | 16km/h | 25564m | 5.4m/s | -47.7°C | 0.0% | 20.9hPa | 0V | 00:00:00 | 00:00:00 | 00:00:00 | |
| OE5MMP-10 | 2026-09-03 12:54:28 | 47.83001 | 17.19307 | 346° | 16km/h | 25553m | 6.2m/s | 0°C | 0% | 0hPa | 0V | 00:00:00 | 00:00:00 | 00:00:00 | |
| OE3JTB-15 | 2026-09-03 12:54:25 | 47.82991 | 17.19292 | 76° | 20km/h | 25530m | 5.8m/s | 0°C | 0% | 0hPa | 0V | 00:00:00 | 00:00:00 | 00:00:00 | |
| PETON7-10 | 2026-09-03 12:54:22 | 47.82994 | 17.19274 | 121° | 15km/h | 25519m | 3.3m/s | 0°C | 0% | 0hPa | 0V | 00:00:00 | 00:00:00 | 00:00:00 | |
| OE5MMP-10 | 2026-09-03 12:54:17 | 47.83000 | 17.19269 | 160° | 15km/h | 25493m | 7.1m/s | 0°C | 0% | 0hPa | 0V | 00:00:00 | 00:00:00 | 00:00:00 | |
| OE5DXL-15 | 2026-09-03 12:54:16 | 47.83002 | 17.19267 | 144° | 16km/h | 25486m | 4.1m/s | 0°C | 0% | 0hPa | 0V | 00:00:00 | 00:00:00 | 00:00:00 | |
| OK1ALN | 2026-09-03 12:54:11 | 47.83008 | 17.19236 | 87° | 22km/h | 25461m | 6.0m/s | 0°C | 0% | 0hPa | 0V | 00:00:00 | 00:00:00 | 00:00:00 | |
| PETON7-10 | 2026-09-03 12:54:07 | 47.83015 | 17.19223 | 35° | 18km/h | 25439m | 7.9m/s | 0°C | 0% | 0hPa | 0V | 00:00:00 | 00:00:00 | 00:00:00 | |
| OE3OSB-13 | 2026-09-03 12:54:00 | 47.83017 | 17.19175 | 63° | 16km/h | 25387m | 5.0m/s | -48.1°C | 0.0% | 21.6hPa | 0V | 00:00:00 | 00:00:00 | 00:00:00 | |
| OE5MMP-10 | 2026-09-03 12:53:57 | 47.83017 | 17.19162 | 120° | 16km/h | 25376m | 4.8m/s | 0°C | 0% | 0hPa | 0V | 00:00:00 | 00:00:00 | 00:00:00 | |
| ATIDSZ-14 | 2026-09-03 12:53:55 | 47.83019 | 17.19153 | 100° | 13km/h | 25366m | 6.6m/s | 0°C | 0% | 0hPa | 0V | 00:00:00 | 00:00:00 | 00:00:00 | |
| OK1ALN | 2026-09-03 12:53:51 | 47.83019 | 17.19131 | 113° | 18km/h | 25338m | 7.6m/s | 0°C | 0% | 0hPa | 0V | 00:00:00 | 00:00:00 | 00:00:00 | |
| OE5MMP-10 | 2026-09-03 12:53:47 | 47.83022 | 17.19105 | 19° | 11km/h | 25311m | 5.0m/s | 0°C | 0% | 0hPa | 0V | 00:00:00 | 00:00:00 | 00:00:00 | |
| OE5DXL-15 | 2026-09-03 12:53:46 | 47.83019 | 17.19103 | 40° | 9km/h | 25306m | 4.4m/s | 0°C | 0% | 0hPa | 0V | 00:00:00 | 00:00:00 | 00:00:00 | |
| S52SK | 2026-09-03 12:53:43 | 47.83018 | 17.19092 | 63° | 9km/h | 25288m | 4.9m/s | 0°C | 0% | 0hPa | 0V | 00:00:00 | 00:00:00 | 00:00:00 | |
| S52SK | 2026-09-03 12:53:38 | 47.83012 | 17.19077 | 80° | 15km/h | 25258m | 5.8m/s | 0°C | 0% | 0hPa | 0V | 00:00:00 | 00:00:00 | 00:00:00 | |
| OE5MMP-10 | 2026-09-03 12:53:37 | 47.83011 | 17.19073 | 80° | 15km/h | 25252m | 2.7m/s | 0°C | 0% | 0hPa | 0V | 00:00:00 | 00:00:00 | 00:00:00 | |
| PETON7-10 | 2026-09-03 12:53:36 | 47.83010 | 17.19069 | 53° | 11km/h | 25248m | 6.1m/s | 0°C | 0% | 0hPa | 0V | 00:00:00 | 00:00:00 | 00:00:00 | |
| ATIDSZ-14 | 2026-09-03 12:53:35 | 47.83008 | 17.19067 | 29° | 9km/h | 25243m | 4.4m/s | 0°C | 0% | 0hPa | 0V | 00:00:00 | 00:00:00 | 00:00:00 | |
| OK1ALN | 2026-09-03 12:53:30 | 47.83006 | 17.19043 | 63° | 18km/h | 25214m | 6.2m/s | 0°C | 0% | 0hPa | 0V | 00:00:00 | 00:00:00 | 00:00:00 | |
| OE3OSB-13 | 2026-09-03 12:53:29 | 47.83000 | 17.19035 | 11° | 15km/h | 25202m | 5.3m/s | -48.6°C | 0.0% | 22.3hPa | 0V | 00:00:00 | 00:00:00 | 00:00:00 | |
| OE5MMP-10 | 2026-09-03 12:53:26 | 47.82996 | 17.19033 | 67° | 7km/h | 25190m | 6.2m/s | 0°C | 0% | 0hPa | 0V | 00:00:00 | 00:00:00 | 00:00:00 | |
| PETON7-10 | 2026-09-03 12:53:21 | 47.82988 | 17.19025 | 20° | 11km/h | 25159m | 5.5m/s | 0°C | 0% | 0hPa | 0V | 00:00:00 | 00:00:00 | 00:00:00 | |
| OE5DXL-15 | 2026-09-03 12:53:16 | 47.82983 | 17.19023 | 351° | 11km/h | 25130m | 5.3m/s | 0°C | 0% | 0hPa | 0V | 00:00:00 | 00:00:00 | 00:00:00 | |
| ATIDSZ-14 | 2026-09-03 12:53:14 | 47.82977 | 17.19024 | 17° | 11km/h | 25118m | 6.5m/s | 0°C | 0% | 0hPa | 0V | 00:00:00 | 00:00:00 | 00:00:00 | |
| OK1ALN | 2026-09-03 12:53:09 | 47.82966 | 17.19016 | 1° | 9km/h | 25090m | 4.8m/s | 0°C | 0% | 0hPa | 0V | 00:00:00 | 00:00:00 | 00:00:00 | |
| OE5MMP-10 | 2026-09-03 12:53:06 | 47.82969 | 17.19019 | 189° | 9km/h | 25074m | 2.5m/s | 0°C | 0% | 0hPa | 0V | 00:00:00 | 00:00:00 | 00:00:00 | |
| PETON7-10 | 2026-09-03 12:53:04 | 47.82972 | 17.19019 | 45° | 11km/h | 25063m | 6.8m/s | 0°C | 0% | 0hPa | 0V | 00:00:00 | 00:00:00 | 00:00:00 | |
| OE3OSB-13 | 2026-09-03 12:52:59 | 47.82970 | 17.19007 | 287° | 4km/h | 25016m | 4.8m/s | -49.3°C | 0.0% | 23.0hPa | 0V | 00:00:00 | 00:00:00 | 00:00:00 | |
| OE5MMP-10 | 2026-09-03 12:52:56 | 47.82970 | 17.19009 | 294° | 15km/h | 25010m | 4.6m/s | 0°C | 0% | 0hPa | 0V | 00:00:00 | 00:00:00 | 00:00:00 | |
| ATIDSZ-14 | 2026-09-03 12:52:53 | 47.82969 | 17.19004 | 53° | 15km/h | 24994m | 5.5m/s | 0°C | 0% | 0hPa | 0V | 00:00:00 | 00:00:00 | 00:00:00 | |
| PETON7-10 | 2026-09-03 12:52:49 | 47.82949 | 17.18993 | 29° | 16km/h | 24970m | 8.0m/s | 0°C | 0% | 0hPa | 0V | 00:00:00 | 00:00:00 | 00:00:00 | |
| OK1ALN | 2026-09-03 12:52:48 | 47.82948 | 17.18990 | 75° | 13km/h | 24962m | 4.8m/s | 0°C | 0% | 0hPa | 0V | 00:00:00 | 00:00:00 | 00:00:00 | |
| OE5MMP-10 | 2026-09-03 12:52:36 | 47.82910 | 17.18956 | 46° | 13km/h | 24892m | 6.0m/s | 0°C | 0% | 0hPa | 0V | 00:00:00 | 00:00:00 | 00:00:00 | |
| ATIDSZ-14 | 2026-09-03 12:52:33 | 47.82903 | 17.18947 | 12° | 18km/h | 24876m | 7.2m/s | 0°C | 0% | 0hPa | 0V | 00:00:00 | 00:00:00 | 00:00:00 | |
| PETON7-10 | 2026-09-03 12:52:32 | 47.82898 | 17.18947 | 1° | 13km/h | 24870m | 5.5m/s | 0°C | 0% | 0hPa | 0V | 00:00:00 | 00:00:00 | 00:00:00 | |
| OK1ALN | 2026-09-03 12:52:28 | 47.82884 | 17.18945 | 9° | 7km/h | 24848m | 5.6m/s | 0°C | 0% | 0hPa | 0V | 00:00:00 | 00:00:00 | 00:00:00 | |
| OE3OSB-13 | 2026-09-03 12:52:27 | 47.82881 | 17.18944 | 27° | 7km/h | 24835m | 6.1m/s | -49.7°C | 0.0% | 23.8hPa | 0V | 00:00:00 | 00:00:00 | 00:00:00 | |
| OE5MMP-10 | 2026-09-03 12:52:26 | 47.82881 | 17.18944 | 28° | 15km/h | 24835m | 6.0m/s | 0°C | 0% | 0hPa | 0V | 00:00:00 | 00:00:00 | 00:00:00 | |
| PETON7-10 | 2026-09-03 12:52:16 | 47.82851 | 17.18974 | 309° | 15km/h | 24774m | 6.7m/s | 0°C | 0% | 0hPa | 0V | 00:00:00 | 00:00:00 | 00:00:00 | |
| ATIDSZ-14 | 2026-09-03 12:52:13 | 47.82841 | 17.18986 | 322° | 18km/h | 24758m | 6.3m/s | 0°C | 0% | 0hPa | 0V | 00:00:00 | 00:00:00 | 00:00:00 | |
| OK1ALN | 2026-09-03 12:52:07 | 47.82829 | 17.19016 | 269° | 11km/h | 24734m | 8.5m/s | 0°C | 0% | 0hPa | 0V | 00:00:00 | 00:00:00 | 00:00:00 | |
| OE5MMP-10 | 2026-09-03 12:52:05 | 47.82831 | 17.19024 | 249° | 11km/h | 24723m | 6.2m/s | 0°C | 0% | 0hPa | 0V | 00:00:00 | 00:00:00 | 00:00:00 | |
| PETON7-10 | 2026-09-03 12:52:01 | 47.82824 | 17.19039 | 289° | 11km/h | 24703m | 7.7m/s | 0°C | 0% | 0hPa | 0V | 00:00:00 | 00:00:00 | 00:00:00 | |
| OE3OSB-13 | 2026-09-03 12:51:56 | 47.82827 | 17.19057 | 203° | 7km/h | 24684m | 7.3m/s | -50.2°C | 0.0% | 24.7hPa | 0V | 00:00:00 | 00:00:00 | 00:00:00 | |
| OE5MMP-10 | 2026-09-03 12:51:54 | 47.82829 | 17.19060 | 248° | 11km/h | 24681m | 4.6m/s | 0°C | 0% | 0hPa | 0V | 00:00:00 | 00:00:00 | 00:00:00 | |
| ATIDSZ-14 | 2026-09-03 12:51:53 | 47.82830 | 17.19064 | 271° | 11km/h | 24681m | 6.9m/s | 0°C | 0% | 0hPa | 0V | 00:00:00 | 00:00:00 | 00:00:00 | |
| OK1ALN | 2026-09-03 12:51:47 | 47.82836 | 17.19081 | 186° | 16km/h | 24696m | 6.7m/s | 0°C | 0% | 0hPa | 0V | 00:00:00 | 00:00:00 | 00:00:00 | |
| OE5DXL-15 | 2026-09-03 12:51:46 | 47.82841 | 17.19080 | 169° | 9km/h | 24711m | 8.1m/s | 0°C | 0% | 0hPa | 0V | 00:00:00 | 00:00:00 | 00:00:00 | |
| PETON7-10 | 2026-09-03 12:51:45 | 47.82846 | 17.19077 | 158° | 7km/h | 24732m | 7.4m/s | 0°C | 0% | 0hPa | 0V | 00:00:00 | 00:00:00 | 00:00:00 | |
| OE5MMP-10 | 2026-09-03 12:51:44 | 47.82850 | 17.19078 | 254° | 7km/h | 24755m | 13.0m/s | 0°C | 0% | 0hPa | 0V | 00:00:00 | 00:00:00 | 00:00:00 | |
| OE5MMP-10 | 2026-09-03 12:51:34 | 47.82842 | 17.19092 | 77° | 5km/h | 24526m | 5.9m/s | 0°C | 0% | 0hPa | 0V | 00:00:00 | 00:00:00 | 00:00:00 | |
| ATIDSZ-14 | 2026-09-03 12:51:32 | 47.82840 | 17.19095 | 0° | 0km/h | 24514m | 6.0m/s | 0°C | 0% | 0hPa | 0V | 00:00:00 | 00:00:00 | 00:00:00 | |
| PETON7-10 | 2026-09-03 12:51:30 | 47.82840 | 17.19097 | 110° | 15km/h | 24505m | 5.0m/s | 0°C | 0% | 0hPa | 0V | 00:00:00 | 00:00:00 | 00:00:00 | |
| OK1ALN | 2026-09-03 12:51:26 | 47.82842 | 17.19094 | 185° | 4km/h | 24483m | 5.1m/s | 0°C | 0% | 0hPa | 0V | 00:00:00 | 00:00:00 | 00:00:00 | |
| OE5MMP-10 | 2026-09-03 12:51:24 | 47.82847 | 17.19093 | 131° | 16km/h | 24471m | 8.0m/s | 0°C | 0% | 0hPa | 0V | 00:00:00 | 00:00:00 | 00:00:00 | |
| OE5DXL-15 | 2026-09-03 12:51:16 | 47.82860 | 17.19044 | 117° | 15km/h | 24400m | 4.0m/s | 0°C | 0% | 0hPa | 0V | 00:00:00 | 00:00:00 | 00:00:00 | |
| OE5MMP-10 | 2026-09-03 12:51:15 | 47.82864 | 17.19041 | 155° | 11km/h | 24389m | 6.5m/s | 0°C | 0% | 0hPa | 0V | 00:00:00 | 00:00:00 | 00:00:00 | |
| ATIDSZ-14 | 2026-09-03 12:51:11 | 47.82869 | 17.19041 | 101° | 9km/h | 24373m | 7.5m/s | 0°C | 0% | 0hPa | 0V | 00:00:00 | 00:00:00 | 00:00:00 | |
| OK1ALN | 2026-09-03 12:51:06 | 47.82877 | 17.19026 | 143° | 9km/h | 24342m | 6.4m/s | 0°C | 0% | 0hPa | 0V | 00:00:00 | 00:00:00 | 00:00:00 | |
| OE5MMP-10 | 2026-09-03 12:51:04 | 47.82882 | 17.19019 | 134° | 16km/h | 24332m | 5.5m/s | 0°C | 0% | 0hPa | 0V | 00:00:00 | 00:00:00 | 00:00:00 | |
| PETON7-10 | 2026-09-03 12:51:00 | 47.82891 | 17.19002 | 109° | 20km/h | 24301m | 8.1m/s | 0°C | 0% | 0hPa | 0V | 00:00:00 | 00:00:00 | 00:00:00 | |
| OE3OSB-13 | 2026-09-03 12:50:53 | 47.82909 | 17.18972 | 144° | 24km/h | 24258m | 3.1m/s | -50.4°C | 0.0% | 26.4hPa | 0V | 00:00:00 | 00:00:00 | 00:00:00 | |
| OE5DXL-15 | 2026-09-03 12:50:46 | 47.82926 | 17.18927 | 121° | 20km/h | 24217m | 5.4m/s | 0°C | 0% | 0hPa | 0V | 00:00:00 | 00:00:00 | 00:00:00 | |
| PETON7-10 | 2026-09-03 12:50:45 | 47.82928 | 17.18921 | 108° | 20km/h | 24213m | 4.9m/s | 0°C | 0% | 0hPa | 0V | 00:00:00 | 00:00:00 | 00:00:00 | |
| OE5MMP-10 | 2026-09-03 12:50:43 | 47.82932 | 17.18909 | 128° | 22km/h | 24200m | 8.8m/s | 0°C | 0% | 0hPa | 0V | 00:00:00 | 00:00:00 | 00:00:00 | |
| OE5MMP-10 | 2026-09-03 12:50:33 | 47.82939 | 17.18832 | 92° | 18km/h | 24133m | 5.9m/s | 0°C | 0% | 0hPa | 0V | 00:00:00 | 00:00:00 | 00:00:00 | |
| PETON7-10 | 2026-09-03 12:50:30 | 47.82939 | 17.18811 | 86° | 18km/h | 24117m | 3.6m/s | 0°C | 0% | 0hPa | 0V | 00:00:00 | 00:00:00 | 00:00:00 | |
| OK1ALN | 2026-09-03 12:50:25 | 47.82937 | 17.18784 | 129° | 11km/h | 24087m | 7.5m/s | 0°C | 0% | 0hPa | 0V | 00:00:00 | 00:00:00 | 00:00:00 | |
| OE5MMP-10 | 2026-09-03 12:50:23 | 47.82940 | 17.18773 | 104° | 22km/h | 24074m | 5.4m/s | 0°C | 0% | 0hPa | 0V | 00:00:00 | 00:00:00 | 00:00:00 | |
| OE3OSB-13 | 2026-09-03 12:50:22 | 47.82939 | 17.18760 | 53° | 20km/h | 24058m | 5.1m/s | -50.7°C | 0.0% | 27.4hPa | 0V | 00:00:00 | 00:00:00 | 00:00:00 | |
| OE5DXL-15 | 2026-09-03 12:50:16 | 47.82921 | 17.18726 | 61° | 16km/h | 24028m | 9.4m/s | 0°C | 0% | 0hPa | 0V | 00:00:00 | 00:00:00 | 00:00:00 | |
| PETON7-10 | 2026-09-03 12:50:15 | 47.82919 | 17.18722 | 45° | 20km/h | 24020m | 5.3m/s | 0°C | 0% | 0hPa | 0V | 00:00:00 | 00:00:00 | 00:00:00 | |
| OE5MMP-10 | 2026-09-03 12:50:12 | 47.82909 | 17.18703 | 65° | 22km/h | 23997m | 4.8m/s | 0°C | 0% | 0hPa | 0V | 00:00:00 | 00:00:00 | 00:00:00 | |
| OK1ALN | 2026-09-03 12:50:04 | 47.82879 | 17.18678 | 355° | 18km/h | 23945m | 4.9m/s | 0°C | 0% | 0hPa | 0V | 00:00:00 | 00:00:00 | 00:00:00 | |
| OE5MMP-10 | 2026-09-03 12:50:01 | 47.82867 | 17.18678 | 47° | 16km/h | 23925m | 6.2m/s | 0°C | 0% | 0hPa | 0V | 00:00:00 | 00:00:00 | 00:00:00 | |
| OE3OSB-13 | 2026-09-03 12:49:51 | 47.82830 | 17.18677 | 7° | 13km/h | 23859m | 7.5m/s | -50.8°C | 0.0% | 28.3hPa | 0V | 00:00:00 | 00:00:00 | 00:00:00 | |
| OE5MMP-10 | 2026-09-03 12:49:50 | 47.82830 | 17.18677 | 8° | 9km/h | 23859m | 7.5m/s | 0°C | 0% | 0hPa | 0V | 00:00:00 | 00:00:00 | 00:00:00 | |
| OE5DXL-15 | 2026-09-03 12:49:46 | 47.82822 | 17.18669 | 357° | 7km/h | 23835m | 5.3m/s | 0°C | 0% | 0hPa | 0V | 00:00:00 | 00:00:00 | 00:00:00 | |
| PETON7-10 | 2026-09-03 12:49:43 | 47.82815 | 17.18673 | 358° | 5km/h | 23816m | 5.5m/s | 0°C | 0% | 0hPa | 0V | 00:00:00 | 00:00:00 | 00:00:00 | |
| OK1ALN | 2026-09-03 12:49:42 | 47.82814 | 17.18673 | 23° | 7km/h | 23810m | 5.9m/s | 0°C | 0% | 0hPa | 0V | 00:00:00 | 00:00:00 | 00:00:00 | |
| OE5MMP-10 | 2026-09-03 12:49:40 | 47.82809 | 17.18674 | 336° | 5km/h | 23796m | 3.9m/s | 0°C | 0% | 0hPa | 0V | 00:00:00 | 00:00:00 | 00:00:00 | |
| OE5MMP-10 | 2026-09-03 12:49:30 | 47.82808 | 17.18677 | 121° | 11km/h | 23737m | 5.9m/s | 0°C | 0% | 0hPa | 0V | 00:00:00 | 00:00:00 | 00:00:00 | |
| PETON7-10 | 2026-09-03 12:49:28 | 47.82806 | 17.18677 | 329° | 11km/h | 23727m | 5.6m/s | 0°C | 0% | 0hPa | 0V | 00:00:00 | 00:00:00 | 00:00:00 | |
| OK1ALN | 2026-09-03 12:49:21 | 47.82812 | 17.18706 | 237° | 7km/h | 23683m | 5.5m/s | 0°C | 0% | 0hPa | 0V | 00:00:00 | 00:00:00 | 00:00:00 | |
| OE5MMP-10 | 2026-09-03 12:49:19 | 47.82815 | 17.18707 | 136° | 5km/h | 23670m | 3.6m/s | 0°C | 0% | 0hPa | 0V | 00:00:00 | 00:00:00 | 00:00:00 | |
| OE5DXL-15 | 2026-09-03 12:49:16 | 47.82816 | 17.18706 | 326° | 9km/h | 23656m | 4.8m/s | 0°C | 0% | 0hPa | 0V | 00:00:00 | 00:00:00 | 00:00:00 | |
| PETON7-10 | 2026-09-03 12:49:13 | 47.82815 | 17.18710 | 194° | 7km/h | 23637m | 5.6m/s | 0°C | 0% | 0hPa | 0V | 00:00:00 | 00:00:00 | 00:00:00 | |
| OE5MMP-10 | 2026-09-03 12:49:07 | 47.82817 | 17.18700 | 85° | 7km/h | 23598m | 4.5m/s | 0°C | 0% | 0hPa | 0V | 00:00:00 | 00:00:00 | 00:00:00 | |
| S52SK | 2026-09-03 12:49:04 | 47.82809 | 17.18705 | 325° | 20km/h | 23576m | 6.4m/s | 0°C | 0% | 0hPa | 0V | 00:00:00 | 00:00:00 | 00:00:00 | |
| OK1ALN | 2026-09-03 12:49:01 | 47.82804 | 17.18710 | 135° | 5km/h | 23553m | 4.6m/s | 0°C | 0% | 0hPa | 0V | 00:00:00 | 00:00:00 | 00:00:00 | |
| OE3OSB-13 | 2026-09-03 12:48:49 | 47.82796 | 17.18725 | 335° | 5km/h | 23474m | 5.3m/s | -51.5°C | 0.0% | 30.2hPa | 0V | 00:00:00 | 00:00:00 | 00:00:00 | |
| OE5DXL-15 | 2026-09-03 12:48:46 | 47.82797 | 17.18730 | 225° | 13km/h | 23461m | 4.1m/s | 0°C | 0% | 0hPa | 0V | 00:00:00 | 00:00:00 | 00:00:00 | |
| OE5MMP-10 | 2026-09-03 12:48:41 | 47.82791 | 17.18757 | 319° | 11km/h | 23428m | 6.7m/s | 0°C | 0% | 0hPa | 0V | 00:00:00 | 00:00:00 | 00:00:00 | |
| PETON7-10 | 2026-09-03 12:48:40 | 47.82791 | 17.18759 | 243° | 13km/h | 23417m | 6.0m/s | 0°C | 0% | 0hPa | 0V | 00:00:00 | 00:00:00 | 00:00:00 | |
| OE5MMP-10 | 2026-09-03 12:48:29 | 47.82790 | 17.18816 | 256° | 11km/h | 23306m | 5.1m/s | 0°C | 0% | 0hPa | 0V | 00:00:00 | 00:00:00 | 00:00:00 | |
| PETON7-10 | 2026-09-03 12:48:25 | 47.82792 | 17.18833 | 320° | 15km/h | 23293m | -1.6m/s | 0°C | 0% | 0hPa | 0V | 00:00:00 | 00:00:00 | 00:00:00 | |
| PG1ADW-2 | 2026-09-03 12:48:23 | 47.82786 | 17.18836 | 328° | 22km/h | 23315m | 1.3m/s | 0°C | 0% | 0hPa | 0V | 00:00:00 | 00:00:00 | 00:00:00 | |
| OK1ALN | 2026-09-03 12:48:20 | 47.82780 | 17.18839 | 289° | 13km/h | 23344m | 4.4m/s | 0°C | 0% | 0hPa | 0V | 00:00:00 | 00:00:00 | 00:00:00 | |
| OE5MMP-10 | 2026-09-03 12:48:19 | 47.82778 | 17.18844 | 298° | 16km/h | 23344m | 7.1m/s | 0°C | 0% | 0hPa | 0V | 00:00:00 | 00:00:00 | 00:00:00 | |
| OE3OSB-13 | 2026-09-03 12:48:18 | 47.82767 | 17.18859 | 339° | 13km/h | 23325m | 5.6m/s | -50.9°C | 0.0% | 31.2hPa | 0V | 00:00:00 | 00:00:00 | 00:00:00 | |
| OE5DXL-15 | 2026-09-03 12:48:16 | 47.82767 | 17.18859 | 340° | 15km/h | 23325m | 5.5m/s | 0°C | 0% | 0hPa | 0V | 00:00:00 | 00:00:00 | 00:00:00 | |
| PETON7-10 | 2026-09-03 12:48:10 | 47.82770 | 17.18870 | 271° | 18km/h | 23292m | 5.0m/s | 0°C | 0% | 0hPa | 0V | 00:00:00 | 00:00:00 | 00:00:00 | |
| OE5MMP-10 | 2026-09-03 12:48:07 | 47.82762 | 17.18892 | 304° | 16km/h | 23275m | 4.3m/s | 0°C | 0% | 0hPa | 0V | 00:00:00 | 00:00:00 | 00:00:00 | |
| OE3OSB-13 | 2026-09-03 12:47:47 | 47.82754 | 17.18973 | 270° | 16km/h | 23155m | 6.8m/s | -50.8°C | 0.0% | 32.1hPa | 0V | 00:00:00 | 00:00:00 | 00:00:00 | |
| OE5DXL-15 | 2026-09-03 12:47:46 | 47.82754 | 17.18973 | 271° | 11km/h | 23155m | 6.8m/s | 0°C | 0% | 0hPa | 0V | 00:00:00 | 00:00:00 | 00:00:00 | |
| OE5MMP-10 | 2026-09-03 12:47:44 | 47.82754 | 17.18979 | 54° | 11km/h | 23142m | 5.2m/s | 0°C | 0% | 0hPa | 0V | 00:00:00 | 00:00:00 | 00:00:00 | |
| PETON7-10 | 2026-09-03 12:47:39 | 47.82759 | 17.18987 | 201° | 11km/h | 23111m | 7.1m/s | 0°C | 0% | 0hPa | 0V | 00:00:00 | 00:00:00 | 00:00:00 | |
| OK1ALN | 2026-09-03 12:47:38 | 47.82761 | 17.18988 | 223° | 9km/h | 23105m | 6.2m/s | 0°C | 0% | 0hPa | 0V | 00:00:00 | 00:00:00 | 00:00:00 | |
| S52SK | 2026-09-03 12:47:36 | 47.82766 | 17.18997 | 228° | 16km/h | 23090m | 5.5m/s | 0°C | 0% | 0hPa | 0V | 00:00:00 | 00:00:00 | 00:00:00 | |
| OE5MMP-10 | 2026-09-03 12:47:32 | 47.82778 | 17.19001 | 154° | 9km/h | 23068m | 4.2m/s | 0°C | 0% | 0hPa | 0V | 00:00:00 | 00:00:00 | 00:00:00 | |
| S52SK | 2026-09-03 12:47:31 | 47.82779 | 17.19001 | 0° | 0km/h | 23063m | 7.4m/s | 0°C | 0% | 0hPa | 0V | 00:00:00 | 00:00:00 | 00:00:00 | |
| PETON7-10 | 2026-09-03 12:47:24 | 47.82790 | 17.19017 | 203° | 13km/h | 23028m | 5.0m/s | 0°C | 0% | 0hPa | 0V | 00:00:00 | 00:00:00 | 00:00:00 | |
| OE5MMP-10 | 2026-09-03 12:47:21 | 47.82793 | 17.19019 | 88° | 13km/h | 23018m | 3.4m/s | 0°C | 0% | 0hPa | 0V | 00:00:00 | 00:00:00 | 00:00:00 | |
| OK1ALN | 2026-09-03 12:47:18 | 47.82786 | 17.19016 | 348° | 11km/h | 23012m | 3.0m/s | 0°C | 0% | 0hPa | 0V | 00:00:00 | 00:00:00 | 00:00:00 | |
| OE3JTB-15 | 2026-09-03 12:47:17 | 47.82783 | 17.19028 | 193° | 16km/h | 23006m | 6.8m/s | 0°C | 0% | 0hPa | 0V | 00:00:00 | 00:00:00 | 00:00:00 | |
| OE3OSB-13 | 2026-09-03 12:47:16 | 47.82783 | 17.19028 | 192° | 7km/h | 23006m | 6.8m/s | -51.0°C | 0.0% | 33.2hPa | 0V | 00:00:00 | 00:00:00 | 00:00:00 | |
| PETON7-10 | 2026-09-03 12:47:07 | 47.82792 | 17.19029 | 120° | 16km/h | 22958m | 11.8m/s | 0°C | 0% | 0hPa | 0V | 00:00:00 | 00:00:00 | 00:00:00 | |
| OE5MMP-10 | 2026-09-03 12:47:01 | 47.82824 | 17.19010 | 169° | 18km/h | 22890m | 6.8m/s | 0°C | 0% | 0hPa | 0V | 00:00:00 | 00:00:00 | 00:00:00 | |
| OE3OSB-13 | 2026-09-03 12:46:45 | 47.82869 | 17.18962 | 162° | 24km/h | 22800m | 4.6m/s | -51.4°C | 0.0% | 34.2hPa | 0V | 00:00:00 | 00:00:00 | 00:00:00 | |
| OE5MMP-10 | 2026-09-03 12:46:41 | 47.82882 | 17.18951 | 102° | 11km/h | 22787m | 6.4m/s | 0°C | 0% | 0hPa | 0V | 00:00:00 | 00:00:00 | 00:00:00 | |
| OK1ALN | 2026-09-03 12:46:37 | 47.82883 | 17.18935 | 136° | 13km/h | 22766m | 7.7m/s | 0°C | 0% | 0hPa | 0V | 00:00:00 | 00:00:00 | 00:00:00 | |
| PETON7-10 | 2026-09-03 12:46:35 | 47.82888 | 17.18926 | 106° | 7km/h | 22751m | 8.0m/s | 0°C | 0% | 0hPa | 0V | 00:00:00 | 00:00:00 | 00:00:00 | |
| OE5MMP-10 | 2026-09-03 12:46:31 | 47.82892 | 17.18905 | 118° | 7km/h | 22718m | 6.4m/s | 0°C | 0% | 0hPa | 0V | 00:00:00 | 00:00:00 | 00:00:00 | |
| OE5MMP-10 | 2026-09-03 12:46:21 | 47.82898 | 17.18892 | 48° | 5km/h | 22661m | 4.4m/s | 0°C | 0% | 0hPa | 0V | 00:00:00 | 00:00:00 | 00:00:00 | |
| PETON7-10 | 2026-09-03 12:46:20 | 47.82899 | 17.18889 | 146° | 5km/h | 22655m | 5.4m/s | 0°C | 0% | 0hPa | 0V | 00:00:00 | 00:00:00 | 00:00:00 | |
| OE5DXL-15 | 2026-09-03 12:46:16 | 47.82903 | 17.18888 | 306° | 9km/h | 22631m | 4.2m/s | 0°C | 0% | 0hPa | 0V | 00:00:00 | 00:00:00 | 00:00:00 | |
| OE3OSB-13 | 2026-09-03 12:46:14 | 47.82902 | 17.18894 | 247° | 4km/h | 22615m | 3.9m/s | -51.9°C | 0.0% | 35.2hPa | 0V | 00:00:00 | 00:00:00 | 00:00:00 | |
| OE5MMP-10 | 2026-09-03 12:46:11 | 47.82903 | 17.18895 | 316° | 7km/h | 22602m | 5.4m/s | 0°C | 0% | 0hPa | 0V | 00:00:00 | 00:00:00 | 00:00:00 | |
| PETON7-10 | 2026-09-03 12:46:05 | 47.82907 | 17.18901 | 287° | 11km/h | 22569m | 4.1m/s | 0°C | 0% | 0hPa | 0V | 00:00:00 | 00:00:00 | 00:00:00 | |
| S52SK | 2026-09-03 12:46:03 | 47.82908 | 17.18908 | 245° | 9km/h | 22558m | 2.5m/s | 0°C | 0% | 0hPa | 0V | 00:00:00 | 00:00:00 | 00:00:00 | |
| OE5MMP-10 | 2026-09-03 12:46:01 | 47.82913 | 17.18914 | 200° | 11km/h | 22553m | 0.9m/s | 0°C | 0% | 0hPa | 0V | 00:00:00 | 00:00:00 | 00:00:00 | |
| OE3OSB-13 | 2026-09-03 12:45:43 | 47.82944 | 17.18950 | 304° | 11km/h | 22453m | 4.8m/s | -52.1°C | 0.0% | 36.2hPa | 0V | 00:00:00 | 00:00:00 | 00:00:00 | |
| OE5MMP-10 | 2026-09-03 12:45:41 | 47.82942 | 17.18952 | 332° | 7km/h | 22446m | 4.0m/s | 0°C | 0% | 0hPa | 0V | 00:00:00 | 00:00:00 | 00:00:00 | |
| OE3JTB-15 | 2026-09-03 12:45:40 | 47.82943 | 17.18953 | 180° | 7km/h | 22429m | 2.2m/s | 0°C | 0% | 0hPa | 0V | 00:00:00 | 00:00:00 | 00:00:00 | |
| PETON7-10 | 2026-09-03 12:45:35 | 47.82945 | 17.18950 | 38° | 9km/h | 22419m | 4.6m/s | 0°C | 0% | 0hPa | 0V | 00:00:00 | 00:00:00 | 00:00:00 | |
| OK1ALN | 2026-09-03 12:45:33 | 47.82943 | 17.18953 | 248° | 9km/h | 22406m | 4.7m/s | 0°C | 0% | 0hPa | 0V | 00:00:00 | 00:00:00 | 00:00:00 | |
| OE5MMP-10 | 2026-09-03 12:45:31 | 47.82943 | 17.18956 | 257° | 7km/h | 22402m | 4.1m/s | 0°C | 0% | 0hPa | 0V | 00:00:00 | 00:00:00 | 00:00:00 | |
| OE5MMP-10 | 2026-09-03 12:45:21 | 47.82949 | 17.18975 | 245° | 7km/h | 22353m | 5.4m/s | 0°C | 0% | 0hPa | 0V | 00:00:00 | 00:00:00 | 00:00:00 | |
| PETON7-10 | 2026-09-03 12:45:20 | 47.82951 | 17.18980 | 237° | 9km/h | 22347m | 4.2m/s | 0°C | 0% | 0hPa | 0V | 00:00:00 | 00:00:00 | 00:00:00 | |
| OE5DXL-15 | 2026-09-03 12:45:17 | 47.82954 | 17.18980 | 140° | 11km/h | 22325m | 5.4m/s | 0°C | 0% | 0hPa | 0V | 00:00:00 | 00:00:00 | 00:00:00 | |
| OE3OSB-13 | 2026-09-03 12:45:12 | 47.82957 | 17.18993 | 308° | 11km/h | 22295m | 4.8m/s | -51.9°C | 0.0% | 37.2hPa | 0V | 00:00:00 | 00:00:00 | 00:00:00 | |
| OE5MMP-10 | 2026-09-03 12:45:11 | 47.82957 | 17.18993 | 309° | 9km/h | 22295m | 4.8m/s | 0°C | 0% | 0hPa | 0V | 00:00:00 | 00:00:00 | 00:00:00 | |
| OK1ALN | 2026-09-03 12:45:08 | 47.82959 | 17.19004 | 218° | 11km/h | 22280m | 4.6m/s | 0°C | 0% | 0hPa | 0V | 00:00:00 | 00:00:00 | 00:00:00 | |
| PETON7-10 | 2026-09-03 12:45:05 | 47.82964 | 17.19001 | 150° | 13km/h | 22264m | 4.8m/s | 0°C | 0% | 0hPa | 0V | 00:00:00 | 00:00:00 | 00:00:00 | |
| OE5MMP-10 | 2026-09-03 12:45:01 | 47.82974 | 17.19015 | 244° | 11km/h | 22237m | 5.5m/s | 0°C | 0% | 0hPa | 0V | 00:00:00 | 00:00:00 | 00:00:00 | |
| PETON7-10 | 2026-09-03 12:44:50 | 47.83005 | 17.19025 | 233° | 13km/h | 22182m | 5.7m/s | 0°C | 0% | 0hPa | 0V | 00:00:00 | 00:00:00 | 00:00:00 | |
| OE5DXL-15 | 2026-09-03 12:44:46 | 47.83015 | 17.19028 | 187° | 15km/h | 22160m | 4.8m/s | 0°C | 0% | 0hPa | 0V | 00:00:00 | 00:00:00 | 00:00:00 | |
| OE3OSB-13 | 2026-09-03 12:44:41 | 47.83026 | 17.19033 | 229° | 16km/h | 22128m | 4.3m/s | -51.4°C | 0.0% | 38.4hPa | 0V | 00:00:00 | 00:00:00 | 00:00:00 | |
| OE5MMP-10 | 2026-09-03 12:44:38 | 47.83033 | 17.19040 | 204° | 13km/h | 22118m | 4.9m/s | 0°C | 0% | 0hPa | 0V | 00:00:00 | 00:00:00 | 00:00:00 | |
| PETON7-10 | 2026-09-03 12:44:35 | 47.83045 | 17.19037 | 173° | 16km/h | 22102m | 5.4m/s | 0°C | 0% | 0hPa | 0V | 00:00:00 | 00:00:00 | 00:00:00 | |
| S52SK | 2026-09-03 12:44:34 | 47.83050 | 17.19035 | 149° | 18km/h | 22096m | 6.1m/s | 0°C | 0% | 0hPa | 0V | 00:00:00 | 00:00:00 | 00:00:00 | |
| S52SK | 2026-09-03 12:44:28 | 47.83068 | 17.19023 | 174° | 18km/h | 22059m | 5.0m/s | 0°C | 0% | 0hPa | 0V | 00:00:00 | 00:00:00 | 00:00:00 | |
| PETON7-10 | 2026-09-03 12:44:20 | 47.83099 | 17.18995 | 95° | 15km/h | 22016m | 4.9m/s | 0°C | 0% | 0hPa | 0V | 00:00:00 | 00:00:00 | 00:00:00 | |
| OE5MMP-10 | 2026-09-03 12:44:17 | 47.83106 | 17.18987 | 167° | 16km/h | 21999m | 5.2m/s | 0°C | 0% | 0hPa | 0V | 00:00:00 | 00:00:00 | 00:00:00 | |
| OE5DXL-15 | 2026-09-03 12:44:16 | 47.83110 | 17.18985 | 150° | 15km/h | 21992m | 4.9m/s | 0°C | 0% | 0hPa | 0V | 00:00:00 | 00:00:00 | 00:00:00 | |
| OK1ALN | 2026-09-03 12:44:12 | 47.83126 | 17.18963 | 110° | 16km/h | 21966m | 3.1m/s | 0°C | 0% | 0hPa | 0V | 00:00:00 | 00:00:00 | 00:00:00 | |
| OE3OSB-13 | 2026-09-03 12:44:09 | 47.83126 | 17.18947 | 107° | 9km/h | 21948m | 4.5m/s | -51.8°C | 0.0% | 39.5hPa | 0V | 00:00:00 | 00:00:00 | 00:00:00 | |
| OE5MMP-10 | 2026-09-03 12:44:06 | 47.83128 | 17.18943 | 171° | 15km/h | 21937m | 3.9m/s | 0°C | 0% | 0hPa | 0V | 00:00:00 | 00:00:00 | 00:00:00 | |
| PETON7-10 | 2026-09-03 12:44:05 | 47.83131 | 17.18942 | 144° | 16km/h | 21933m | 4.5m/s | 0°C | 0% | 0hPa | 0V | 00:00:00 | 00:00:00 | 00:00:00 | |
| OE5MMP-10 | 2026-09-03 12:43:56 | 47.83124 | 17.18911 | 352° | 16km/h | 21890m | 5.2m/s | 0°C | 0% | 0hPa | 0V | 00:00:00 | 00:00:00 | 00:00:00 | |
| OK1ALN | 2026-09-03 12:43:50 | 47.83138 | 17.18888 | 56° | 18km/h | 21861m | 4.3m/s | 0°C | 0% | 0hPa | 0V | 00:00:00 | 00:00:00 | 00:00:00 | |
| PETON7-10 | 2026-09-03 12:43:48 | 47.83132 | 17.18884 | 5° | 11km/h | 21851m | 4.2m/s | 0°C | 0% | 0hPa | 0V | 00:00:00 | 00:00:00 | 00:00:00 | |
| OE5DXL-15 | 2026-09-03 12:43:46 | 47.83127 | 17.18883 | 14° | 11km/h | 21844m | 4.5m/s | 0°C | 0% | 0hPa | 0V | 00:00:00 | 00:00:00 | 00:00:00 | |
| OE3JTB-15 | 2026-09-03 12:43:42 | 47.83136 | 17.18860 | 68° | 13km/h | 21804m | 4.2m/s | 0°C | 0% | 0hPa | 0V | 00:00:00 | 00:00:00 | 00:00:00 | |
| OE3OSB-13 | 2026-09-03 12:43:39 | 47.83132 | 17.18853 | 15° | 9km/h | 21794m | 5.9m/s | -51.8°C | 0.0% | 40.6hPa | 0V | 00:00:00 | 00:00:00 | 00:00:00 | |
| OE5MMP-10 | 2026-09-03 12:43:36 | 47.83130 | 17.18853 | 347° | 11km/h | 21789m | 5.2m/s | 0°C | 0% | 0hPa | 0V | 00:00:00 | 00:00:00 | 00:00:00 | |
| PETON7-10 | 2026-09-03 12:43:33 | 47.83133 | 17.18844 | 120° | 13km/h | 21772m | 4.7m/s | 0°C | 0% | 0hPa | 0V | 00:00:00 | 00:00:00 | 00:00:00 | |
| OE5MMP-10 | 2026-09-03 12:43:26 | 47.83136 | 17.18822 | 98° | 13km/h | 21733m | 4.0m/s | 0°C | 0% | 0hPa | 0V | 00:00:00 | 00:00:00 | 00:00:00 | |
| OK1ALN | 2026-09-03 12:43:25 | 47.83138 | 17.18819 | 142° | 11km/h | 21727m | 4.2m/s | 0°C | 0% | 0hPa | 0V | 00:00:00 | 00:00:00 | 00:00:00 | |
| PETON7-10 | 2026-09-03 12:43:18 | 47.83149 | 17.18801 | 71° | 11km/h | 21692m | 5.6m/s | 0°C | 0% | 0hPa | 0V | 00:00:00 | 00:00:00 | 00:00:00 | |
| OE5DXL-15 | 2026-09-03 12:43:16 | 47.83149 | 17.18794 | 120° | 11km/h | 21684m | 2.5m/s | 0°C | 0% | 0hPa | 0V | 00:00:00 | 00:00:00 | 00:00:00 | |
| OE3JTB-15 | 2026-09-03 12:43:11 | 47.83149 | 17.18756 | 90° | 7km/h | 21643m | 5.2m/s | 0°C | 0% | 0hPa | 0V | 00:00:00 | 00:00:00 | 00:00:00 | |
| S52SK | 2026-09-03 12:43:08 | 47.83149 | 17.18756 | 91° | 7km/h | 21643m | 5.3m/s | 0°C | 0% | 0hPa | 0V | 00:00:00 | 00:00:00 | 00:00:00 | |
| OE3OSB-13 | 2026-09-03 12:43:07 | 47.83151 | 17.18748 | 96° | 9km/h | 21632m | 5.2m/s | -52.4°C | 0.0% | 41.7hPa | 0V | 00:00:00 | 00:00:00 | 00:00:00 | |
| OE5MMP-10 | 2026-09-03 12:43:06 | 47.83151 | 17.18748 | 97° | 11km/h | 21632m | 5.2m/s | 0°C | 0% | 0hPa | 0V | 00:00:00 | 00:00:00 | 00:00:00 | |
| OK1ALN | 2026-09-03 12:43:04 | 47.83151 | 17.18741 | 89° | 11km/h | 21622m | 5.8m/s | 0°C | 0% | 0hPa | 0V | 00:00:00 | 00:00:00 | 00:00:00 | |
| PETON7-10 | 2026-09-03 12:43:03 | 47.83151 | 17.18737 | 93° | 9km/h | 21616m | 5.3m/s | 0°C | 0% | 0hPa | 0V | 00:00:00 | 00:00:00 | 00:00:00 | |
| OE5MMP-10 | 2026-09-03 12:42:56 | 47.83139 | 17.18722 | 353° | 4km/h | 21578m | 5.4m/s | 0°C | 0% | 0hPa | 0V | 00:00:00 | 00:00:00 | 00:00:00 | |
| PETON7-10 | 2026-09-03 12:42:48 | 47.83137 | 17.18706 | 10° | 7km/h | 21533m | 3.7m/s | 0°C | 0% | 0hPa | 0V | 00:00:00 | 00:00:00 | 00:00:00 | |
| OE5DXL-15 | 2026-09-03 12:42:46 | 47.83134 | 17.18705 | 85° | 9km/h | 21523m | 4.5m/s | 0°C | 0% | 0hPa | 0V | 00:00:00 | 00:00:00 | 00:00:00 | |
| OK1ALN | 2026-09-03 12:42:44 | 47.83136 | 17.18703 | 139° | 4km/h | 21514m | 5.8m/s | 0°C | 0% | 0hPa | 0V | 00:00:00 | 00:00:00 | 00:00:00 | |
| OE3JTB-15 | 2026-09-03 12:42:41 | 47.83143 | 17.18707 | 358° | 13km/h | 21485m | 5.7m/s | 0°C | 0% | 0hPa | 0V | 00:00:00 | 00:00:00 | 00:00:00 | |
| OE3OSB-13 | 2026-09-03 12:42:36 | 47.83137 | 17.18704 | 83° | 5km/h | 21472m | 4.9m/s | -52.1°C | 0.0% | 42.9hPa | 0V | 00:00:00 | 00:00:00 | 00:00:00 | |
| PETON7-10 | 2026-09-03 12:42:32 | 47.83147 | 17.18707 | 211° | 13km/h | 21457m | 5.1m/s | 0°C | 0% | 0hPa | 0V | 00:00:00 | 00:00:00 | 00:00:00 | |
| OE5MMP-10 | 2026-09-03 12:42:27 | 47.83154 | 17.18711 | 76° | 15km/h | 21435m | 4.2m/s | 0°C | 0% | 0hPa | 0V | 00:00:00 | 00:00:00 | 00:00:00 | |
| OK1ALN | 2026-09-03 12:42:20 | 47.83169 | 17.18710 | 168° | 22km/h | 21397m | 6.4m/s | 0°C | 0% | 0hPa | 0V | 00:00:00 | 00:00:00 | 00:00:00 | |
| PETON7-10 | 2026-09-03 12:42:17 | 47.83176 | 17.18707 | 135° | 15km/h | 21379m | 6.4m/s | 0°C | 0% | 0hPa | 0V | 00:00:00 | 00:00:00 | 00:00:00 | |
| OE5DXL-15 | 2026-09-03 12:42:16 | 47.83177 | 17.18704 | 122° | 20km/h | 21373m | 6.5m/s | 0°C | 0% | 0hPa | 0V | 00:00:00 | 00:00:00 | 00:00:00 | |
| OE3JTB-15 | 2026-09-03 12:42:11 | 47.83200 | 17.18680 | 150° | 20km/h | 21332m | 5.8m/s | 0°C | 0% | 0hPa | 0V | 00:00:00 | 00:00:00 | 00:00:00 | |
| OE3OSB-13 | 2026-09-03 12:42:05 | 47.83216 | 17.18656 | 112° | 20km/h | 21306m | 6.9m/s | -52.6°C | 0.0% | 44.1hPa | 0V | 00:00:00 | 00:00:00 | 00:00:00 | |
| OE5MMP-10 | 2026-09-03 12:42:04 | 47.83215 | 17.18656 | 113° | 20km/h | 21306m | 6.9m/s | 0°C | 0% | 0hPa | 0V | 00:00:00 | 00:00:00 | 00:00:00 | |
| PETON7-10 | 2026-09-03 12:42:02 | 47.83222 | 17.18638 | 132° | 26km/h | 21295m | 4.2m/s | 0°C | 0% | 0hPa | 0V | 00:00:00 | 00:00:00 | 00:00:00 | |
| OK1ALN | 2026-09-03 12:41:59 | 47.83240 | 17.18623 | 177° | 29km/h | 21276m | 5.5m/s | 0°C | 0% | 0hPa | 0V | 00:00:00 | 00:00:00 | 00:00:00 | |
| OE5MMP-10 | 2026-09-03 12:41:54 | 47.83264 | 17.18609 | 108° | 20km/h | 21251m | 4.4m/s | 0°C | 0% | 0hPa | 0V | 00:00:00 | 00:00:00 | 00:00:00 | |
| PETON7-10 | 2026-09-03 12:41:47 | 47.83292 | 17.18565 | 154° | 20km/h | 21212m | 6.7m/s | 0°C | 0% | 0hPa | 0V | 00:00:00 | 00:00:00 | 00:00:00 | |
| OE5DXL-15 | 2026-09-03 12:41:46 | 47.83296 | 17.18561 | 141° | 24km/h | 21206m | 6.5m/s | 0°C | 0% | 0hPa | 0V | 00:00:00 | 00:00:00 | 00:00:00 | |
| OE5MMP-10 | 2026-09-03 12:41:44 | 47.83301 | 17.18549 | 106° | 18km/h | 21194m | 6.1m/s | 0°C | 0% | 0hPa | 0V | 00:00:00 | 00:00:00 | 00:00:00 | |
| OE3JTB-15 | 2026-09-03 12:41:42 | 47.83302 | 17.18534 | 111° | 22km/h | 21181m | 6.5m/s | 0°C | 0% | 0hPa | 0V | 00:00:00 | 00:00:00 | 00:00:00 | |
| OK1ALN | 2026-09-03 12:41:36 | 47.83321 | 17.18497 | 129° | 22km/h | 21152m | 6.8m/s | 0°C | 0% | 0hPa | 0V | 00:00:00 | 00:00:00 | 00:00:00 | |
| OE5MMP-10 | 2026-09-03 12:41:34 | 47.83325 | 17.18482 | 102° | 22km/h | 21138m | 6.4m/s | 0°C | 0% | 0hPa | 0V | 00:00:00 | 00:00:00 | 00:00:00 | |
| S52SK | 2026-09-03 12:41:33 | 47.83326 | 17.18474 | 98° | 18km/h | 21133m | 6.0m/s | 0°C | 0% | 0hPa | 0V | 00:00:00 | 00:00:00 | 00:00:00 | |
| PETON7-10 | 2026-09-03 12:41:32 | 47.83327 | 17.18468 | 116° | 24km/h | 21127m | 5.4m/s | 0°C | 0% | 0hPa | 0V | 00:00:00 | 00:00:00 | 00:00:00 | |
| HA6NAB-11 | 2026-09-03 12:41:28 | 47.83338 | 17.18436 | 128° | 33km/h | 21109m | 4.0m/s | 0°C | 0% | 0hPa | 0V | 00:00:00 | 00:00:00 | 00:00:00 | |
| OE5MMP-10 | 2026-09-03 12:41:24 | 47.83350 | 17.18406 | 100° | 20km/h | 21090m | 5.7m/s | 0°C | 0% | 0hPa | 0V | 00:00:00 | 00:00:00 | 00:00:00 | |
| HA6NAB-11 | 2026-09-03 12:41:18 | 47.83355 | 17.18353 | 105° | 29km/h | 21055m | 4.9m/s | 0°C | 0% | 0hPa | 0V | 00:00:00 | 00:00:00 | 00:00:00 | |
| PETON7-10 | 2026-09-03 12:41:17 | 47.83356 | 17.18342 | 102° | 18km/h | 21051m | 3.5m/s | 0°C | 0% | 0hPa | 0V | 00:00:00 | 00:00:00 | 00:00:00 | |
| OE5DXL-15 | 2026-09-03 12:41:15 | 47.83358 | 17.18326 | 98° | 16km/h | 21042m | 5.9m/s | 0°C | 0% | 0hPa | 0V | 00:00:00 | 00:00:00 | 00:00:00 | |
| OK1ALN | 2026-09-03 12:41:14 | 47.83359 | 17.18322 | 98° | 7km/h | 21038m | 4.3m/s | 0°C | 0% | 0hPa | 0V | 00:00:00 | 00:00:00 | 00:00:00 | |
| OE5MMP-10 | 2026-09-03 12:41:12 | 47.83357 | 17.18314 | 80° | 13km/h | 21028m | 5.2m/s | 0°C | 0% | 0hPa | 0V | 00:00:00 | 00:00:00 | 00:00:00 | |
| HA6NAB-11 | 2026-09-03 12:41:09 | 47.83358 | 17.18292 | 116° | 16km/h | 21013m | 5.6m/s | 0°C | 0% | 0hPa | 0V | 00:00:00 | 00:00:00 | 00:00:00 | |
| OE3OSB-13 | 2026-09-03 12:41:03 | 47.83367 | 17.18244 | 121° | 7km/h | 20976m | 5.3m/s | -53.9°C | 0.0% | 46.6hPa | 0V | 00:00:00 | 00:00:00 | 00:00:00 | |
| OE5MMP-10 | 2026-09-03 12:41:02 | 47.83367 | 17.18244 | 122° | 15km/h | 20977m | 5.3m/s | 0°C | 0% | 0hPa | 0V | 00:00:00 | 00:00:00 | 00:00:00 | |
| HA6NAB-11 | 2026-09-03 12:40:57 | 47.83366 | 17.18215 | 75° | 13km/h | 20952m | 5.1m/s | 0°C | 0% | 0hPa | 0V | 00:00:00 | 00:00:00 | 00:00:00 | |
| OE5MMP-10 | 2026-09-03 12:40:52 | 47.83363 | 17.18186 | 102° | 15km/h | 20925m | 6.8m/s | 0°C | 0% | 0hPa | 0V | 00:00:00 | 00:00:00 | 00:00:00 | |
| HA6NAB-11 | 2026-09-03 12:40:50 | 47.83364 | 17.18182 | 70° | 7km/h | 20912m | 6.2m/s | 0°C | 0% | 0hPa | 0V | 00:00:00 | 00:00:00 | 00:00:00 | |
| PETON7-10 | 2026-09-03 12:40:47 | 47.83357 | 17.18171 | 34° | 16km/h | 20897m | 5.4m/s | 0°C | 0% | 0hPa | 0V | 00:00:00 | 00:00:00 | 00:00:00 | |
| OE5DXL-15 | 2026-09-03 12:40:44 | 47.83350 | 17.18156 | 74° | 15km/h | 20882m | 6.6m/s | 0°C | 0% | 0hPa | 0V | 00:00:00 | 00:00:00 | 00:00:00 | |
| HA6NAB-11 | 2026-09-03 12:40:43 | 47.83349 | 17.18150 | 75° | 18km/h | 20877m | 5.6m/s | 0°C | 0% | 0hPa | 0V | 00:00:00 | 00:00:00 | 00:00:00 | |
| HA6NAB-11 | 2026-09-03 12:40:35 | 47.83325 | 17.18124 | 62° | 18km/h | 20835m | 6.0m/s | 0°C | 0% | 0hPa | 0V | 00:00:00 | 00:00:00 | 00:00:00 | |
| OE3OSB-13 | 2026-09-03 12:40:32 | 47.83313 | 17.18109 | 21° | 18km/h | 20813m | 6.4m/s | -54.3°C | 0.0% | 48.0hPa | 0V | 00:00:00 | 00:00:00 | 00:00:00 | |
| PETON7-10 | 2026-09-03 12:40:30 | 47.83308 | 17.18106 | 26° | 15km/h | 20807m | 6.3m/s | 0°C | 0% | 0hPa | 0V | 00:00:00 | 00:00:00 | 00:00:00 | |
| HA6NAB-11 | 2026-09-03 12:40:28 | 47.83303 | 17.18101 | 33° | 11km/h | 20796m | 4.2m/s | 0°C | 0% | 0hPa | 0V | 00:00:00 | 00:00:00 | 00:00:00 | |
| HA6NAB-11 | 2026-09-03 12:40:22 | 47.83283 | 17.18084 | 3° | 7km/h | 20759m | 5.4m/s | 0°C | 0% | 0hPa | 0V | 00:00:00 | 00:00:00 | 00:00:00 | |
| OE5MMP-10 | 2026-09-03 12:40:19 | 47.83272 | 17.18084 | 357° | 11km/h | 20740m | 4.2m/s | 0°C | 0% | 0hPa | 0V | 00:00:00 | 00:00:00 | 00:00:00 | |
| PETON7-10 | 2026-09-03 12:40:12 | 47.83252 | 17.18079 | 4° | 7km/h | 20702m | 6.2m/s | 0°C | 0% | 0hPa | 0V | 00:00:00 | 00:00:00 | 00:00:00 | |
| OE5DXL-15 | 2026-09-03 12:40:10 | 47.83250 | 17.18081 | 325° | 9km/h | 20692m | 4.9m/s | 0°C | 0% | 0hPa | 0V | 00:00:00 | 00:00:00 | 00:00:00 | |
| OE5MMP-10 | 2026-09-03 12:40:07 | 47.83240 | 17.18079 | 30° | 7km/h | 20676m | 5.4m/s | 0°C | 0% | 0hPa | 0V | 00:00:00 | 00:00:00 | 00:00:00 | |
| S52SK | 2026-09-03 12:40:06 | 47.83237 | 17.18075 | 53° | 13km/h | 20670m | 5.3m/s | 0°C | 0% | 0hPa | 0V | 00:00:00 | 00:00:00 | 00:00:00 | |
| OE3OSB-13 | 2026-09-03 12:40:01 | 47.83228 | 17.18076 | 255° | 4km/h | 20639m | 4.9m/s | -53.1°C | 0.0% | 49.4hPa | 0V | 00:00:00 | 00:00:00 | 00:00:00 | |
| HA6NAB-11 | 2026-09-03 12:40:00 | 47.83227 | 17.18076 | 256° | 4km/h | 20639m | 4.9m/s | 0°C | 0% | 0hPa | 0V | 00:00:00 | 00:00:00 | 00:00:00 | |
| PETON7-10 | 2026-09-03 12:39:57 | 47.83224 | 17.18074 | 23° | 9km/h | 20623m | 5.7m/s | 0°C | 0% | 0hPa | 0V | 00:00:00 | 00:00:00 | 00:00:00 | |
| OK1ALN | 2026-09-03 12:39:54 | 47.83213 | 17.18072 | 332° | 2km/h | 20605m | 4.6m/s | 0°C | 0% | 0hPa | 0V | 00:00:00 | 00:00:00 | 00:00:00 | |
| HA6NAB-11 | 2026-09-03 12:39:50 | 47.83214 | 17.18069 | 119° | 7km/h | 20585m | 5.9m/s | 0°C | 0% | 0hPa | 0V | 00:00:00 | 00:00:00 | 00:00:00 | |
| OE5MMP-10 | 2026-09-03 12:39:45 | 47.83211 | 17.18073 | 350° | 13km/h | 20558m | 4.5m/s | 0°C | 0% | 0hPa | 0V | 00:00:00 | 00:00:00 | 00:00:00 | |
| HA6NAB-11 | 2026-09-03 12:39:44 | 47.83207 | 17.18073 | 26° | 13km/h | 20554m | 4.7m/s | 0°C | 0% | 0hPa | 0V | 00:00:00 | 00:00:00 | 00:00:00 | |
| PETON7-10 | 2026-09-03 12:39:42 | 47.83207 | 17.18065 | 123° | 18km/h | 20542m | 5.8m/s | 0°C | 0% | 0hPa | 0V | 00:00:00 | 00:00:00 | 00:00:00 | |
| OE5DXL-15 | 2026-09-03 12:39:40 | 47.83214 | 17.18060 | 177° | 18km/h | 20531m | 5.9m/s | 0°C | 0% | 0hPa | 0V | 00:00:00 | 00:00:00 | 00:00:00 | |
| OE5MMP-10 | 2026-09-03 12:39:35 | 47.83212 | 17.18066 | 6° | 20km/h | 20505m | 6.3m/s | 0°C | 0% | 0hPa | 0V | 00:00:00 | 00:00:00 | 00:00:00 | |
| OK1ALN | 2026-09-03 12:39:31 | 47.83204 | 17.18050 | 140° | 22km/h | 20485m | 5.8m/s | 0°C | 0% | 0hPa | 0V | 00:00:00 | 00:00:00 | 00:00:00 | |
| OE3OSB-13 | 2026-09-03 12:39:30 | 47.83217 | 17.18046 | 189° | 27km/h | 20475m | 6.3m/s | -52.4°C | 0.0% | 50.8hPa | 0V | 00:00:00 | 00:00:00 | 00:00:00 | |
| PETON7-10 | 2026-09-03 12:39:27 | 47.83224 | 17.18056 | 269° | 16km/h | 20465m | 3.7m/s | 0°C | 0% | 0hPa | 0V | 00:00:00 | 00:00:00 | 00:00:00 | |
| OE5MMP-10 | 2026-09-03 12:39:21 | 47.83213 | 17.18038 | 114° | 18km/h | 20430m | 6.6m/s | 0°C | 0% | 0hPa | 0V | 00:00:00 | 00:00:00 | 00:00:00 | |
| PETON7-10 | 2026-09-03 12:39:12 | 47.83228 | 17.18006 | 105° | 24km/h | 20382m | 3.6m/s | 0°C | 0% | 0hPa | 0V | 00:00:00 | 00:00:00 | 00:00:00 | |
| OE5MMP-10 | 2026-09-03 12:39:11 | 47.83229 | 17.18001 | 105° | 24km/h | 20376m | 8.2m/s | 0°C | 0% | 0hPa | 0V | 00:00:00 | 00:00:00 | 00:00:00 | |
| OE5DXL-15 | 2026-09-03 12:39:10 | 47.83231 | 17.17992 | 105° | 24km/h | 20369m | 6.0m/s | 0°C | 0% | 0hPa | 0V | 00:00:00 | 00:00:00 | 00:00:00 | |
| OE5MMP-10 | 2026-09-03 12:39:02 | 47.83254 | 17.17914 | 100° | 26km/h | 20319m | 5.6m/s | 0°C | 0% | 0hPa | 0V | 00:00:00 | 00:00:00 | 00:00:00 | |
| OE3OSB-13 | 2026-09-03 12:38:59 | 47.83263 | 17.17891 | 132° | 26km/h | 20303m | 6.7m/s | -53.2°C | 0.0% | 52.2hPa | 0V | 00:00:00 | 00:00:00 | 00:00:00 | |
| PETON7-10 | 2026-09-03 12:38:56 | 47.83272 | 17.17873 | 126° | 24km/h | 20294m | 2.7m/s | 0°C | 0% | 0hPa | 0V | 00:00:00 | 00:00:00 | 00:00:00 | |
| OE5MMP-10 | 2026-09-03 12:38:51 | 47.83279 | 17.17827 | 92° | 24km/h | 20271m | 2.7m/s | 0°C | 0% | 0hPa | 0V | 00:00:00 | 00:00:00 | 00:00:00 | |
| OK1ALN | 2026-09-03 12:38:49 | 47.83280 | 17.17811 | 103° | 20km/h | 20262m | 4.6m/s | 0°C | 0% | 0hPa | 0V | 00:00:00 | 00:00:00 | 00:00:00 | |
| OE3JTB-15 | 2026-09-03 12:38:41 | 47.83294 | 17.17717 | 108° | 20km/h | 20208m | 5.8m/s | 0°C | 0% | 0hPa | 0V | 00:00:00 | 00:00:00 | 00:00:00 | |
| OE5DXL-15 | 2026-09-03 12:38:38 | 47.83294 | 17.17717 | 108° | 26km/h | 20208m | 5.8m/s | 0°C | 0% | 0hPa | 0V | 00:00:00 | 00:00:00 | 00:00:00 | |
| S52SK | 2026-09-03 12:38:36 | 47.83298 | 17.17699 | 106° | 26km/h | 20199m | 6.4m/s | 0°C | 0% | 0hPa | 0V | 00:00:00 | 00:00:00 | 00:00:00 | |
| OE5MMP-10 | 2026-09-03 12:38:31 | 47.83303 | 17.17657 | 106° | 24km/h | 20173m | 6.2m/s | 0°C | 0% | 0hPa | 0V | 00:00:00 | 00:00:00 | 00:00:00 | |
| OE3OSB-13 | 2026-09-03 12:38:28 | 47.83307 | 17.17627 | 108° | 22km/h | 20152m | 5.2m/s | -52.8°C | 0.0% | 53.6hPa | 0V | 00:00:00 | 00:00:00 | 00:00:00 | |
| PETON7-10 | 2026-09-03 12:38:25 | 47.83311 | 17.17610 | 105° | 26km/h | 20143m | 6.1m/s | 0°C | 0% | 0hPa | 0V | 00:00:00 | 00:00:00 | 00:00:00 | |
| OE5MMP-10 | 2026-09-03 12:38:13 | 47.83334 | 17.17501 | 117° | 29km/h | 20083m | 6.1m/s | 0°C | 0% | 0hPa | 0V | 00:00:00 | 00:00:00 | 00:00:00 | |
| OE3JTB-15 | 2026-09-03 12:38:12 | 47.83345 | 17.17459 | 107° | 26km/h | 20063m | 4.6m/s | 0°C | 0% | 0hPa | 0V | 00:00:00 | 00:00:00 | 00:00:00 | |
| OE5DXL-15 | 2026-09-03 12:38:08 | 47.83347 | 17.17449 | 105° | 27km/h | 20058m | 6.4m/s | 0°C | 0% | 0hPa | 0V | 00:00:00 | 00:00:00 | 00:00:00 | |
| OK1ALN | 2026-09-03 12:38:05 | 47.83355 | 17.17416 | 121° | 29km/h | 20041m | 6.6m/s | 0°C | 0% | 0hPa | 0V | 00:00:00 | 00:00:00 | 00:00:00 | |
| OE3OSB-13 | 2026-09-03 12:37:57 | 47.83375 | 17.17323 | 103° | 31km/h | 19994m | 4.4m/s | -52.9°C | 0.0% | 55.0hPa | 0V | 00:00:00 | 00:00:00 | 00:00:00 | |
| PETON7-10 | 2026-09-03 12:37:53 | 47.83378 | 17.17292 | 96° | 26km/h | 19980m | 4.5m/s | 0°C | 0% | 0hPa | 0V | 00:00:00 | 00:00:00 | 00:00:00 | |
| OE5MMP-10 | 2026-09-03 12:37:46 | 47.83373 | 17.17228 | 90° | 27km/h | 19946m | 6.5m/s | 0°C | 0% | 0hPa | 0V | 00:00:00 | 00:00:00 | 00:00:00 | |
| OK1ALN | 2026-09-03 12:37:43 | 47.83373 | 17.17192 | 93° | 22km/h | 19931m | 5.4m/s | 0°C | 0% | 0hPa | 0V | 00:00:00 | 00:00:00 | 00:00:00 | |
| OE5DXL-15 | 2026-09-03 12:37:38 | 47.83370 | 17.17149 | 82° | 22km/h | 19908m | 4.0m/s | 0°C | 0% | 0hPa | 0V | 00:00:00 | 00:00:00 | 00:00:00 | |
| OE5MMP-10 | 2026-09-03 12:37:36 | 47.83368 | 17.17129 | 97° | 26km/h | 19898m | 5.0m/s | 0°C | 0% | 0hPa | 0V | 00:00:00 | 00:00:00 | 00:00:00 | |
| OE5MMP-10 | 2026-09-03 12:37:26 | 47.83376 | 17.17047 | 89° | 20km/h | 19846m | 6.6m/s | 0°C | 0% | 0hPa | 0V | 00:00:00 | 00:00:00 | 00:00:00 | |
| OE3OSB-13 | 2026-09-03 12:37:25 | 47.83376 | 17.17040 | 99° | 16km/h | 19841m | 4.8m/s | -53.4°C | 0.0% | 56.4hPa | 0V | 00:00:00 | 00:00:00 | 00:00:00 | |
| PETON7-10 | 2026-09-03 12:37:23 | 47.83378 | 17.17023 | 98° | 20km/h | 19831m | 5.6m/s | 0°C | 0% | 0hPa | 0V | 00:00:00 | 00:00:00 | 00:00:00 | |
| OK1ALN | 2026-09-03 12:37:21 | 47.83379 | 17.17004 | 88° | 20km/h | 19821m | 6.1m/s | 0°C | 0% | 0hPa | 0V | 00:00:00 | 00:00:00 | 00:00:00 | |
| OE5MMP-10 | 2026-09-03 12:37:13 | 47.83380 | 17.16956 | 77° | 22km/h | 19778m | 5.9m/s | 0°C | 0% | 0hPa | 0V | 00:00:00 | 00:00:00 | 00:00:00 | |
| S52SK | 2026-09-03 12:37:11 | 47.83379 | 17.16938 | 96° | 22km/h | 19767m | 4.5m/s | 0°C | 0% | 0hPa | 0V | 00:00:00 | 00:00:00 | 00:00:00 | |
| OE5DXL-15 | 2026-09-03 12:37:08 | 47.83379 | 17.16916 | 89° | 15km/h | 19752m | 5.3m/s | 0°C | 0% | 0hPa | 0V | 00:00:00 | 00:00:00 | 00:00:00 | |
| S52SK | 2026-09-03 12:37:05 | 47.83379 | 17.16896 | 80° | 16km/h | 19737m | 6.6m/s | 0°C | 0% | 0hPa | 0V | 00:00:00 | 00:00:00 | 00:00:00 | |
| OE5MMP-10 | 2026-09-03 12:37:03 | 47.83375 | 17.16885 | 80° | 15km/h | 19726m | 5.5m/s | 0°C | 0% | 0hPa | 0V | 00:00:00 | 00:00:00 | 00:00:00 | |
| OK1ALN | 2026-09-03 12:37:00 | 47.83376 | 17.16866 | 97° | 15km/h | 19711m | 6.2m/s | 0°C | 0% | 0hPa | 0V | 00:00:00 | 00:00:00 | 00:00:00 | |
| OE3OSB-13 | 2026-09-03 12:36:54 | 47.83379 | 17.16839 | 83° | 15km/h | 19672m | 5.4m/s | -53.6°C | 0.0% | 58.1hPa | 0V | 00:00:00 | 00:00:00 | 00:00:00 | |
| PETON7-10 | 2026-09-03 12:36:53 | 47.83379 | 17.16839 | 84° | 15km/h | 19672m | 5.3m/s | 0°C | 0% | 0hPa | 0V | 00:00:00 | 00:00:00 | 00:00:00 | |
| OE5MMP-10 | 2026-09-03 12:36:42 | 47.83395 | 17.16786 | 91° | 13km/h | 19609m | 3.7m/s | 0°C | 0% | 0hPa | 0V | 00:00:00 | 00:00:00 | 00:00:00 | |
| OE5DXL-15 | 2026-09-03 12:36:38 | 47.83417 | 17.16769 | 137° | 18km/h | 19588m | 6.8m/s | 0°C | 0% | 0hPa | 0V | 00:00:00 | 00:00:00 | 00:00:00 | |
| OE5MMP-10 | 2026-09-03 12:36:32 | 47.83404 | 17.16735 | 97° | 20km/h | 19554m | 6.7m/s | 0°C | 0% | 0hPa | 0V | 00:00:00 | 00:00:00 | 00:00:00 | |
| OK1ALN | 2026-09-03 12:36:27 | 47.83417 | 17.16706 | 128° | 16km/h | 19521m | 8.2m/s | 0°C | 0% | 0hPa | 0V | 00:00:00 | 00:00:00 | 00:00:00 | |
| PETON7-10 | 2026-09-03 12:36:23 | 47.83424 | 17.16678 | 109° | 18km/h | 19496m | 5.5m/s | 0°C | 0% | 0hPa | 0V | 00:00:00 | 00:00:00 | 00:00:00 | |
| OE5MMP-10 | 2026-09-03 12:36:09 | 47.83461 | 17.16605 | 126° | 18km/h | 19413m | 5.8m/s | 0°C | 0% | 0hPa | 0V | 00:00:00 | 00:00:00 | 00:00:00 | |
| OE5DXL-15 | 2026-09-03 12:36:08 | 47.83464 | 17.16599 | 126° | 22km/h | 19407m | 7.1m/s | 0°C | 0% | 0hPa | 0V | 00:00:00 | 00:00:00 | 00:00:00 | |
| OE3JTB-15 | 2026-09-03 12:36:03 | 47.83485 | 17.16549 | 115° | 22km/h | 19356m | 5.6m/s | 0°C | 0% | 0hPa | 0V | 00:00:00 | 00:00:00 | 00:00:00 | |
| PETON7-10 | 2026-09-03 12:35:52 | 47.83502 | 17.16488 | 139° | 20km/h | 19308m | 7.0m/s | 0°C | 0% | 0hPa | 0V | 00:00:00 | 00:00:00 | 00:00:00 | |
| S52SK | 2026-09-03 12:35:42 | 47.83533 | 17.16417 | 129° | 16km/h | 19248m | 5.4m/s | 0°C | 0% | 0hPa | 0V | 00:00:00 | 00:00:00 | 00:00:00 | |
| OK1ALN | 2026-09-03 12:35:40 | 47.83538 | 17.16412 | 140° | 15km/h | 19237m | 7.7m/s | 0°C | 0% | 0hPa | 0V | 00:00:00 | 00:00:00 | 00:00:00 | |
| OE5DXL-15 | 2026-09-03 12:35:38 | 47.83543 | 17.16401 | 105° | 18km/h | 19226m | 5.4m/s | 0°C | 0% | 0hPa | 0V | 00:00:00 | 00:00:00 | 00:00:00 | |
| S52SK | 2026-09-03 12:35:37 | 47.83544 | 17.16393 | 95° | 20km/h | 19220m | 6.2m/s | 0°C | 0% | 0hPa | 0V | 00:00:00 | 00:00:00 | 00:00:00 | |
| PETON7-10 | 2026-09-03 12:35:34 | 47.83546 | 17.16369 | 110° | 18km/h | 19203m | 6.1m/s | 0°C | 0% | 0hPa | 0V | 00:00:00 | 00:00:00 | 00:00:00 | |
| OE5MMP-10 | 2026-09-03 12:35:26 | 47.83558 | 17.16322 | 87° | 22km/h | 19160m | 5.3m/s | 0°C | 0% | 0hPa | 0V | 00:00:00 | 00:00:00 | 00:00:00 | |
| PETON7-10 | 2026-09-03 12:35:19 | 47.83563 | 17.16282 | 65° | 20km/h | 19121m | 3.9m/s | 0°C | 0% | 0hPa | 0V | 00:00:00 | 00:00:00 | 00:00:00 | |
| OE5MMP-10 | 2026-09-03 12:35:10 | 47.83567 | 17.16221 | 103° | 20km/h | 19072m | 4.4m/s | 0°C | 0% | 0hPa | 0V | 00:00:00 | 00:00:00 | 00:00:00 | |
| OE5DXL-15 | 2026-09-03 12:35:08 | 47.83568 | 17.16208 | 77° | 20km/h | 19060m | 6.2m/s | 0°C | 0% | 0hPa | 0V | 00:00:00 | 00:00:00 | 00:00:00 | |
| PETON7-10 | 2026-09-03 12:35:02 | 47.83564 | 17.16161 | 77° | 18km/h | 19030m | 5.6m/s | 0°C | 0% | 0hPa | 0V | 00:00:00 | 00:00:00 | 00:00:00 | |
| OE3OSB-13 | 2026-09-03 12:34:50 | 47.83547 | 17.16070 | 99° | 24km/h | 18962m | 5.9m/s | -50.9°C | 0.0% | 65.3hPa | 0V | 00:00:00 | 00:00:00 | 00:00:00 | |
| PETON7-10 | 2026-09-03 12:34:45 | 47.83547 | 17.16047 | 41° | 20km/h | 18941m | 5.0m/s | 0°C | 0% | 0hPa | 0V | 00:00:00 | 00:00:00 | 00:00:00 | |
| OE5DXL-15 | 2026-09-03 12:34:38 | 47.83526 | 17.16004 | 95° | 18km/h | 18906m | 5.7m/s | 0°C | 0% | 0hPa | 0V | 00:00:00 | 00:00:00 | 00:00:00 | |
| OE5MMP-10 | 2026-09-03 12:34:30 | 47.83512 | 17.15964 | 83° | 20km/h | 18865m | 5.6m/s | 0°C | 0% | 0hPa | 0V | 00:00:00 | 00:00:00 | 00:00:00 | |
| OE3OSB-13 | 2026-09-03 12:34:19 | 47.83507 | 17.15884 | 106° | 24km/h | 18797m | 4.8m/s | -50.7°C | 0.0% | 67.1hPa | 0V | 00:00:00 | 00:00:00 | 00:00:00 | |
| OE5MMP-10 | 2026-09-03 12:34:16 | 47.83508 | 17.15875 | 105° | 18km/h | 18793m | 5.0m/s | 0°C | 0% | 0hPa | 0V | 00:00:00 | 00:00:00 | 00:00:00 | |
| PETON7-10 | 2026-09-03 12:34:12 | 47.83510 | 17.15858 | 63° | 22km/h | 18775m | 2.8m/s | 0°C | 0% | 0hPa | 0V | 00:00:00 | 00:00:00 | 00:00:00 | |
| OE5DXL-15 | 2026-09-03 12:34:08 | 47.83505 | 17.15819 | 98° | 27km/h | 18757m | 4.0m/s | 0°C | 0% | 0hPa | 0V | 00:00:00 | 00:00:00 | 00:00:00 | |
| OE5MMP-10 | 2026-09-03 12:34:02 | 47.83523 | 17.15780 | 88° | 24km/h | 18731m | 2.5m/s | 0°C | 0% | 0hPa | 0V | 00:00:00 | 00:00:00 | 00:00:00 | |
| OE3OSB-13 | 2026-09-03 12:33:48 | 47.83564 | 17.15642 | 114° | 31km/h | 18662m | 5.5m/s | -51.1°C | 0.0% | 68.6hPa | 0V | 00:00:00 | 00:00:00 | 00:00:00 | |
| S52SK | 2026-09-03 12:33:44 | 47.83572 | 17.15605 | 111° | 33km/h | 18647m | 5.3m/s | 0°C | 0% | 0hPa | 0V | 00:00:00 | 00:00:00 | 00:00:00 | |
| PETON7-10 | 2026-09-03 12:33:42 | 47.83581 | 17.15586 | 132° | 33km/h | 18637m | 3.4m/s | 0°C | 0% | 0hPa | 0V | 00:00:00 | 00:00:00 | 00:00:00 | |
| OE5MMP-10 | 2026-09-03 12:33:41 | 47.83586 | 17.15577 | 122° | 31km/h | 18633m | 5.2m/s | 0°C | 0% | 0hPa | 0V | 00:00:00 | 00:00:00 | 00:00:00 | |
| OE5DXL-15 | 2026-09-03 12:33:38 | 47.83595 | 17.15547 | 121° | 37km/h | 18621m | 5.5m/s | 0°C | 0% | 0hPa | 0V | 00:00:00 | 00:00:00 | 00:00:00 | |
| OE5MMP-10 | 2026-09-03 12:33:31 | 47.83624 | 17.15477 | 134° | 37km/h | 18589m | 3.0m/s | 0°C | 0% | 0hPa | 0V | 00:00:00 | 00:00:00 | 00:00:00 | |
| PETON7-10 | 2026-09-03 12:33:25 | 47.83654 | 17.15406 | 125° | 38km/h | 18565m | 3.4m/s | 0°C | 0% | 0hPa | 0V | 00:00:00 | 00:00:00 | 00:00:00 | |
| OE5MMP-10 | 2026-09-03 12:33:21 | 47.83674 | 17.15358 | 129° | 38km/h | 18546m | 5.1m/s | 0°C | 0% | 0hPa | 0V | 00:00:00 | 00:00:00 | 00:00:00 | |
| OE3OSB-13 | 2026-09-03 12:33:17 | 47.83700 | 17.15302 | 113° | 29km/h | 18525m | 2.9m/s | -52.6°C | 0.0% | 70.1hPa | 0V | 00:00:00 | 00:00:00 | 00:00:00 | |
| PETON7-10 | 2026-09-03 12:33:11 | 47.83732 | 17.15230 | 115° | 47km/h | 18500m | 3.3m/s | 0°C | 0% | 0hPa | 0V | 00:00:00 | 00:00:00 | 00:00:00 | |
| OE5MMP-10 | 2026-09-03 12:33:09 | 47.83738 | 17.15214 | 120° | 47km/h | 18496m | 5.9m/s | 0°C | 0% | 0hPa | 0V | 00:00:00 | 00:00:00 | 00:00:00 | |
| OE5DXL-15 | 2026-09-03 12:33:08 | 47.83744 | 17.15198 | 119° | 46km/h | 18491m | 3.8m/s | 0°C | 0% | 0hPa | 0V | 00:00:00 | 00:00:00 | 00:00:00 | |
| OE3OSB-13 | 2026-09-03 12:32:46 | 47.83876 | 17.14855 | 118° | 40km/h | 18375m | 5.9m/s | -53.9°C | 0.0% | 71.9hPa | 0V | 00:00:00 | 00:00:00 | 00:00:00 | |
| PETON7-10 | 2026-09-03 12:32:39 | 47.83914 | 17.14776 | 129° | 44km/h | 18344m | 6.0m/s | 0°C | 0% | 0hPa | 0V | 00:00:00 | 00:00:00 | 00:00:00 | |
| OE5DXL-15 | 2026-09-03 12:32:38 | 47.83920 | 17.14765 | 129° | 44km/h | 18339m | 3.6m/s | 0°C | 0% | 0hPa | 0V | 00:00:00 | 00:00:00 | 00:00:00 | |
| OE5MMP-10 | 2026-09-03 12:32:27 | 47.83986 | 17.14601 | 114° | 42km/h | 18279m | 5.4m/s | 0°C | 0% | 0hPa | 0V | 00:00:00 | 00:00:00 | 00:00:00 | |
| PETON7-10 | 2026-09-03 12:32:24 | 47.84003 | 17.14562 | 125° | 44km/h | 18262m | 3.8m/s | 0°C | 0% | 0hPa | 0V | 00:00:00 | 00:00:00 | 00:00:00 | |
| OE5MMP-10 | 2026-09-03 12:32:17 | 47.84042 | 17.14463 | 118° | 40km/h | 18226m | 5.1m/s | 0°C | 0% | 0hPa | 0V | 00:00:00 | 00:00:00 | 00:00:00 | |
| OE3OSB-13 | 2026-09-03 12:32:15 | 47.84058 | 17.14416 | 121° | 46km/h | 18207m | 7.3m/s | -54.0°C | 0.0% | 73.9hPa | 0V | 00:00:00 | 00:00:00 | 00:00:00 | |
| S52SK | 2026-09-03 12:32:10 | 47.84081 | 17.14353 | 121° | 38km/h | 18179m | 6.9m/s | 0°C | 0% | 0hPa | 0V | 00:00:00 | 00:00:00 | 00:00:00 | |
| PETON7-10 | 2026-09-03 12:32:09 | 47.84081 | 17.14353 | 121° | 38km/h | 18179m | 6.8m/s | 0°C | 0% | 0hPa | 0V | 00:00:00 | 00:00:00 | 00:00:00 | |
| OE5DXL-15 | 2026-09-03 12:32:08 | 47.84088 | 17.14341 | 131° | 40km/h | 18173m | 5.9m/s | 0°C | 0% | 0hPa | 0V | 00:00:00 | 00:00:00 | 00:00:00 | |
| OE5MMP-10 | 2026-09-03 12:32:07 | 47.84095 | 17.14327 | 129° | 38km/h | 18167m | 6.0m/s | 0°C | 0% | 0hPa | 0V | 00:00:00 | 00:00:00 | 00:00:00 | |
| S52SK | 2026-09-03 12:32:05 | 47.84114 | 17.14283 | 126° | 44km/h | 18150m | 7.1m/s | 0°C | 0% | 0hPa | 0V | 00:00:00 | 00:00:00 | 00:00:00 | |
| OE3OSB-13 | 2026-09-03 12:31:44 | 47.84237 | 17.14052 | 119° | 42km/h | 18030m | 6.4m/s | -54.0°C | 0.0% | 76.2hPa | 0V | 00:00:00 | 00:00:00 | 00:00:00 | |
| OE5DXL-15 | 2026-09-03 12:31:38 | 47.84267 | 17.13983 | 122° | 44km/h | 18001m | 6.3m/s | 0°C | 0% | 0hPa | 0V | 00:00:00 | 00:00:00 | 00:00:00 | |
| PETON7-10 | 2026-09-03 12:31:37 | 47.84273 | 17.13968 | 118° | 42km/h | 17995m | 5.8m/s | 0°C | 0% | 0hPa | 0V | 00:00:00 | 00:00:00 | 00:00:00 | |
| OE5MMP-10 | 2026-09-03 12:31:35 | 47.84284 | 17.13940 | 121° | 40km/h | 17984m | 6.4m/s | 0°C | 0% | 0hPa | 0V | 00:00:00 | 00:00:00 | 00:00:00 | |
| PETON7-10 | 2026-09-03 12:31:23 | 47.84353 | 17.13776 | 111° | 44km/h | 17906m | 6.2m/s | 0°C | 0% | 0hPa | 0V | 00:00:00 | 00:00:00 | 00:00:00 | |
| OE5MMP-10 | 2026-09-03 12:31:13 | 47.84395 | 17.13644 | 110° | 46km/h | 17862m | 5.0m/s | 0°C | 0% | 0hPa | 0V | 00:00:00 | 00:00:00 | 00:00:00 | |
| OE3OSB-13 | 2026-09-03 12:31:12 | 47.84399 | 17.13628 | 112° | 46km/h | 17857m | 5.1m/s | -54.5°C | 0.0% | 78.3hPa | 0V | 00:00:00 | 00:00:00 | 00:00:00 | |
| OE5DXL-15 | 2026-09-03 12:31:08 | 47.84421 | 17.13561 | 126° | 35km/h | 17838m | 6.7m/s | 0°C | 0% | 0hPa | 0V | 00:00:00 | 00:00:00 | 00:00:00 | |
| PETON7-10 | 2026-09-03 12:31:07 | 47.84427 | 17.13549 | 134° | 35km/h | 17832m | 5.5m/s | 0°C | 0% | 0hPa | 0V | 00:00:00 | 00:00:00 | 00:00:00 | |
| OE5MMP-10 | 2026-09-03 12:31:03 | 47.84441 | 17.13500 | 102° | 35km/h | 17812m | 5.6m/s | 0°C | 0% | 0hPa | 0V | 00:00:00 | 00:00:00 | 00:00:00 | |
| OE5MMP-10 | 2026-09-03 12:30:53 | 47.84485 | 17.13388 | 116° | 35km/h | 17761m | 3.9m/s | 0°C | 0% | 0hPa | 0V | 00:00:00 | 00:00:00 | 00:00:00 | |
| PETON7-10 | 2026-09-03 12:30:49 | 47.84503 | 17.13345 | 123° | 33km/h | 17740m | 6.6m/s | 0°C | 0% | 0hPa | 0V | 00:00:00 | 00:00:00 | 00:00:00 | |
| OE3OSB-13 | 2026-09-03 12:30:41 | 47.84548 | 17.13270 | 130° | 38km/h | 17700m | 4.7m/s | -54.5°C | 0.0% | 80.4hPa | 0V | 00:00:00 | 00:00:00 | 00:00:00 | |
| OE5DXL-15 | 2026-09-03 12:30:38 | 47.84566 | 17.13243 | 134° | 31km/h | 17685m | 6.8m/s | 0°C | 0% | 0hPa | 0V | 00:00:00 | 00:00:00 | 00:00:00 | |
| PETON7-10 | 2026-09-03 12:30:33 | 47.84594 | 17.13209 | 135° | 31km/h | 17660m | 5.5m/s | 0°C | 0% | 0hPa | 0V | 00:00:00 | 00:00:00 | 00:00:00 | |
| S52SK | 2026-09-03 12:30:30 | 47.84611 | 17.13187 | 147° | 27km/h | 17645m | 5.3m/s | 0°C | 0% | 0hPa | 0V | 00:00:00 | 00:00:00 | 00:00:00 | |
| S52SK | 2026-09-03 12:30:24 | 47.84643 | 17.13144 | 143° | 27km/h | 17617m | 3.6m/s | 0°C | 0% | 0hPa | 0V | 00:00:00 | 00:00:00 | 00:00:00 | |
| PETON7-10 | 2026-09-03 12:30:18 | 47.84670 | 17.13090 | 127° | 35km/h | 17587m | 6.3m/s | 0°C | 0% | 0hPa | 0V | 00:00:00 | 00:00:00 | 00:00:00 | |
| OE3OSB-13 | 2026-09-03 12:30:10 | 47.84708 | 17.13014 | 122° | 35km/h | 17549m | 6.0m/s | -55.8°C | 0.0% | 82.4hPa | 0V | 00:00:00 | 00:00:00 | 00:00:00 | |
| OE5DXL-15 | 2026-09-03 12:30:08 | 47.84720 | 17.12993 | 134° | 40km/h | 17540m | 4.8m/s | 0°C | 0% | 0hPa | 0V | 00:00:00 | 00:00:00 | 00:00:00 | |
| PETON7-10 | 2026-09-03 12:30:02 | 47.84760 | 17.12934 | 132° | 40km/h | 17510m | 5.2m/s | 0°C | 0% | 0hPa | 0V | 00:00:00 | 00:00:00 | 00:00:00 | |
| PETON7-10 | 2026-09-03 12:29:47 | 47.84865 | 17.12775 | 138° | 38km/h | 17439m | 5.8m/s | 0°C | 0% | 0hPa | 0V | 00:00:00 | 00:00:00 | 00:00:00 | |
| OE3OSB-13 | 2026-09-03 12:29:39 | 47.84941 | 17.12695 | 142° | 38km/h | 17396m | 5.9m/s | -55.5°C | 0.0% | 84.5hPa | 0V | 00:00:00 | 00:00:00 | 00:00:00 | |
| OE5DXL-15 | 2026-09-03 12:29:38 | 47.84941 | 17.12695 | 143° | 46km/h | 17396m | 5.8m/s | 0°C | 0% | 0hPa | 0V | 00:00:00 | 00:00:00 | 00:00:00 | |
| PETON7-10 | 2026-09-03 12:29:32 | 47.84982 | 17.12646 | 155° | 49km/h | 17366m | 5.9m/s | 0°C | 0% | 0hPa | 0V | 00:00:00 | 00:00:00 | 00:00:00 | |
| PETON7-10 | 2026-09-03 12:29:17 | 47.85134 | 17.12458 | 136° | 51km/h | 17280m | 7.6m/s | 0°C | 0% | 0hPa | 0V | 00:00:00 | 00:00:00 | 00:00:00 | |
| OE5DXL-15 | 2026-09-03 12:29:08 | 47.85203 | 17.12364 | 134° | 57km/h | 17232m | 6.4m/s | 0°C | 0% | 0hPa | 0V | 00:00:00 | 00:00:00 | 00:00:00 | |
| PETON7-10 | 2026-09-03 12:29:01 | 47.85273 | 17.12258 | 133° | 55km/h | 17193m | 5.9m/s | 0°C | 0% | 0hPa | 0V | 00:00:00 | 00:00:00 | 00:00:00 | |
| OE3JTB-15 | 2026-09-03 12:28:59 | 47.85320 | 17.12167 | 127° | 57km/h | 17160m | 7.5m/s | 0°C | 0% | 0hPa | 0V | 00:00:00 | 00:00:00 | 00:00:00 | |
| S52SK | 2026-09-03 12:28:53 | 47.85337 | 17.12133 | 132° | 57km/h | 17148m | 8.2m/s | 0°C | 0% | 0hPa | 0V | 00:00:00 | 00:00:00 | 00:00:00 | |
| HA6NAB-11 | 2026-09-03 12:28:46 | 47.85394 | 17.12010 | 127° | 58km/h | 17109m | 6.1m/s | 0°C | 0% | 0hPa | 0V | 00:00:00 | 00:00:00 | 00:00:00 | |
| PETON7-10 | 2026-09-03 12:28:45 | 47.85402 | 17.11992 | 120° | 60km/h | 17102m | 7.9m/s | 0°C | 0% | 0hPa | 0V | 00:00:00 | 00:00:00 | 00:00:00 | |
| HA6NAB-11 | 2026-09-03 12:28:40 | 47.85440 | 17.11894 | 118° | 64km/h | 17072m | 6.7m/s | 0°C | 0% | 0hPa | 0V | 00:00:00 | 00:00:00 | 00:00:00 | |
| OE5DXL-15 | 2026-09-03 12:28:38 | 47.85454 | 17.11853 | 119° | 57km/h | 17061m | 6.5m/s | 0°C | 0% | 0hPa | 0V | 00:00:00 | 00:00:00 | 00:00:00 | |
| OE3OSB-13 | 2026-09-03 12:28:37 | 47.85468 | 17.11815 | 118° | 55km/h | 17050m | 4.5m/s | -55.7°C | 0.0% | 89.5hPa | 0V | 00:00:00 | 00:00:00 | 00:00:00 | |
| HA6NAB-11 | 2026-09-03 12:28:35 | 47.85474 | 17.11796 | 117° | 57km/h | 17045m | 5.8m/s | 0°C | 0% | 0hPa | 0V | 00:00:00 | 00:00:00 | 00:00:00 | |
| PETON7-10 | 2026-09-03 12:28:29 | 47.85517 | 17.11678 | 116° | 57km/h | 17011m | 5.2m/s | 0°C | 0% | 0hPa | 0V | 00:00:00 | 00:00:00 | 00:00:00 | |
| OE3JTB-15 | 2026-09-03 12:28:28 | 47.85541 | 17.11601 | 113° | 49km/h | 16987m | 7.5m/s | 0°C | 0% | 0hPa | 0V | 00:00:00 | 00:00:00 | 00:00:00 | |
| HA6NAB-11 | 2026-09-03 12:28:23 | 47.85552 | 17.11560 | 115° | 60km/h | 16974m | 6.9m/s | 0°C | 0% | 0hPa | 0V | 00:00:00 | 00:00:00 | 00:00:00 | |
| HA6NAB-11 | 2026-09-03 12:28:17 | 47.85592 | 17.11452 | 119° | 55km/h | 16942m | 7.0m/s | 0°C | 0% | 0hPa | 0V | 00:00:00 | 00:00:00 | 00:00:00 | |
| PETON7-10 | 2026-09-03 12:28:14 | 47.85609 | 17.11393 | 108° | 51km/h | 16925m | 6.1m/s | 0°C | 0% | 0hPa | 0V | 00:00:00 | 00:00:00 | 00:00:00 | |
| OE5DXL-15 | 2026-09-03 12:28:08 | 47.85636 | 17.11281 | 114° | 42km/h | 16892m | 4.7m/s | 0°C | 0% | 0hPa | 0V | 00:00:00 | 00:00:00 | 00:00:00 | |
| OE3OSB-13 | 2026-09-03 12:28:06 | 47.85653 | 17.11234 | 115° | 51km/h | 16876m | 5.2m/s | -55.4°C | 0% | 92.1hPa | 0V | 00:00:00 | 00:00:00 | 00:00:00 | |
| PETON7-10 | 2026-09-03 12:27:59 | 47.85676 | 17.11123 | 111° | 40km/h | 16844m | 5.8m/s | 0°C | 0% | 0hPa | 0V | 00:00:00 | 00:00:00 | 00:00:00 | |
| OE3JTB-15 | 2026-09-03 12:27:58 | 47.85689 | 17.11072 | 110° | 38km/h | 16823m | 5.3m/s | 0°C | 0% | 0hPa | 0V | 00:00:00 | 00:00:00 | 00:00:00 | |
| PETON7-10 | 2026-09-03 12:27:44 | 47.85722 | 17.10918 | 111° | 35km/h | 16767m | 5.6m/s | 0°C | 0% | 0hPa | 0V | 00:00:00 | 00:00:00 | 00:00:00 | |
| OE5DXL-15 | 2026-09-03 12:27:38 | 47.85742 | 17.10845 | 115° | 35km/h | 16734m | 6.1m/s | 0°C | 0% | 0hPa | 0V | 00:00:00 | 00:00:00 | 00:00:00 | |
| OE3OSB-13 | 2026-09-03 12:27:35 | 47.85751 | 17.10796 | 100° | 42km/h | 16714m | 5.0m/s | -54.8°C | 0.0% | 94.5hPa | 0V | 00:00:00 | 00:00:00 | 00:00:00 | |
| PETON7-10 | 2026-09-03 12:27:27 | 47.85771 | 17.10707 | 127° | 31km/h | 16681m | 6.3m/s | 0°C | 0% | 0hPa | 0V | 00:00:00 | 00:00:00 | 00:00:00 | |
| OE3JTB-15 | 2026-09-03 12:27:26 | 47.85790 | 17.10650 | 111° | 37km/h | 16656m | 4.8m/s | 0°C | 0% | 0hPa | 0V | 00:00:00 | 00:00:00 | 00:00:00 | |
| S52SK | 2026-09-03 12:27:22 | 47.85790 | 17.10650 | 111° | 42km/h | 16656m | 4.9m/s | 0°C | 0% | 0hPa | 0V | 00:00:00 | 00:00:00 | 00:00:00 | |
| S52SK | 2026-09-03 12:27:16 | 47.85811 | 17.10586 | 117° | 22km/h | 16624m | 7.3m/s | 0°C | 0% | 0hPa | 0V | 00:00:00 | 00:00:00 | 00:00:00 | |
| PETON7-10 | 2026-09-03 12:27:12 | 47.85823 | 17.10544 | 119° | 37km/h | 16602m | 6.7m/s | 0°C | 0% | 0hPa | 0V | 00:00:00 | 00:00:00 | 00:00:00 | |
| OE5DXL-15 | 2026-09-03 12:27:07 | 47.85844 | 17.10478 | 118° | 37km/h | 16577m | 6.4m/s | 0°C | 0% | 0hPa | 0V | 00:00:00 | 00:00:00 | 00:00:00 | |
| OE3OSB-13 | 2026-09-03 12:27:04 | 47.85862 | 17.10442 | 115° | 37km/h | 16556m | 5.8m/s | -53.7°C | 0.0% | 97.0hPa | 0V | 00:00:00 | 00:00:00 | 00:00:00 | |
| PETON7-10 | 2026-09-03 12:26:57 | 47.85891 | 17.10368 | 121° | 37km/h | 16524m | 4.2m/s | 0°C | 0% | 0hPa | 0V | 00:00:00 | 00:00:00 | 00:00:00 | |
| OE3JTB-15 | 2026-09-03 12:26:56 | 47.85918 | 17.10308 | 114° | 42km/h | 16500m | 3.9m/s | 0°C | 0% | 0hPa | 0V | 00:00:00 | 00:00:00 | 00:00:00 | |
| PETON7-10 | 2026-09-03 12:26:41 | 47.85977 | 17.10198 | 122° | 44km/h | 16449m | 3.0m/s | 0°C | 0% | 0hPa | 0V | 00:00:00 | 00:00:00 | 00:00:00 | |
| OE5DXL-15 | 2026-09-03 12:26:37 | 47.86011 | 17.10153 | 152° | 42km/h | 16430m | 5.0m/s | 0°C | 0% | 0hPa | 0V | 00:00:00 | 00:00:00 | 00:00:00 | |
| OE3OSB-13 | 2026-09-03 12:26:34 | 47.86042 | 17.10094 | 121° | 49km/h | 16408m | 3.8m/s | -53.7°C | 0.0% | 99.4hPa | 0V | 00:00:00 | 00:00:00 | 00:00:00 | |
| PETON7-10 | 2026-09-03 12:26:25 | 47.86095 | 17.10010 | 141° | 40km/h | 16377m | 4.7m/s | 0°C | 0% | 0hPa | 0V | 00:00:00 | 00:00:00 | 00:00:00 | |
| OE3JTB-15 | 2026-09-03 12:26:24 | 47.86138 | 17.09952 | 136° | 44km/h | 16355m | 5.0m/s | 0°C | 0% | 0hPa | 0V | 00:00:00 | 00:00:00 | 00:00:00 | |
| PETON7-10 | 2026-09-03 12:26:10 | 47.86197 | 17.09833 | 128° | 44km/h | 16310m | 5.7m/s | 0°C | 0% | 0hPa | 0V | 00:00:00 | 00:00:00 | 00:00:00 | |
| OE5DXL-15 | 2026-09-03 12:26:07 | 47.86217 | 17.09799 | 133° | 51km/h | 16297m | 3.3m/s | 0°C | 0% | 0hPa | 0V | 00:00:00 | 00:00:00 | 00:00:00 | |
| OE3JTB-15 | 2026-09-03 12:25:55 | 47.86338 | 17.09589 | 139° | 58km/h | 16225m | 5.4m/s | 0°C | 0% | 0hPa | 0V | 00:00:00 | 00:00:00 | 00:00:00 | |
| S52SK | 2026-09-03 12:25:43 | 47.86423 | 17.09473 | 136° | 53km/h | 16190m | 5.4m/s | 0°C | 0% | 0hPa | 0V | 00:00:00 | 00:00:00 | 00:00:00 | |
| PETON7-10 | 2026-09-03 12:25:40 | 47.86451 | 17.09431 | 135° | 60km/h | 16177m | 5.0m/s | 0°C | 0% | 0hPa | 0V | 00:00:00 | 00:00:00 | 00:00:00 | |
| OE5DXL-15 | 2026-09-03 12:25:37 | 47.86479 | 17.09384 | 130° | 64km/h | 16165m | 4.3m/s | 0°C | 0% | 0hPa | 0V | 00:00:00 | 00:00:00 | 00:00:00 | |
| OE3OSB-13 | 2026-09-03 12:25:31 | 47.86554 | 17.09266 | 132° | 60km/h | 16132m | 4.9m/s | -54.3°C | 0.0% | 103.9hPa | 0V | 00:00:00 | 00:00:00 | 00:00:00 | |
| OE3JTB-15 | 2026-09-03 12:25:25 | 47.86649 | 17.09114 | 129° | 69km/h | 16094m | 3.5m/s | 0°C | 0% | 0hPa | 0V | 00:00:00 | 00:00:00 | 00:00:00 | |
| PG1ADW-2 | 2026-09-03 12:25:10 | 47.86755 | 17.08897 | 125° | 69km/h | 16048m | 4.4m/s | 0°C | 0% | 0hPa | 0V | 00:00:00 | 00:00:00 | 00:00:00 | |
| PETON7-10 | 2026-09-03 12:25:09 | 47.86765 | 17.08876 | 125° | 69km/h | 16044m | 3.0m/s | 0°C | 0% | 0hPa | 0V | 00:00:00 | 00:00:00 | 00:00:00 | |
| OE5DXL-15 | 2026-09-03 12:25:07 | 47.86785 | 17.08833 | 123° | 69km/h | 16036m | 3.7m/s | 0°C | 0% | 0hPa | 0V | 00:00:00 | 00:00:00 | 00:00:00 | |
| OE3OSB-13 | 2026-09-03 12:25:00 | 47.86855 | 17.08651 | 116° | 73km/h | 16000m | 3.9m/s | -54.9°C | 0.0% | 106.2hPa | 0V | 00:00:00 | 00:00:00 | 00:00:00 | |
| PETON7-10 | 2026-09-03 12:24:54 | 47.86901 | 17.08533 | 125° | 68km/h | 15981m | 1.6m/s | 0°C | 0% | 0hPa | 0V | 00:00:00 | 00:00:00 | 00:00:00 | |
| OE3JTB-15 | 2026-09-03 12:24:51 | 47.86947 | 17.08367 | 111° | 66km/h | 15952m | 4.9m/s | 0°C | 0% | 0hPa | 0V | 00:00:00 | 00:00:00 | 00:00:00 | |
| PG1ADW-2 | 2026-09-03 12:24:39 | 47.86997 | 17.08181 | 105° | 71km/h | 15915m | 5.7m/s | 0°C | 0% | 0hPa | 0V | 00:00:00 | 00:00:00 | 00:00:00 | |
| OE5DXL-15 | 2026-09-03 12:24:37 | 47.87006 | 17.08130 | 105° | 64km/h | 15905m | 4.9m/s | 0°C | 0% | 0hPa | 0V | 00:00:00 | 00:00:00 | 00:00:00 | |
| OE3OSB-13 | 2026-09-03 12:24:29 | 47.87065 | 17.07924 | 108° | 68km/h | 15865m | 4.4m/s | -54.6°C | 0.2% | 108.5hPa | 0V | 00:00:00 | 00:00:00 | 00:00:00 | |
| PETON7-10 | 2026-09-03 12:24:24 | 47.87088 | 17.07830 | 113° | 60km/h | 15848m | 5.6m/s | 0°C | 0% | 0hPa | 0V | 00:00:00 | 00:00:00 | 00:00:00 | |
| OE3JTB-15 | 2026-09-03 12:24:18 | 47.87146 | 17.07609 | 121° | 60km/h | 15804m | 4.1m/s | 0°C | 0% | 0hPa | 0V | 00:00:00 | 00:00:00 | 00:00:00 | |
| S52SK | 2026-09-03 12:24:11 | 47.87165 | 17.07551 | 117° | 58km/h | 15792m | 4.8m/s | 0°C | 0% | 0hPa | 0V | 00:00:00 | 00:00:00 | 00:00:00 | |
| PETON7-10 | 2026-09-03 12:24:08 | 47.87184 | 17.07490 | 114° | 60km/h | 15778m | 6.4m/s | 0°C | 0% | 0hPa | 0V | 00:00:00 | 00:00:00 | 00:00:00 | |
| OE5DXL-15 | 2026-09-03 12:24:07 | 47.87190 | 17.07470 | 114° | 62km/h | 15773m | 5.0m/s | 0°C | 0% | 0hPa | 0V | 00:00:00 | 00:00:00 | 00:00:00 | |
| S52SK | 2026-09-03 12:24:05 | 47.87202 | 17.07431 | 121° | 58km/h | 15763m | 5.8m/s | 0°C | 0% | 0hPa | 0V | 00:00:00 | 00:00:00 | 00:00:00 | |
| OE3OSB-13 | 2026-09-03 12:23:58 | 47.87264 | 17.07266 | 113° | 58km/h | 15726m | 4.5m/s | -54.5°C | 0.4% | 111.0hPa | 0V | 00:00:00 | 00:00:00 | 00:00:00 | |
| PETON7-10 | 2026-09-03 12:23:53 | 47.87291 | 17.07197 | 118° | 62km/h | 15708m | 6.0m/s | 0°C | 0% | 0hPa | 0V | 00:00:00 | 00:00:00 | 00:00:00 | |
| OE3JTB-15 | 2026-09-03 12:23:49 | 47.87342 | 17.07048 | 112° | 58km/h | 15675m | 5.7m/s | 0°C | 0% | 0hPa | 0V | 00:00:00 | 00:00:00 | 00:00:00 | |
| OE5DXL-15 | 2026-09-03 12:23:37 | 47.87397 | 17.06851 | 120° | 55km/h | 15631m | 5.5m/s | 0°C | 0% | 0hPa | 0V | 00:00:00 | 00:00:00 | 00:00:00 | |
| OE3OSB-13 | 2026-09-03 12:23:27 | 47.87483 | 17.06618 | 125° | 53km/h | 15570m | 4.9m/s | -54.3°C | 0.7% | 113.8hPa | 0V | 00:00:00 | 00:00:00 | 00:00:00 | |
| OE3JTB-15 | 2026-09-03 12:23:20 | 47.87552 | 17.06472 | 130° | 57km/h | 15524m | 4.9m/s | 0°C | 0% | 0hPa | 0V | 00:00:00 | 00:00:00 | 00:00:00 | |
| OE5DXL-15 | 2026-09-03 12:23:07 | 47.87632 | 17.06337 | 131° | 62km/h | 15478m | 7.0m/s | 0°C | 0% | 0hPa | 0V | 00:00:00 | 00:00:00 | 00:00:00 | |
| PETON7-10 | 2026-09-03 12:23:05 | 47.87651 | 17.06308 | 137° | 58km/h | 15467m | 5.1m/s | 0°C | 0% | 0hPa | 0V | 00:00:00 | 00:00:00 | 00:00:00 | |
| OE3OSB-13 | 2026-09-03 12:22:56 | 47.87752 | 17.06156 | 142° | 60km/h | 15415m | 6.2m/s | -54.5°C | 0.8% | 116.8hPa | 0V | 00:00:00 | 00:00:00 | 00:00:00 | |
| PETON7-10 | 2026-09-03 12:22:49 | 47.87817 | 17.06049 | 128° | 68km/h | 15381m | 6.3m/s | 0°C | 0% | 0hPa | 0V | 00:00:00 | 00:00:00 | 00:00:00 | |
| OE5DXL-15 | 2026-09-03 12:22:37 | 47.87945 | 17.05810 | 130° | 75km/h | 15320m | 7.3m/s | 0°C | 0% | 0hPa | 0V | 00:00:00 | 00:00:00 | 00:00:00 | |
| S52SK | 2026-09-03 12:22:35 | 47.87968 | 17.05769 | 134° | 68km/h | 15310m | 6.4m/s | 0°C | 0% | 0hPa | 0V | 00:00:00 | 00:00:00 | 00:00:00 | |
| PETON7-10 | 2026-09-03 12:22:34 | 47.87989 | 17.05733 | 130° | 71km/h | 15300m | 5.0m/s | 0°C | 0% | 0hPa | 0V | 00:00:00 | 00:00:00 | 00:00:00 | |
| S52SK | 2026-09-03 12:22:29 | 47.88027 | 17.05650 | 120° | 71km/h | 15280m | 6.9m/s | 0°C | 0% | 0hPa | 0V | 00:00:00 | 00:00:00 | 00:00:00 | |
| OE3OSB-13 | 2026-09-03 12:22:24 | 47.88093 | 17.05509 | 122° | 64km/h | 15248m | 4.7m/s | -54.7°C | 1.1% | 120.0hPa | 0V | 00:00:00 | 00:00:00 | 00:00:00 | |
| OE3JTB-15 | 2026-09-03 12:22:22 | 47.88134 | 17.05419 | 121° | 77km/h | 15227m | 6.7m/s | 0°C | 0% | 0hPa | 0V | 00:00:00 | 00:00:00 | 00:00:00 | |
| PETON7-10 | 2026-09-03 12:22:18 | 47.88143 | 17.05393 | 118° | 77km/h | 15221m | 5.2m/s | 0°C | 0% | 0hPa | 0V | 00:00:00 | 00:00:00 | 00:00:00 | |
| OE5DXL-15 | 2026-09-03 12:22:07 | 47.88248 | 17.05112 | 117° | 75km/h | 15162m | 4.4m/s | 0°C | 0% | 0hPa | 0V | 00:00:00 | 00:00:00 | 00:00:00 | |
| PETON7-10 | 2026-09-03 12:22:03 | 47.88284 | 17.05013 | 121° | 77km/h | 15143m | 3.8m/s | 0°C | 0% | 0hPa | 0V | 00:00:00 | 00:00:00 | 00:00:00 | |
| OE3OSB-13 | 2026-09-03 12:21:53 | 47.88368 | 17.04721 | 115° | 77km/h | 15084m | 4.9m/s | -54.7°C | 1.3% | 123.2hPa | 0V | 00:00:00 | 00:00:00 | 00:00:00 | |
| PETON7-10 | 2026-09-03 12:21:48 | 47.88397 | 17.04612 | 115° | 75km/h | 15064m | 5.5m/s | 0°C | 0% | 0hPa | 0V | 00:00:00 | 00:00:00 | 00:00:00 | |
| OE5DXL-15 | 2026-09-03 12:21:37 | 47.88485 | 17.04340 | 121° | 71km/h | 15007m | 5.1m/s | 0°C | 0% | 0hPa | 0V | 00:00:00 | 00:00:00 | 00:00:00 | |
| PETON7-10 | 2026-09-03 12:21:33 | 47.88520 | 17.04242 | 118° | 71km/h | 14986m | 5.6m/s | 0°C | 0% | 0hPa | 0V | 00:00:00 | 00:00:00 | 00:00:00 | |
| OE3OSB-13 | 2026-09-03 12:21:22 | 47.88630 | 17.03964 | 123° | 69km/h | 14921m | 4.2m/s | -54.3°C | 1.6% | 126.4hPa | 0V | 00:00:00 | 00:00:00 | 00:00:00 | |
| OE3JTB-15 | 2026-09-03 12:21:21 | 47.88659 | 17.03893 | 122° | 69km/h | 14906m | 6.0m/s | 0°C | 0% | 0hPa | 0V | 00:00:00 | 00:00:00 | 00:00:00 | |
| PETON7-10 | 2026-09-03 12:21:19 | 47.88659 | 17.03893 | 122° | 69km/h | 14906m | 6.0m/s | 0°C | 0% | 0hPa | 0V | 00:00:00 | 00:00:00 | 00:00:00 | |
| PG1ADW-2 | 2026-09-03 12:21:16 | 47.88678 | 17.03848 | 124° | 80km/h | 14896m | 3.8m/s | 0°C | 0% | 0hPa | 0V | 00:00:00 | 00:00:00 | 00:00:00 | |
| OE5DXL-15 | 2026-09-03 12:21:07 | 47.88763 | 17.03650 | 126° | 71km/h | 14854m | 6.3m/s | 0°C | 0% | 0hPa | 0V | 00:00:00 | 00:00:00 | 00:00:00 | |
| PETON7-10 | 2026-09-03 12:21:03 | 47.88805 | 17.03562 | 122° | 69km/h | 14835m | 4.2m/s | 0°C | 0% | 0hPa | 0V | 00:00:00 | 00:00:00 | 00:00:00 | |
| OE3OSB-13 | 2026-09-03 12:20:51 | 47.88946 | 17.03296 | 130° | 68km/h | 14773m | 5.1m/s | -53.9°C | 1.9% | 129.5hPa | 0V | 00:00:00 | 00:00:00 | 00:00:00 | |
| PETON7-10 | 2026-09-03 12:20:47 | 47.88978 | 17.03233 | 127° | 77km/h | 14759m | 5.1m/s | 0°C | 0% | 0hPa | 0V | 00:00:00 | 00:00:00 | 00:00:00 | |
| OE5DXL-15 | 2026-09-03 12:20:37 | 47.89100 | 17.03012 | 129° | 84km/h | 14713m | 5.4m/s | 0°C | 0% | 0hPa | 0V | 00:00:00 | 00:00:00 | 00:00:00 | |
| PETON7-10 | 2026-09-03 12:20:32 | 47.89162 | 17.02886 | 129° | 86km/h | 14690m | 5.4m/s | 0°C | 0% | 0hPa | 0V | 00:00:00 | 00:00:00 | 00:00:00 | |
| OE3JTB-15 | 2026-09-03 12:20:23 | 47.89282 | 17.02660 | 123° | 82km/h | 14648m | 4.8m/s | 0°C | 0% | 0hPa | 0V | 00:00:00 | 00:00:00 | 00:00:00 | |
| OE3OSB-13 | 2026-09-03 12:20:20 | 47.89331 | 17.02558 | 125° | 84km/h | 14631m | 6.0m/s | -54.8°C | 2.0% | 132.5hPa | 0V | 00:00:00 | 00:00:00 | 00:00:00 | |
| PETON7-10 | 2026-09-03 12:20:17 | 47.89356 | 17.02502 | 123° | 82km/h | 14622m | 3.7m/s | 0°C | 0% | 0hPa | 0V | 00:00:00 | 00:00:00 | 00:00:00 | |
| OE5DXL-15 | 2026-09-03 12:20:08 | 47.89466 | 17.02238 | 120° | 78km/h | 14577m | 4.8m/s | 0°C | 0% | 0hPa | 0V | 00:00:00 | 00:00:00 | 00:00:00 | |
| PETON7-10 | 2026-09-03 12:20:01 | 47.89529 | 17.02075 | 125° | 78km/h | 14553m | 4.8m/s | 0°C | 0% | 0hPa | 0V | 00:00:00 | 00:00:00 | 00:00:00 | |
| OE3OSB-13 | 2026-09-03 12:19:49 | 47.89654 | 17.01741 | 116° | 80km/h | 14497m | 4.6m/s | -54.6°C | 2.4% | 135.5hPa | 0V | 00:00:00 | 00:00:00 | 00:00:00 | |
| PETON7-10 | 2026-09-03 12:19:45 | 47.89684 | 17.01663 | 120° | 75km/h | 14485m | 3.9m/s | 0°C | 0% | 0hPa | 0V | 00:00:00 | 00:00:00 | 00:00:00 | |
| OE5DXL-15 | 2026-09-03 12:19:37 | 47.89756 | 17.01460 | 117° | 71km/h | 14449m | 6.3m/s | 0°C | 0% | 0hPa | 0V | 00:00:00 | 00:00:00 | 00:00:00 | |
| S52SK | 2026-09-03 12:19:31 | 47.89827 | 17.01297 | 120° | 73km/h | 14418m | 6.1m/s | 0°C | 0% | 0hPa | 0V | 00:00:00 | 00:00:00 | 00:00:00 | |
| PETON7-10 | 2026-09-03 12:19:29 | 47.89836 | 17.01273 | 117° | 73km/h | 14413m | 5.0m/s | 0°C | 0% | 0hPa | 0V | 00:00:00 | 00:00:00 | 00:00:00 | |
| OE3JTB-15 | 2026-09-03 12:19:26 | 47.89872 | 17.01177 | 124° | 68km/h | 14397m | 4.3m/s | 0°C | 0% | 0hPa | 0V | 00:00:00 | 00:00:00 | 00:00:00 | |
| S52SK | 2026-09-03 12:19:25 | 47.89872 | 17.01177 | 124° | 66km/h | 14397m | 4.3m/s | 0°C | 0% | 0hPa | 0V | 00:00:00 | 00:00:00 | 00:00:00 | |
| S52SK | 2026-09-03 12:19:20 | 47.89917 | 17.01062 | 124° | 71km/h | 14376m | 4.3m/s | 0°C | 0% | 0hPa | 0V | 00:00:00 | 00:00:00 | 00:00:00 | |
| OE3OSB-13 | 2026-09-03 12:19:19 | 47.89945 | 17.00991 | 116° | 73km/h | 14362m | 4.9m/s | -54.3°C | 2.8% | 138.5hPa | 0V | 00:00:00 | 00:00:00 | 00:00:00 | |
| PETON7-10 | 2026-09-03 12:19:14 | 47.89969 | 17.00923 | 117° | 69km/h | 14349m | 3.5m/s | 0°C | 0% | 0hPa | 0V | 00:00:00 | 00:00:00 | 00:00:00 | |
| OE5DXL-15 | 2026-09-03 12:19:07 | 47.90022 | 17.00763 | 113° | 66km/h | 14317m | 4.8m/s | 0°C | 0% | 0hPa | 0V | 00:00:00 | 00:00:00 | 00:00:00 | |
| OE3OSB-13 | 2026-09-03 12:18:47 | 47.90188 | 17.00306 | 114° | 62km/h | 14227m | 3.6m/s | -53.7°C | 3.3% | 141.5hPa | 0V | 00:00:00 | 00:00:00 | 00:00:00 | |
| PETON7-10 | 2026-09-03 12:18:41 | 47.90230 | 17.00199 | 123° | 66km/h | 14204m | 4.4m/s | 0°C | 0% | 0hPa | 0V | 00:00:00 | 00:00:00 | 00:00:00 | |
| OE5DXL-15 | 2026-09-03 12:18:37 | 47.90267 | 17.00115 | 122° | 64km/h | 14185m | 4.3m/s | 0°C | 0% | 0hPa | 0V | 00:00:00 | 00:00:00 | 00:00:00 | |
| PETON7-10 | 2026-09-03 12:18:25 | 47.90376 | 16.99868 | 131° | 60km/h | 14131m | 5.0m/s | 0°C | 0% | 0hPa | 0V | 00:00:00 | 00:00:00 | 00:00:00 | |
| OE3OSB-13 | 2026-09-03 12:18:18 | 47.90464 | 16.99666 | 134° | 51km/h | 14084m | 6.1m/s | -53.0°C | 3.7% | 144.7hPa | 0V | 00:00:00 | 00:00:00 | 00:00:00 | |
| PETON7-10 | 2026-09-03 12:18:10 | 47.90511 | 16.99580 | 131° | 68km/h | 14060m | 3.9m/s | 0°C | 0% | 0hPa | 0V | 00:00:00 | 00:00:00 | 00:00:00 | |
| OE5DXL-15 | 2026-09-03 12:18:07 | 47.90545 | 16.99522 | 125° | 73km/h | 14044m | 6.6m/s | 0°C | 0% | 0hPa | 0V | 00:00:00 | 00:00:00 | 00:00:00 | |
| OE3OSB-13 | 2026-09-03 12:17:45 | 47.90808 | 16.99054 | 128° | 80km/h | 13902m | 7.6m/s | -52.8°C | 4.7% | 149.0hPa | 0V | 00:00:00 | 00:00:00 | 00:00:00 | |
| PETON7-10 | 2026-09-03 12:17:38 | 47.90889 | 16.98931 | 131° | 86km/h | 13868m | 5.3m/s | 0°C | 0% | 0hPa | 0V | 00:00:00 | 00:00:00 | 00:00:00 | |
| OE5DXL-15 | 2026-09-03 12:17:37 | 47.90904 | 16.98906 | 132° | 88km/h | 13861m | 7.8m/s | 0°C | 0% | 0hPa | 0V | 00:00:00 | 00:00:00 | 00:00:00 | |
| OE3JTB-15 | 2026-09-03 12:17:27 | 47.91071 | 16.98619 | 134° | 89km/h | 13794m | 4.9m/s | 0°C | 0% | 0hPa | 0V | 00:00:00 | 00:00:00 | 00:00:00 | |
| OE3OSB-13 | 2026-09-03 12:17:14 | 47.91251 | 16.98342 | 125° | 99km/h | 13725m | 8.8m/s | -52.9°C | 5.4% | 153.2hPa | 0V | 00:00:00 | 00:00:00 | 00:00:00 | |
| PETON7-10 | 2026-09-03 12:17:08 | 47.91318 | 16.98197 | 126° | 99km/h | 13700m | 2.3m/s | 0°C | 0% | 0hPa | 0V | 00:00:00 | 00:00:00 | 00:00:00 | |
| OE5DXL-15 | 2026-09-03 12:17:07 | 47.91332 | 16.98169 | 127° | 99km/h | 13696m | 9.4m/s | 0°C | 0% | 0hPa | 0V | 00:00:00 | 00:00:00 | 00:00:00 | |
| OE3OSB-13 | 2026-09-03 12:16:43 | 47.91685 | 16.97395 | 125° | 97km/h | 13555m | 6.1m/s | -53.2°C | 6.4% | 157.6hPa | 0V | 00:00:00 | 00:00:00 | 00:00:00 | |
| PETON7-10 | 2026-09-03 12:16:38 | 47.91732 | 16.97269 | 115° | 91km/h | 13525m | 7.9m/s | 0°C | 0% | 0hPa | 0V | 00:00:00 | 00:00:00 | 00:00:00 | |
| OE5DXL-15 | 2026-09-03 12:16:37 | 47.91742 | 16.97238 | 117° | 88km/h | 13519m | 3.9m/s | 0°C | 0% | 0hPa | 0V | 00:00:00 | 00:00:00 | 00:00:00 | |
| OE3JTB-15 | 2026-09-03 12:16:28 | 47.91886 | 16.96847 | 123° | 82km/h | 13442m | 4.6m/s | 0°C | 0% | 0hPa | 0V | 00:00:00 | 00:00:00 | 00:00:00 | |
| PG1ADW-2 | 2026-09-03 12:16:24 | 47.91886 | 16.96847 | 123° | 86km/h | 13442m | 4.6m/s | 0°C | 0% | 0hPa | 0V | 00:00:00 | 00:00:00 | 00:00:00 | |
| PETON7-10 | 2026-09-03 12:16:23 | 47.91898 | 16.96819 | 125° | 86km/h | 13436m | 7.8m/s | 0°C | 0% | 0hPa | 0V | 00:00:00 | 00:00:00 | 00:00:00 | |
| S52SK | 2026-09-03 12:16:12 | 47.92028 | 16.96485 | 119° | 80km/h | 13372m | 5.5m/s | 0°C | 0% | 0hPa | 0V | 00:00:00 | 00:00:00 | 00:00:00 | |
| PETON7-10 | 2026-09-03 12:16:08 | 47.92048 | 16.96400 | 106° | 75km/h | 13351m | 7.0m/s | 0°C | 0% | 0hPa | 0V | 00:00:00 | 00:00:00 | 00:00:00 | |
| OE5DXL-15 | 2026-09-03 12:16:07 | 47.92054 | 16.96373 | 115° | 73km/h | 13345m | 4.9m/s | 0°C | 0% | 0hPa | 0V | 00:00:00 | 00:00:00 | 00:00:00 | |
| S52SK | 2026-09-03 12:16:05 | 47.92073 | 16.96320 | 121° | 82km/h | 13333m | 4.0m/s | 0°C | 0% | 0hPa | 0V | 00:00:00 | 00:00:00 | 00:00:00 | |
| OE3JTB-15 | 2026-09-03 12:15:54 | 47.92180 | 16.95966 | 113° | 71km/h | 13257m | 4.6m/s | 0°C | 0% | 0hPa | 0V | 00:00:00 | 00:00:00 | 00:00:00 | |
| PETON7-10 | 2026-09-03 12:15:50 | 47.92187 | 16.95940 | 117° | 69km/h | 13250m | 9.1m/s | 0°C | 0% | 0hPa | 0V | 00:00:00 | 00:00:00 | 00:00:00 | |
| OE3OSB-13 | 2026-09-03 12:15:40 | 47.92293 | 16.95696 | 124° | 71km/h | 13182m | 8.3m/s | -54.4°C | 8.5% | 167.1hPa | 0V | 00:00:00 | 00:00:00 | 00:00:00 | |
| OE5DXL-15 | 2026-09-03 12:15:37 | 47.92313 | 16.95656 | 132° | 71km/h | 13170m | 8.0m/s | 0°C | 0% | 0hPa | 0V | 00:00:00 | 00:00:00 | 00:00:00 | |
| PETON7-10 | 2026-09-03 12:15:35 | 47.92335 | 16.95619 | 130° | 73km/h | 13160m | 6.6m/s | 0°C | 0% | 0hPa | 0V | 00:00:00 | 00:00:00 | 00:00:00 | |
| OE3JTB-15 | 2026-09-03 12:15:25 | 47.92472 | 16.95336 | 127° | 78km/h | 13095m | 4.1m/s | 0°C | 0% | 0hPa | 0V | 00:00:00 | 00:00:00 | 00:00:00 | |
| PETON7-10 | 2026-09-03 12:15:20 | 47.92491 | 16.95290 | 118° | 73km/h | 13084m | 3.6m/s | 0°C | 0% | 0hPa | 0V | 00:00:00 | 00:00:00 | 00:00:00 | |
| OE3OSB-13 | 2026-09-03 12:15:09 | 47.92614 | 16.95015 | 117° | 55km/h | 13022m | 6.1m/s | -53.4°C | 10.4% | 171.6hPa | 0V | 00:00:00 | 00:00:00 | 00:00:00 | |
| OE5DXL-15 | 2026-09-03 12:15:07 | 47.92622 | 16.94997 | 129° | 82km/h | 13018m | 2.7m/s | 0°C | 0% | 0hPa | 0V | 00:00:00 | 00:00:00 | 00:00:00 | |
| PETON7-10 | 2026-09-03 12:15:04 | 47.92665 | 16.94938 | 140° | 78km/h | 13003m | 2.8m/s | 0°C | 0% | 0hPa | 0V | 00:00:00 | 00:00:00 | 00:00:00 | |
| PETON7-10 | 2026-09-03 12:14:49 | 47.92857 | 16.94604 | 133° | 91km/h | 12922m | 5.6m/s | 0°C | 0% | 0hPa | 0V | 00:00:00 | 00:00:00 | 00:00:00 | |
| S52SK | 2026-09-03 12:14:46 | 47.92901 | 16.94533 | 135° | 88km/h | 12907m | 5.2m/s | 0°C | 0% | 0hPa | 0V | 00:00:00 | 00:00:00 | 00:00:00 | |
| S52SK | 2026-09-03 12:14:41 | 47.92981 | 16.94411 | 134° | 88km/h | 12885m | 3.3m/s | 0°C | 0% | 0hPa | 0V | 00:00:00 | 00:00:00 | 00:00:00 | |
| OE3OSB-13 | 2026-09-03 12:14:38 | 47.93048 | 16.94312 | 134° | 91km/h | 12866m | 5.0m/s | -54.2°C | 13.3% | 175.9hPa | 0V | 00:00:00 | 00:00:00 | 00:00:00 | |
| OE5DXL-15 | 2026-09-03 12:14:37 | 47.93048 | 16.94312 | 135° | 100km/h | 12867m | 4.9m/s | 0°C | 0% | 0hPa | 0V | 00:00:00 | 00:00:00 | 00:00:00 | |
| S52SK | 2026-09-03 12:14:36 | 47.93064 | 16.94287 | 135° | 91km/h | 12862m | 4.1m/s | 0°C | 0% | 0hPa | 0V | 00:00:00 | 00:00:00 | 00:00:00 | |
| PETON7-10 | 2026-09-03 12:14:34 | 47.93097 | 16.94236 | 135° | 99km/h | 12854m | 6.2m/s | 0°C | 0% | 0hPa | 0V | 00:00:00 | 00:00:00 | 00:00:00 | |
| PG1ADW-2 | 2026-09-03 12:14:25 | 47.93252 | 16.93991 | 139° | 111km/h | 12810m | 4.9m/s | 0°C | 0% | 0hPa | 0V | 00:00:00 | 00:00:00 | 00:00:00 | |
| OE3JTB-15 | 2026-09-03 12:14:22 | 47.93357 | 16.93832 | 134° | 110km/h | 12781m | 6.0m/s | 0°C | 0% | 0hPa | 0V | 00:00:00 | 00:00:00 | 00:00:00 | |
| PETON7-10 | 2026-09-03 12:14:18 | 47.93377 | 16.93803 | 137° | 110km/h | 12777m | 3.7m/s | 0°C | 0% | 0hPa | 0V | 00:00:00 | 00:00:00 | 00:00:00 | |
| OE5DXL-15 | 2026-09-03 12:14:07 | 47.93583 | 16.93480 | 130° | 110km/h | 12725m | 3.4m/s | 0°C | 0% | 0hPa | 0V | 00:00:00 | 00:00:00 | 00:00:00 | |
| PETON7-10 | 2026-09-03 12:14:03 | 47.93656 | 16.93344 | 131° | 110km/h | 12708m | 3.6m/s | 0°C | 0% | 0hPa | 0V | 00:00:00 | 00:00:00 | 00:00:00 | |
| OE3JTB-15 | 2026-09-03 12:13:53 | 47.93884 | 16.92933 | 128° | 108km/h | 12645m | 6.4m/s | 0°C | 0% | 0hPa | 0V | 00:00:00 | 00:00:00 | 00:00:00 | |
| PETON7-10 | 2026-09-03 12:13:47 | 47.93933 | 16.92838 | 129° | 106km/h | 12631m | 5.6m/s | 0°C | 0% | 0hPa | 0V | 00:00:00 | 00:00:00 | 00:00:00 | |
| OE5DXL-15 | 2026-09-03 12:13:37 | 47.94115 | 16.92544 | 135° | 111km/h | 12582m | 4.1m/s | 0°C | 0% | 0hPa | 0V | 00:00:00 | 00:00:00 | 00:00:00 | |
| OE3OSB-13 | 2026-09-03 12:13:36 | 47.94152 | 16.92489 | 134° | 104km/h | 12572m | 3.4m/s | -55.3°C | 21.5% | 184.4hPa | 0V | 00:00:00 | 00:00:00 | 00:00:00 | |
| PETON7-10 | 2026-09-03 12:13:32 | 47.94207 | 16.92400 | 134° | 110km/h | 12559m | 4.9m/s | 0°C | 0% | 0hPa | 0V | 00:00:00 | 00:00:00 | 00:00:00 | |
| OE3JTB-15 | 2026-09-03 12:13:22 | 47.94466 | 16.92021 | 139° | 122km/h | 12494m | 3.9m/s | 0°C | 0% | 0hPa | 0V | 00:00:00 | 00:00:00 | 00:00:00 | |
| PETON7-10 | 2026-09-03 12:13:16 | 47.94525 | 16.91931 | 130° | 120km/h | 12481m | 3.1m/s | 0°C | 0% | 0hPa | 0V | 00:00:00 | 00:00:00 | 00:00:00 | |
| S52SK | 2026-09-03 12:13:15 | 47.94544 | 16.91899 | 133° | 113km/h | 12477m | 4.5m/s | 0°C | 0% | 0hPa | 0V | 00:00:00 | 00:00:00 | 00:00:00 | |
| S52SK | 2026-09-03 12:13:09 | 47.94671 | 16.91710 | 137° | 120km/h | 12451m | 3.4m/s | 0°C | 0% | 0hPa | 0V | 00:00:00 | 00:00:00 | 00:00:00 | |
| OE5DXL-15 | 2026-09-03 12:13:07 | 47.94713 | 16.91644 | 131° | 126km/h | 12441m | 3.8m/s | 0°C | 0% | 0hPa | 0V | 00:00:00 | 00:00:00 | 00:00:00 | |
| OE3OSB-13 | 2026-09-03 12:13:05 | 47.94772 | 16.91546 | 135° | 119km/h | 12429m | 3.4m/s | -56.2°C | 27.0% | 188.7hPa | 0V | 00:00:00 | 00:00:00 | 00:00:00 | |
| PETON7-10 | 2026-09-03 12:13:00 | 47.94860 | 16.91407 | 133° | 130km/h | 12410m | 5.5m/s | 0°C | 0% | 0hPa | 0V | 00:00:00 | 00:00:00 | 00:00:00 | |
| PG1ADW-2 | 2026-09-03 12:12:52 | 47.95038 | 16.91118 | 129° | 128km/h | 12375m | 4.0m/s | 0°C | 0% | 0hPa | 0V | 00:00:00 | 00:00:00 | 00:00:00 | |
| PETON7-10 | 2026-09-03 12:12:45 | 47.95197 | 16.90871 | 137° | 128km/h | 12347m | 5.4m/s | 0°C | 0% | 0hPa | 0V | 00:00:00 | 00:00:00 | 00:00:00 | |
| OE5DXL-15 | 2026-09-03 12:12:37 | 47.95382 | 16.90609 | 139° | 130km/h | 12310m | 5.1m/s | 0°C | 0% | 0hPa | 0V | 00:00:00 | 00:00:00 | 00:00:00 | |
| OE3OSB-13 | 2026-09-03 12:12:34 | 47.95481 | 16.90478 | 134° | 128km/h | 12293m | 4.2m/s | -58.5°C | 31.3% | 192.8hPa | 0V | 00:00:00 | 00:00:00 | 00:00:00 | |
| PETON7-10 | 2026-09-03 12:12:30 | 47.95550 | 16.90378 | 138° | 128km/h | 12282m | 4.0m/s | 0°C | 0% | 0hPa | 0V | 00:00:00 | 00:00:00 | 00:00:00 | |
| OE3JTB-15 | 2026-09-03 12:12:24 | 47.95768 | 16.90103 | 141° | 137km/h | 12245m | 4.1m/s | 0°C | 0% | 0hPa | 0V | 00:00:00 | 00:00:00 | 00:00:00 | |
| PG1ADW-2 | 2026-09-03 12:12:21 | 47.95768 | 16.90103 | 141° | 137km/h | 12245m | 4.1m/s | 0°C | 0% | 0hPa | 0V | 00:00:00 | 00:00:00 | 00:00:00 | |
| PETON7-10 | 2026-09-03 12:12:15 | 47.95923 | 16.89913 | 142° | 137km/h | 12221m | 4.3m/s | 0°C | 0% | 0hPa | 0V | 00:00:00 | 00:00:00 | 00:00:00 | |
| OE5DXL-15 | 2026-09-03 12:12:07 | 47.96136 | 16.89667 | 143° | 142km/h | 12191m | 3.8m/s | 0°C | 0% | 0hPa | 0V | 00:00:00 | 00:00:00 | 00:00:00 | |
| OE3OSB-13 | 2026-09-03 12:12:03 | 47.96275 | 16.89498 | 141° | 141km/h | 12169m | 3.6m/s | -59.9°C | 33.2% | 196.8hPa | 0V | 00:00:00 | 00:00:00 | 00:00:00 | |
| PETON7-10 | 2026-09-03 12:12:00 | 47.96330 | 16.89432 | 142° | 142km/h | 12163m | 2.8m/s | 0°C | 0% | 0hPa | 0V | 00:00:00 | 00:00:00 | 00:00:00 | |
| PG1ADW-2 | 2026-09-03 12:11:59 | 47.96359 | 16.89398 | 142° | 142km/h | 12159m | 4.7m/s | 0°C | 0% | 0hPa | 0V | 00:00:00 | 00:00:00 | 00:00:00 | |
| S52SK | 2026-09-03 12:11:53 | 47.96534 | 16.89197 | 144° | 142km/h | 12134m | 4.5m/s | 0°C | 0% | 0hPa | 0V | 00:00:00 | 00:00:00 | 00:00:00 | |
| S52SK | 2026-09-03 12:11:47 | 47.96706 | 16.89010 | 146° | 141km/h | 12112m | 4.0m/s | 0°C | 0% | 0hPa | 0V | 00:00:00 | 00:00:00 | 00:00:00 | |
| PETON7-10 | 2026-09-03 12:11:46 | 47.96765 | 16.88948 | 145° | 144km/h | 12104m | 3.7m/s | 0°C | 0% | 0hPa | 0V | 00:00:00 | 00:00:00 | 00:00:00 | |
| S52SK | 2026-09-03 12:11:42 | 47.96851 | 16.88853 | 144° | 144km/h | 12093m | 3.0m/s | 0°C | 0% | 0hPa | 0V | 00:00:00 | 00:00:00 | 00:00:00 | |
| PG1ADW-2 | 2026-09-03 12:11:39 | 47.96941 | 16.88752 | 142° | 142km/h | 12083m | 4.2m/s | 0°C | 0% | 0hPa | 0V | 00:00:00 | 00:00:00 | 00:00:00 | |
| OE5DXL-15 | 2026-09-03 12:11:37 | 47.96998 | 16.88684 | 142° | 142km/h | 12075m | 4.6m/s | 0°C | 0% | 0hPa | 0V | 00:00:00 | 00:00:00 | 00:00:00 | |
| OE3OSB-13 | 2026-09-03 12:11:32 | 47.97170 | 16.88482 | 143° | 141km/h | 12051m | 2.6m/s | -59.4°C | 33.3% | 200.6hPa | 0V | 00:00:00 | 00:00:00 | 00:00:00 | |
| PETON7-10 | 2026-09-03 12:11:30 | 47.97199 | 16.88449 | 143° | 142km/h | 12048m | 4.9m/s | 0°C | 0% | 0hPa | 0V | 00:00:00 | 00:00:00 | 00:00:00 | |
| OE3JTB-15 | 2026-09-03 12:11:26 | 47.97395 | 16.88218 | 142° | 144km/h | 12022m | 4.7m/s | 0°C | 0% | 0hPa | 0V | 00:00:00 | 00:00:00 | 00:00:00 | |
| PG1ADW-2 | 2026-09-03 12:11:18 | 47.97533 | 16.88034 | 138° | 142km/h | 12003m | 3.7m/s | 0°C | 0% | 0hPa | 0V | 00:00:00 | 00:00:00 | 00:00:00 | |
| PETON7-10 | 2026-09-03 12:11:15 | 47.97611 | 16.87929 | 139° | 142km/h | 11992m | 1.7m/s | 0°C | 0% | 0hPa | 0V | 00:00:00 | 00:00:00 | 00:00:00 | |
| OE5DXL-15 | 2026-09-03 12:11:07 | 47.97832 | 16.87645 | 143° | 144km/h | 11962m | 3.0m/s | 0°C | 0% | 0hPa | 0V | 00:00:00 | 00:00:00 | 00:00:00 | |
| OE3OSB-13 | 2026-09-03 12:11:01 | 47.98020 | 16.87400 | 139° | 148km/h | 11934m | 4.0m/s | -59.0°C | 34.0% | 204.6hPa | 0V | 00:00:00 | 00:00:00 | 00:00:00 | |
| PETON7-10 | 2026-09-03 12:11:00 | 47.98020 | 16.87400 | 140° | 146km/h | 11934m | 3.9m/s | 0°C | 0% | 0hPa | 0V | 00:00:00 | 00:00:00 | 00:00:00 | |
| PG1ADW-2 | 2026-09-03 12:10:58 | 47.98079 | 16.87330 | 143° | 148km/h | 11927m | 3.9m/s | 0°C | 0% | 0hPa | 0V | 00:00:00 | 00:00:00 | 00:00:00 | |
| OE3JTB-15 | 2026-09-03 12:10:56 | 47.98223 | 16.87159 | 141° | 150km/h | 11906m | 4.5m/s | 0°C | 0% | 0hPa | 0V | 00:00:00 | 00:00:00 | 00:00:00 | |
| PETON7-10 | 2026-09-03 12:10:45 | 47.98455 | 16.86888 | 140° | 150km/h | 11875m | 3.6m/s | 0°C | 0% | 0hPa | 0V | 00:00:00 | 00:00:00 | 00:00:00 | |
| PG1ADW-2 | 2026-09-03 12:10:38 | 47.98657 | 16.86643 | 146° | 150km/h | 11844m | 5.3m/s | 0°C | 0% | 0hPa | 0V | 00:00:00 | 00:00:00 | 00:00:00 | |
| OE5DXL-15 | 2026-09-03 12:10:37 | 47.98688 | 16.86612 | 146° | 153km/h | 11838m | 5.5m/s | 0°C | 0% | 0hPa | 0V | 00:00:00 | 00:00:00 | 00:00:00 | |
| OE3OSB-13 | 2026-09-03 12:10:30 | 47.98927 | 16.86336 | 142° | 146km/h | 11802m | 4.8m/s | -58.1°C | 35.4% | 209.0hPa | 0V | 00:00:00 | 00:00:00 | 00:00:00 | |
| OE3JTB-15 | 2026-09-03 12:10:25 | 47.99136 | 16.86095 | 143° | 155km/h | 11772m | 5.7m/s | 0°C | 0% | 0hPa | 0V | 00:00:00 | 00:00:00 | 00:00:00 | |
| S52SK | 2026-09-03 12:10:20 | 47.99197 | 16.86023 | 142° | 155km/h | 11762m | 5.5m/s | 0°C | 0% | 0hPa | 0V | 00:00:00 | 00:00:00 | 00:00:00 | |
| PG1ADW-2 | 2026-09-03 12:10:18 | 47.99256 | 16.85952 | 142° | 153km/h | 11754m | 3.4m/s | 0°C | 0% | 0hPa | 0V | 00:00:00 | 00:00:00 | 00:00:00 | |
| PETON7-10 | 2026-09-03 12:10:14 | 47.99376 | 16.85813 | 144° | 157km/h | 11736m | 4.0m/s | 0°C | 0% | 0hPa | 0V | 00:00:00 | 00:00:00 | 00:00:00 | |
| OE5DXL-15 | 2026-09-03 12:10:05 | 47.99658 | 16.85496 | 142° | 150km/h | 11695m | 5.1m/s | 0°C | 0% | 0hPa | 0V | 00:00:00 | 00:00:00 | 00:00:00 | |
| OE3OSB-13 | 2026-09-03 12:09:59 | 47.99876 | 16.85246 | 141° | 155km/h | 11664m | 3.9m/s | -57.4°C | 37.1% | 213.8hPa | 0V | 00:00:00 | 00:00:00 | 00:00:00 | |
| PETON7-10 | 2026-09-03 12:09:58 | 47.99876 | 16.85246 | 142° | 153km/h | 11664m | 3.8m/s | 0°C | 0% | 0hPa | 0V | 00:00:00 | 00:00:00 | 00:00:00 | |
| OE3JTB-15 | 2026-09-03 12:09:56 | 48.00029 | 16.85065 | 142° | 151km/h | 11640m | 3.2m/s | 0°C | 0% | 0hPa | 0V | 00:00:00 | 00:00:00 | 00:00:00 | |
| PETON7-10 | 2026-09-03 12:09:43 | 48.00333 | 16.84706 | 141° | 151km/h | 11597m | 5.5m/s | 0°C | 0% | 0hPa | 0V | 00:00:00 | 00:00:00 | 00:00:00 | |
| PG1ADW-2 | 2026-09-03 12:09:37 | 48.00520 | 16.84492 | 142° | 144km/h | 11567m | 6.5m/s | 0°C | 0% | 0hPa | 0V | 00:00:00 | 00:00:00 | 00:00:00 | |
| PETON7-10 | 2026-09-03 12:09:27 | 48.00819 | 16.84136 | 139° | 151km/h | 11515m | 4.1m/s | 0°C | 0% | 0hPa | 0V | 00:00:00 | 00:00:00 | 00:00:00 | |
| OE3JTB-15 | 2026-09-03 12:09:26 | 48.00938 | 16.83989 | 140° | 144km/h | 11496m | 7.7m/s | 0°C | 0% | 0hPa | 0V | 00:00:00 | 00:00:00 | 00:00:00 | |
| PETON7-10 | 2026-09-03 12:09:12 | 48.01265 | 16.83608 | 142° | 139km/h | 11444m | 5.0m/s | 0°C | 0% | 0hPa | 0V | 00:00:00 | 00:00:00 | 00:00:00 | |
| PG1ADW-2 | 2026-09-03 12:08:59 | 48.01625 | 16.83170 | 146° | 135km/h | 11378m | 4.2m/s | 0°C | 0% | 0hPa | 0V | 00:00:00 | 00:00:00 | 00:00:00 | |
| S52SK | 2026-09-03 12:08:58 | 48.01653 | 16.83142 | 146° | 135km/h | 11372m | 6.8m/s | 0°C | 0% | 0hPa | 0V | 00:00:00 | 00:00:00 | 00:00:00 | |
| PETON7-10 | 2026-09-03 12:08:56 | 48.01706 | 16.83077 | 137° | 148km/h | 11360m | 3.3m/s | 0°C | 0% | 0hPa | 0V | 00:00:00 | 00:00:00 | 00:00:00 | |
| S52SK | 2026-09-03 12:08:53 | 48.01790 | 16.82962 | 141° | 153km/h | 11341m | 3.2m/s | 0°C | 0% | 0hPa | 0V | 00:00:00 | 00:00:00 | 00:00:00 | |
| OE5DXL-15 | 2026-09-03 12:08:39 | 48.02169 | 16.82476 | 142° | 137km/h | 11264m | 7.2m/s | 0°C | 0% | 0hPa | 0V | 00:00:00 | 00:00:00 | 00:00:00 | |
| PG1ADW-2 | 2026-09-03 12:08:35 | 48.02263 | 16.82342 | 136° | 137km/h | 11243m | 4.9m/s | 0°C | 0% | 0hPa | 0V | 00:00:00 | 00:00:00 | 00:00:00 | |
| PETON7-10 | 2026-09-03 12:08:26 | 48.02491 | 16.82029 | 134° | 142km/h | 11195m | 5.4m/s | 0°C | 0% | 0hPa | 0V | 00:00:00 | 00:00:00 | 00:00:00 | |
| OE3JTB-15 | 2026-09-03 12:08:22 | 48.02671 | 16.81773 | 140° | 139km/h | 11156m | 2.6m/s | 0°C | 0% | 0hPa | 0V | 00:00:00 | 00:00:00 | 00:00:00 | |
| PETON7-10 | 2026-09-03 12:08:11 | 48.02873 | 16.81464 | 140° | 144km/h | 11115m | 4.3m/s | 0°C | 0% | 0hPa | 0V | 00:00:00 | 00:00:00 | 00:00:00 | |
| OE5DXL-15 | 2026-09-03 12:08:09 | 48.02927 | 16.81394 | 139° | 142km/h | 11101m | 6.6m/s | 0°C | 0% | 0hPa | 0V | 00:00:00 | 00:00:00 | 00:00:00 | |
| OE3OSB-13 | 2026-09-03 12:07:54 | 48.03355 | 16.80805 | 139° | 131km/h | 11015m | 4.2m/s | -52.5°C | 38.5% | 237.1hPa | 0V | 00:00:00 | 00:00:00 | 00:00:00 | |
| PG1ADW-2 | 2026-09-03 12:07:53 | 48.03355 | 16.80805 | 140° | 141km/h | 11015m | 4.1m/s | 0°C | 0% | 0hPa | 0V | 00:00:00 | 00:00:00 | 00:00:00 | |
| PETON7-10 | 2026-09-03 12:07:41 | 48.03669 | 16.80379 | 137° | 141km/h | 10941m | 10.3m/s | 0°C | 0% | 0hPa | 0V | 00:00:00 | 00:00:00 | 00:00:00 | |
| OE5DXL-15 | 2026-09-03 12:07:39 | 48.03722 | 16.80302 | 135° | 137km/h | 10926m | 2.8m/s | 0°C | 0% | 0hPa | 0V | 00:00:00 | 00:00:00 | 00:00:00 | |
| PG1ADW-2 | 2026-09-03 12:07:32 | 48.03893 | 16.80049 | 138° | 137km/h | 10891m | 7.6m/s | 0°C | 0% | 0hPa | 0V | 00:00:00 | 00:00:00 | 00:00:00 | |
| S52SK | 2026-09-03 12:07:26 | 48.04060 | 16.79840 | 139° | 137km/h | 10852m | 10.4m/s | 0°C | 0% | 0hPa | 0V | 00:00:00 | 00:00:00 | 00:00:00 | |
| PETON7-10 | 2026-09-03 12:07:25 | 48.04085 | 16.79807 | 138° | 137km/h | 10844m | 6.5m/s | 0°C | 0% | 0hPa | 0V | 00:00:00 | 00:00:00 | 00:00:00 | |
| OE3OSB-13 | 2026-09-03 12:07:24 | 48.04154 | 16.79701 | 133° | 141km/h | 10827m | 3.3m/s | -50.7°C | 35.5% | 244.2hPa | 0V | 00:00:00 | 00:00:00 | 00:00:00 | |
| PETON7-10 | 2026-09-03 12:07:10 | 48.04455 | 16.79264 | 136° | 135km/h | 10760m | 4.1m/s | 0°C | 0% | 0hPa | 0V | 00:00:00 | 00:00:00 | 00:00:00 | |
| PG1ADW-2 | 2026-09-03 12:07:08 | 48.04506 | 16.79194 | 141° | 135km/h | 10750m | 5.8m/s | 0°C | 0% | 0hPa | 0V | 00:00:00 | 00:00:00 | 00:00:00 | |
| OE3OSB-13 | 2026-09-03 12:06:52 | 48.04933 | 16.78604 | 135° | 131km/h | 10670m | 3.4m/s | -49.2°C | 35.2% | 250.3hPa | 0V | 00:00:00 | 00:00:00 | 00:00:00 | |
| PG1ADW-2 | 2026-09-03 12:06:45 | 48.05081 | 16.78390 | 138° | 137km/h | 10642m | 3.9m/s | 0°C | 0% | 0hPa | 0V | 00:00:00 | 00:00:00 | 00:00:00 | |
| OE5DXL-15 | 2026-09-03 12:06:44 | 48.05107 | 16.78356 | 140° | 133km/h | 10638m | 4.8m/s | 0°C | 0% | 0hPa | 0V | 00:00:00 | 00:00:00 | 00:00:00 | |
| PETON7-10 | 2026-09-03 12:06:39 | 48.05232 | 16.78186 | 139° | 133km/h | 10616m | 5.3m/s | 0°C | 0% | 0hPa | 0V | 00:00:00 | 00:00:00 | 00:00:00 | |
| OE3JTB-15 | 2026-09-03 12:06:32 | 48.05481 | 16.77845 | 139° | 135km/h | 10569m | 5.3m/s | 0°C | 0% | 0hPa | 0V | 00:00:00 | 00:00:00 | 00:00:00 | |
| PG1ADW-2 | 2026-09-03 12:06:25 | 48.05581 | 16.77706 | 137° | 135km/h | 10549m | 5.1m/s | 0°C | 0% | 0hPa | 0V | 00:00:00 | 00:00:00 | 00:00:00 | |
| PETON7-10 | 2026-09-03 12:06:24 | 48.05606 | 16.77670 | 137° | 135km/h | 10545m | 4.4m/s | 0°C | 0% | 0hPa | 0V | 00:00:00 | 00:00:00 | 00:00:00 | |
| OE3OSB-13 | 2026-09-03 12:06:22 | 48.05707 | 16.77530 | 136° | 128km/h | 10528m | 4.9m/s | -47.9°C | 36.6% | 255.9hPa | 0V | 00:00:00 | 00:00:00 | 00:00:00 | |
| OE5DXL-15 | 2026-09-03 12:06:14 | 48.05855 | 16.77324 | 138° | 133km/h | 10500m | 4.2m/s | 0°C | 0% | 0hPa | 0V | 00:00:00 | 00:00:00 | 00:00:00 | |
| PETON7-10 | 2026-09-03 12:06:08 | 48.06001 | 16.77114 | 136° | 133km/h | 10468m | 5.3m/s | 0°C | 0% | 0hPa | 0V | 00:00:00 | 00:00:00 | 00:00:00 | |
| S52SK | 2026-09-03 12:06:07 | 48.06026 | 16.77079 | 139° | 135km/h | 10464m | 3.5m/s | 0°C | 0% | 0hPa | 0V | 00:00:00 | 00:00:00 | 00:00:00 | |
| PG1ADW-2 | 2026-09-03 12:06:05 | 48.06077 | 16.77010 | 137° | 131km/h | 10456m | 6.1m/s | 0°C | 0% | 0hPa | 0V | 00:00:00 | 00:00:00 | 00:00:00 | |
| S52SK | 2026-09-03 12:06:02 | 48.06150 | 16.76909 | 139° | 131km/h | 10440m | 4.3m/s | 0°C | 0% | 0hPa | 0V | 00:00:00 | 00:00:00 | 00:00:00 | |
| OE3OSB-13 | 2026-09-03 12:05:50 | 48.06471 | 16.76469 | 138° | 128km/h | 10378m | 4.6m/s | -46.5°C | 39.3% | 261.9hPa | 0V | 00:00:00 | 00:00:00 | 00:00:00 | |
| OE5DXL-15 | 2026-09-03 12:05:44 | 48.06594 | 16.76301 | 138° | 133km/h | 10354m | 4.7m/s | 0°C | 0% | 0hPa | 0V | 00:00:00 | 00:00:00 | 00:00:00 | |
| PETON7-10 | 2026-09-03 12:05:37 | 48.06769 | 16.76063 | 138° | 133km/h | 10318m | 4.8m/s | 0°C | 0% | 0hPa | 0V | 00:00:00 | 00:00:00 | 00:00:00 | |
| PG1ADW-2 | 2026-09-03 12:05:35 | 48.06820 | 16.75997 | 140° | 135km/h | 10309m | 5.4m/s | 0°C | 0% | 0hPa | 0V | 00:00:00 | 00:00:00 | 00:00:00 | |
| OE3JTB-15 | 2026-09-03 12:05:34 | 48.06920 | 16.75867 | 139° | 124km/h | 10289m | 5.4m/s | 0°C | 0% | 0hPa | 0V | 00:00:00 | 00:00:00 | 00:00:00 | |
| PETON7-10 | 2026-09-03 12:05:22 | 48.07150 | 16.75567 | 139° | 133km/h | 10243m | 5.4m/s | 0°C | 0% | 0hPa | 0V | 00:00:00 | 00:00:00 | 00:00:00 | |
| OE3OSB-13 | 2026-09-03 12:05:19 | 48.07256 | 16.75434 | 137° | 128km/h | 10221m | 7.2m/s | -45.2°C | 40.0% | 268.1hPa | 0V | 00:00:00 | 00:00:00 | 00:00:00 | |
| OE5DXL-15 | 2026-09-03 12:05:14 | 48.07352 | 16.75304 | 138° | 131km/h | 10200m | 6.0m/s | 0°C | 0% | 0hPa | 0V | 00:00:00 | 00:00:00 | 00:00:00 | |
| PG1ADW-2 | 2026-09-03 12:05:12 | 48.07404 | 16.75234 | 141° | 126km/h | 10189m | 4.4m/s | 0°C | 0% | 0hPa | 0V | 00:00:00 | 00:00:00 | 00:00:00 | |
| PETON7-10 | 2026-09-03 12:05:07 | 48.07532 | 16.75072 | 134° | 130km/h | 10166m | 4.1m/s | 0°C | 0% | 0hPa | 0V | 00:00:00 | 00:00:00 | 00:00:00 | |
| OE3OSB-13 | 2026-09-03 12:04:48 | 48.08028 | 16.74436 | 138° | 126km/h | 10059m | 5.9m/s | -44.0°C | 37.4% | 274.9hPa | 0V | 00:00:00 | 00:00:00 | 00:00:00 | |
| OE5DXL-15 | 2026-09-03 12:04:44 | 48.08094 | 16.74330 | 133° | 119km/h | 10041m | 5.2m/s | 0°C | 0% | 0hPa | 0V | 00:00:00 | 00:00:00 | 00:00:00 | |
| S52SK | 2026-09-03 12:04:40 | 48.08188 | 16.74207 | 140° | 130km/h | 10020m | 6.3m/s | 0°C | 0% | 0hPa | 0V | 00:00:00 | 00:00:00 | 00:00:00 | |
| PETON7-10 | 2026-09-03 12:04:35 | 48.08305 | 16.74050 | 138° | 122km/h | 9997m | 6.2m/s | 0°C | 0% | 0hPa | 0V | 00:00:00 | 00:00:00 | 00:00:00 | |
| PG1ADW-2 | 2026-09-03 12:04:30 | 48.08416 | 16.73893 | 136° | 119km/h | 9972m | 5.4m/s | 0°C | 0% | 0hPa | 0V | 00:00:00 | 00:00:00 | 00:00:00 | |
| PETON7-10 | 2026-09-03 12:04:20 | 48.08646 | 16.73589 | 141° | 119km/h | 9927m | 4.6m/s | 0°C | 0% | 0hPa | 0V | 00:00:00 | 00:00:00 | 00:00:00 | |
| OE3OSB-13 | 2026-09-03 12:04:17 | 48.08733 | 16.73470 | 135° | 113km/h | 9908m | 4.8m/s | -42.9°C | 39.5% | 281.4hPa | 0V | 00:00:00 | 00:00:00 | 00:00:00 | |
| OE3JTB-15 | 2026-09-03 12:04:15 | 48.08818 | 16.73347 | 136° | 111km/h | 9887m | 5.5m/s | 0°C | 0% | 0hPa | 0V | 00:00:00 | 00:00:00 | 00:00:00 | |
| PG1ADW-2 | 2026-09-03 12:04:08 | 48.08905 | 16.73219 | 136° | 111km/h | 9868m | 6.2m/s | 0°C | 0% | 0hPa | 0V | 00:00:00 | 00:00:00 | 00:00:00 | |
| OE5DXL-15 | 2026-09-03 12:04:07 | 48.08926 | 16.73187 | 134° | 111km/h | 9863m | 4.3m/s | 0°C | 0% | 0hPa | 0V | 00:00:00 | 00:00:00 | 00:00:00 | |
| PETON7-10 | 2026-09-03 12:04:04 | 48.08988 | 16.73101 | 138° | 113km/h | 9848m | 5.6m/s | 0°C | 0% | 0hPa | 0V | 00:00:00 | 00:00:00 | 00:00:00 | |
| OE3OSB-13 | 2026-09-03 12:03:45 | 48.09367 | 16.72522 | 132° | 117km/h | 9755m | 6.7m/s | -41.7°C | 40.3% | 287.8hPa | 0V | 00:00:00 | 00:00:00 | 00:00:00 | |
| OE3JTB-15 | 2026-09-03 12:03:41 | 48.09507 | 16.72320 | 131° | 113km/h | 9713m | 7.0m/s | 0°C | 0% | 0hPa | 0V | 00:00:00 | 00:00:00 | 00:00:00 | |
| OE5DXL-15 | 2026-09-03 12:03:37 | 48.09524 | 16.72289 | 128° | 113km/h | 9705m | 7.6m/s | 0°C | 0% | 0hPa | 0V | 00:00:00 | 00:00:00 | 00:00:00 | |
| PETON7-10 | 2026-09-03 12:03:31 | 48.09640 | 16.72094 | 137° | 113km/h | 9671m | 8.1m/s | 0°C | 0% | 0hPa | 0V | 00:00:00 | 00:00:00 | 00:00:00 | |
| PG1ADW-2 | 2026-09-03 12:03:23 | 48.09802 | 16.71841 | 137° | 117km/h | 9626m | 4.3m/s | 0°C | 0% | 0hPa | 0V | 00:00:00 | 00:00:00 | 00:00:00 | |
| PETON7-10 | 2026-09-03 12:03:16 | 48.09925 | 16.71622 | 137° | 117km/h | 9584m | 6.7m/s | 0°C | 0% | 0hPa | 0V | 00:00:00 | 00:00:00 | 00:00:00 | |
| S52SK | 2026-09-03 12:03:14 | 48.09970 | 16.71562 | 140° | 124km/h | 9576m | 5.4m/s | 0°C | 0% | 0hPa | 0V | 00:00:00 | 00:00:00 | 00:00:00 | |
| OE3JTB-15 | 2026-09-03 12:03:13 | 48.10068 | 16.71408 | 135° | 111km/h | 9548m | 4.1m/s | 0°C | 0% | 0hPa | 0V | 00:00:00 | 00:00:00 | 00:00:00 | |
| S52SK | 2026-09-03 12:03:08 | 48.10088 | 16.71378 | 136° | 113km/h | 9543m | 6.6m/s | 0°C | 0% | 0hPa | 0V | 00:00:00 | 00:00:00 | 00:00:00 | |
| OE5DXL-15 | 2026-09-03 12:03:06 | 48.10130 | 16.71315 | 135° | 113km/h | 9535m | 4.0m/s | 0°C | 0% | 0hPa | 0V | 00:00:00 | 00:00:00 | 00:00:00 | |
| S52SK | 2026-09-03 12:03:02 | 48.10207 | 16.71190 | 134° | 115km/h | 9507m | 3.3m/s | 0°C | 0% | 0hPa | 0V | 00:00:00 | 00:00:00 | 00:00:00 | |
| PETON7-10 | 2026-09-03 12:03:01 | 48.10227 | 16.71159 | 136° | 113km/h | 9501m | 10.3m/s | 0°C | 0% | 0hPa | 0V | 00:00:00 | 00:00:00 | 00:00:00 | |
| OE3OSB-13 | 2026-09-03 12:02:44 | 48.10566 | 16.70594 | 141° | 115km/h | 9402m | 6.3m/s | -38.8°C | 46.8% | 303.3hPa | 0V | 00:00:00 | 00:00:00 | 00:00:00 | |
| OE3JTB-15 | 2026-09-03 12:02:43 | 48.10653 | 16.70473 | 131° | 113km/h | 9384m | 5.3m/s | 0°C | 0% | 0hPa | 0V | 00:00:00 | 00:00:00 | 00:00:00 | |
| PG1ADW-2 | 2026-09-03 12:02:38 | 48.10671 | 16.70440 | 129° | 115km/h | 9380m | 2.9m/s | 0°C | 0% | 0hPa | 0V | 00:00:00 | 00:00:00 | 00:00:00 | |
| OE5DXL-15 | 2026-09-03 12:02:36 | 48.10708 | 16.70375 | 133° | 110km/h | 9369m | 6.0m/s | 0°C | 0% | 0hPa | 0V | 00:00:00 | 00:00:00 | 00:00:00 | |
| PETON7-10 | 2026-09-03 12:02:31 | 48.10805 | 16.70222 | 128° | 108km/h | 9338m | 5.4m/s | 0°C | 0% | 0hPa | 0V | 00:00:00 | 00:00:00 | 00:00:00 | |
| PETON7-10 | 2026-09-03 12:02:16 | 48.11115 | 16.69781 | 134° | 106km/h | 9268m | 5.4m/s | 0°C | 0% | 0hPa | 0V | 00:00:00 | 00:00:00 | 00:00:00 | |
| OE3OSB-13 | 2026-09-03 12:02:12 | 48.11218 | 16.69637 | 141° | 93km/h | 9244m | 3.2m/s | -37.6°C | 59.4% | 310.3hPa | 0V | 00:00:00 | 00:00:00 | 00:00:00 | |
| OE3JTB-15 | 2026-09-03 12:02:10 | 48.11278 | 16.69538 | 123° | 102km/h | 9228m | 3.8m/s | 0°C | 0% | 0hPa | 0V | 00:00:00 | 00:00:00 | 00:00:00 | |
| OE5DXL-15 | 2026-09-03 12:02:06 | 48.11292 | 16.69507 | 126° | 104km/h | 9222m | 5.9m/s | 0°C | 0% | 0hPa | 0V | 00:00:00 | 00:00:00 | 00:00:00 | |
| PETON7-10 | 2026-09-03 12:02:01 | 48.11417 | 16.69353 | 139° | 104km/h | 9192m | 7.2m/s | 0°C | 0% | 0hPa | 0V | 00:00:00 | 00:00:00 | 00:00:00 | |
| PG1ADW-2 | 2026-09-03 12:01:56 | 48.11479 | 16.69200 | 132° | 108km/h | 9165m | 2.6m/s | 0°C | 0% | 0hPa | 0V | 00:00:00 | 00:00:00 | 00:00:00 | |
| PETON7-10 | 2026-09-03 12:01:44 | 48.11704 | 16.68885 | 138° | 108km/h | 9100m | 3.2m/s | 0°C | 0% | 0hPa | 0V | 00:00:00 | 00:00:00 | 00:00:00 | |
| S52SK | 2026-09-03 12:01:42 | 48.11748 | 16.68823 | 136° | 124km/h | 9089m | 5.2m/s | 0°C | 0% | 0hPa | 0V | 00:00:00 | 00:00:00 | 00:00:00 | |
| OE3OSB-13 | 2026-09-03 12:01:41 | 48.11793 | 16.68755 | 133° | 124km/h | 9078m | 4.9m/s | -36.0°C | 55.4% | 318.0hPa | 0V | 00:00:00 | 00:00:00 | 00:00:00 | |
| S52SK | 2026-09-03 12:01:37 | 48.11842 | 16.68665 | 124° | 88km/h | 9062m | 3.1m/s | 0°C | 0% | 0hPa | 0V | 00:00:00 | 00:00:00 | 00:00:00 | |
| PG1ADW-2 | 2026-09-03 12:01:36 | 48.11855 | 16.68638 | 129° | 110km/h | 9059m | 2.9m/s | 0°C | 0% | 0hPa | 0V | 00:00:00 | 00:00:00 | 00:00:00 | |
| OE5DXL-15 | 2026-09-03 12:01:35 | 48.11870 | 16.68613 | 139° | 108km/h | 9055m | 4.5m/s | 0°C | 0% | 0hPa | 0V | 00:00:00 | 00:00:00 | 00:00:00 | |
| PETON7-10 | 2026-09-03 12:01:29 | 48.11990 | 16.68434 | 124° | 111km/h | 9023m | 2.7m/s | 0°C | 0% | 0hPa | 0V | 00:00:00 | 00:00:00 | 00:00:00 | |
| PG1ADW-2 | 2026-09-03 12:01:16 | 48.12237 | 16.68028 | 140° | 104km/h | 8963m | 3.7m/s | 0°C | 0% | 0hPa | 0V | 00:00:00 | 00:00:00 | 00:00:00 | |
| PETON7-10 | 2026-09-03 12:01:14 | 48.12271 | 16.67974 | 128° | 117km/h | 8956m | 3.0m/s | 0°C | 0% | 0hPa | 0V | 00:00:00 | 00:00:00 | 00:00:00 | |
| OE3OSB-13 | 2026-09-03 12:01:10 | 48.12367 | 16.67795 | 127° | 130km/h | 8932m | 0.8m/s | -34.6°C | 50.7% | 324.9hPa | 0V | 00:00:00 | 00:00:00 | 00:00:00 | |
| OE3JTB-15 | 2026-09-03 12:01:09 | 48.12416 | 16.67688 | 126° | 110km/h | 8920m | 4.2m/s | 0°C | 0% | 0hPa | 0V | 00:00:00 | 00:00:00 | 00:00:00 | |
| PETON7-10 | 2026-09-03 12:00:59 | 48.12554 | 16.67491 | 144° | 104km/h | 8890m | 3.4m/s | 0°C | 0% | 0hPa | 0V | 00:00:00 | 00:00:00 | 00:00:00 | |
| OE5DXL-15 | 2026-09-03 12:00:48 | 48.12749 | 16.67161 | 128° | 111km/h | 8832m | 5.9m/s | 0°C | 0% | 0hPa | 0V | 00:00:00 | 00:00:00 | 00:00:00 | |
| PG1ADW-2 | 2026-09-03 12:00:46 | 48.12778 | 16.67103 | 129° | 106km/h | 8822m | 3.9m/s | 0°C | 0% | 0hPa | 0V | 00:00:00 | 00:00:00 | 00:00:00 | |
| PETON7-10 | 2026-09-03 12:00:44 | 48.12810 | 16.67050 | 134° | 110km/h | 8816m | 1.7m/s | 0°C | 0% | 0hPa | 0V | 00:00:00 | 00:00:00 | 00:00:00 | |
| OE3OSB-13 | 2026-09-03 12:00:39 | 48.12929 | 16.66862 | 131° | 108km/h | 8786m | 6.2m/s | -33.2°C | 53.1% | 331.8hPa | 0V | 00:00:00 | 00:00:00 | 00:00:00 | |
| OE3JTB-15 | 2026-09-03 12:00:38 | 48.12979 | 16.66765 | 127° | 113km/h | 8767m | 3.2m/s | 0°C | 0% | 0hPa | 0V | 00:00:00 | 00:00:00 | 00:00:00 | |
| PETON7-10 | 2026-09-03 12:00:28 | 48.13106 | 16.66548 | 140° | 108km/h | 8743m | 2.2m/s | 0°C | 0% | 0hPa | 0V | 00:00:00 | 00:00:00 | 00:00:00 | |
| PG1ADW-2 | 2026-09-03 12:00:23 | 48.13192 | 16.66406 | 126° | 119km/h | 8721m | 6.0m/s | 0°C | 0% | 0hPa | 0V | 00:00:00 | 00:00:00 | 00:00:00 | |
| S52SK | 2026-09-03 12:00:18 | 48.13286 | 16.66221 | 130° | 117km/h | 8694m | 3.0m/s | 0°C | 0% | 0hPa | 0V | 00:00:00 | 00:00:00 | 00:00:00 | |
| OE5DXL-15 | 2026-09-03 12:00:16 | 48.13323 | 16.66156 | 130° | 108km/h | 8687m | 5.7m/s | 0°C | 0% | 0hPa | 0V | 00:00:00 | 00:00:00 | 00:00:00 | |
| PETON7-10 | 2026-09-03 12:00:13 | 48.13371 | 16.66059 | 124° | 111km/h | 8666m | 5.6m/s | 0°C | 0% | 0hPa | 0V | 00:00:00 | 00:00:00 | 00:00:00 | |
| OE3OSB-13 | 2026-09-03 12:00:08 | 48.13486 | 16.65868 | 139° | 104km/h | 8637m | 3.4m/s | -32.2°C | 57.4% | 339.0hPa | 0V | 00:00:00 | 00:00:00 | 00:00:00 | |
| PETON7-10 | 2026-09-03 11:59:58 | 48.13645 | 16.65584 | 135° | 106km/h | 8590m | 3.7m/s | 0°C | 0% | 0hPa | 0V | 00:00:00 | 00:00:00 | 00:00:00 | |
| OE5DXL-15 | 2026-09-03 11:59:46 | 48.13838 | 16.65196 | 122° | 99km/h | 8529m | 3.7m/s | 0°C | 0% | 0hPa | 0V | 00:00:00 | 00:00:00 | 00:00:00 | |
| PETON7-10 | 2026-09-03 11:59:43 | 48.13878 | 16.65102 | 127° | 100km/h | 8513m | 6.8m/s | 0°C | 0% | 0hPa | 0V | 00:00:00 | 00:00:00 | 00:00:00 | |
| OE3OSB-13 | 2026-09-03 11:59:37 | 48.13981 | 16.64878 | 124° | 99km/h | 8473m | 2.8m/s | -31.5°C | 61.3% | 347.2hPa | 0V | 00:00:00 | 00:00:00 | 00:00:00 | |
| OE3JTB-15 | 2026-09-03 11:59:33 | 48.14079 | 16.64695 | 122° | 99km/h | 8440m | 6.4m/s | 0°C | 0% | 0hPa | 0V | 00:00:00 | 00:00:00 | 00:00:00 | |
| PETON7-10 | 2026-09-03 11:59:28 | 48.14102 | 16.64636 | 122° | 102km/h | 8430m | 3.7m/s | 0°C | 0% | 0hPa | 0V | 00:00:00 | 00:00:00 | 00:00:00 | |
| PG1ADW-2 | 2026-09-03 11:59:19 | 48.14236 | 16.64355 | 125° | 102km/h | 8380m | 5.1m/s | 0°C | 0% | 0hPa | 0V | 00:00:00 | 00:00:00 | 00:00:00 | |
| PETON7-10 | 2026-09-03 11:59:13 | 48.14330 | 16.64162 | 122° | 104km/h | 8348m | 4.0m/s | 0°C | 0% | 0hPa | 0V | 00:00:00 | 00:00:00 | 00:00:00 | |
| OE3OSB-13 | 2026-09-03 11:59:06 | 48.14459 | 16.63912 | 125° | 106km/h | 8308m | 7.1m/s | -30.4°C | 59.9% | 355.6hPa | 0V | 00:00:00 | 00:00:00 | 00:00:00 | |
| OE3JTB-15 | 2026-09-03 11:59:04 | 48.14511 | 16.63790 | 124° | 99km/h | 8279m | 5.5m/s | 0°C | 0% | 0hPa | 0V | 00:00:00 | 00:00:00 | 00:00:00 | |
| PETON7-10 | 2026-09-03 11:58:58 | 48.14560 | 16.63696 | 130° | 100km/h | 8262m | 3.4m/s | 0°C | 0% | 0hPa | 0V | 00:00:00 | 00:00:00 | 00:00:00 | |
| PG1ADW-2 | 2026-09-03 11:58:54 | 48.14622 | 16.63574 | 125° | 99km/h | 8242m | 6.3m/s | 0°C | 0% | 0hPa | 0V | 00:00:00 | 00:00:00 | 00:00:00 | |
| S52SK | 2026-09-03 11:58:48 | 48.14706 | 16.63382 | 125° | 97km/h | 8210m | 3.5m/s | 0°C | 0% | 0hPa | 0V | 00:00:00 | 00:00:00 | 00:00:00 | |
| PETON7-10 | 2026-09-03 11:58:43 | 48.14775 | 16.63222 | 124° | 97km/h | 8184m | 3.7m/s | 0°C | 0% | 0hPa | 0V | 00:00:00 | 00:00:00 | 00:00:00 | |
| OE3JTB-15 | 2026-09-03 11:58:35 | 48.14920 | 16.62888 | 122° | 93km/h | 8130m | 4.4m/s | 0°C | 0% | 0hPa | 0V | 00:00:00 | 00:00:00 | 00:00:00 | |
| PG1ADW-2 | 2026-09-03 11:58:29 | 48.14960 | 16.62790 | 122° | 97km/h | 8113m | 4.9m/s | 0°C | 0% | 0hPa | 0V | 00:00:00 | 00:00:00 | 00:00:00 | |
| PETON7-10 | 2026-09-03 11:58:28 | 48.14973 | 16.62759 | 123° | 95km/h | 8108m | 4.1m/s | 0°C | 0% | 0hPa | 0V | 00:00:00 | 00:00:00 | 00:00:00 | |
| PETON7-10 | 2026-09-03 11:58:12 | 48.15173 | 16.62264 | 110° | 88km/h | 8033m | 3.9m/s | 0°C | 0% | 0hPa | 0V | 00:00:00 | 00:00:00 | 00:00:00 | |
| OE3JTB-15 | 2026-09-03 11:58:07 | 48.15251 | 16.62025 | 113° | 89km/h | 7986m | 4.4m/s | 0°C | 0% | 0hPa | 0V | 00:00:00 | 00:00:00 | 00:00:00 | |
| OE3OSB-13 | 2026-09-03 11:58:04 | 48.15261 | 16.61995 | 117° | 88km/h | 7980m | 6.3m/s | -28.0°C | 45.0% | 372.2hPa | 0V | 00:00:00 | 00:00:00 | 00:00:00 | |
| PG1ADW-2 | 2026-09-03 11:57:59 | 48.15313 | 16.61874 | 121° | 86km/h | 7958m | 5.8m/s | 0°C | 0% | 0hPa | 0V | 00:00:00 | 00:00:00 | 00:00:00 | |
| PETON7-10 | 2026-09-03 11:57:57 | 48.15332 | 16.61821 | 120° | 88km/h | 7947m | 3.7m/s | 0°C | 0% | 0hPa | 0V | 00:00:00 | 00:00:00 | 00:00:00 | |
| PETON7-10 | 2026-09-03 11:57:41 | 48.15513 | 16.61354 | 115° | 86km/h | 7875m | 3.9m/s | 0°C | 0% | 0hPa | 0V | 00:00:00 | 00:00:00 | 00:00:00 | |
| OE3JTB-15 | 2026-09-03 11:57:37 | 48.15604 | 16.61143 | 122° | 78km/h | 7830m | 4.9m/s | 0°C | 0% | 0hPa | 0V | 00:00:00 | 00:00:00 | 00:00:00 | |
| OE3OSB-13 | 2026-09-03 11:57:33 | 48.15627 | 16.61078 | 115° | 86km/h | 7819m | 2.8m/s | -26.6°C | 45.5% | 380.6hPa | 0V | 00:00:00 | 00:00:00 | 00:00:00 | |
| OE5DXL-15 | 2026-09-03 11:57:27 | 48.15679 | 16.60960 | 129° | 80km/h | 7800m | 4.8m/s | 0°C | 0% | 0hPa | 0V | 00:00:00 | 00:00:00 | 00:00:00 | |
| PETON7-10 | 2026-09-03 11:57:26 | 48.15692 | 16.60933 | 127° | 77km/h | 7794m | 4.5m/s | 0°C | 0% | 0hPa | 0V | 00:00:00 | 00:00:00 | 00:00:00 | |
| PG1ADW-2 | 2026-09-03 11:57:15 | 48.15809 | 16.60660 | 125° | 82km/h | 7727m | 7.2m/s | 0°C | 0% | 0hPa | 0V | 00:00:00 | 00:00:00 | 00:00:00 | |
| PETON7-10 | 2026-09-03 11:57:11 | 48.15858 | 16.60577 | 138° | 82km/h | 7703m | 7.4m/s | 0°C | 0% | 0hPa | 0V | 00:00:00 | 00:00:00 | 00:00:00 | |
| OE3JTB-15 | 2026-09-03 11:57:06 | 48.15935 | 16.60397 | 135° | 82km/h | 7664m | 7.6m/s | 0°C | 0% | 0hPa | 0V | 00:00:00 | 00:00:00 | 00:00:00 | |
| OE3OSB-13 | 2026-09-03 11:57:02 | 48.15971 | 16.60330 | 120° | 88km/h | 7646m | 8.4m/s | -25.2°C | 42.2% | 390.2hPa | 0V | 00:00:00 | 00:00:00 | 00:00:00 | |
| PETON7-10 | 2026-09-03 11:56:55 | 48.16042 | 16.60172 | 129° | 82km/h | 7614m | 7.1m/s | 0°C | 0% | 0hPa | 0V | 00:00:00 | 00:00:00 | 00:00:00 | |
| OE5DXL-15 | 2026-09-03 11:56:54 | 48.16052 | 16.60148 | 119° | 77km/h | 7609m | 4.7m/s | 0°C | 0% | 0hPa | 0V | 00:00:00 | 00:00:00 | 00:00:00 | |
| PG1ADW-2 | 2026-09-03 11:56:48 | 48.16116 | 16.59991 | 128° | 82km/h | 7577m | 4.2m/s | 0°C | 0% | 0hPa | 0V | 00:00:00 | 00:00:00 | 00:00:00 | |
| PETON7-10 | 2026-09-03 11:56:40 | 48.16209 | 16.59781 | 127° | 77km/h | 7531m | 5.6m/s | 0°C | 0% | 0hPa | 0V | 00:00:00 | 00:00:00 | 00:00:00 | |
| OE3JTB-15 | 2026-09-03 11:56:37 | 48.16242 | 16.59712 | 128° | 69km/h | 7516m | 5.5m/s | 0°C | 0% | 0hPa | 0V | 00:00:00 | 00:00:00 | 00:00:00 | |
| OE3OSB-13 | 2026-09-03 11:56:31 | 48.16320 | 16.59523 | 122° | 80km/h | 7477m | 7.2m/s | -24.3°C | 20.8% | 399.2hPa | 0V | 00:00:00 | 00:00:00 | 00:00:00 | |
| PG1ADW-2 | 2026-09-03 11:56:27 | 48.16353 | 16.59448 | 122° | 66km/h | 7456m | 4.7m/s | 0°C | 0% | 0hPa | 0V | 00:00:00 | 00:00:00 | 00:00:00 | |
| PETON7-10 | 2026-09-03 11:56:24 | 48.16377 | 16.59390 | 128° | 64km/h | 7437m | 4.9m/s | 0°C | 0% | 0hPa | 0V | 00:00:00 | 00:00:00 | 00:00:00 | |
| PETON7-10 | 2026-09-03 11:56:08 | 48.16505 | 16.59045 | 115° | 64km/h | 7358m | 3.8m/s | 0°C | 0% | 0hPa | 0V | 00:00:00 | 00:00:00 | 00:00:00 | |
| S52SK | 2026-09-03 11:56:05 | 48.16529 | 16.58976 | 114° | 60km/h | 7343m | 5.3m/s | 0°C | 0% | 0hPa | 0V | 00:00:00 | 00:00:00 | 00:00:00 | |
| PG1ADW-2 | 2026-09-03 11:56:04 | 48.16535 | 16.58956 | 116° | 66km/h | 7339m | 1.4m/s | 0°C | 0% | 0hPa | 0V | 00:00:00 | 00:00:00 | 00:00:00 | |
| OE3OSB-13 | 2026-09-03 11:56:00 | 48.16577 | 16.58854 | 113° | 68km/h | 7313m | 4.9m/s | -23.8°C | 53.9% | 408.4hPa | 0V | 00:00:00 | 00:00:00 | 00:00:00 | |
| S52SK | 2026-09-03 11:55:57 | 48.16588 | 16.58808 | 111° | 57km/h | 7300m | 7.8m/s | 0°C | 0% | 0hPa | 0V | 00:00:00 | 00:00:00 | 00:00:00 | |
| PETON7-10 | 2026-09-03 11:55:52 | 48.16640 | 16.58716 | 136° | 68km/h | 7273m | 7.0m/s | 0°C | 0% | 0hPa | 0V | 00:00:00 | 00:00:00 | 00:00:00 | |
| PG1ADW-2 | 2026-09-03 11:55:43 | 48.16725 | 16.58515 | 125° | 68km/h | 7215m | 3.8m/s | 0°C | 0% | 0hPa | 0V | 00:00:00 | 00:00:00 | 00:00:00 | |
| OE3JTB-15 | 2026-09-03 11:55:39 | 48.16758 | 16.58435 | 121° | 68km/h | 7195m | 3.4m/s | 0°C | 0% | 0hPa | 0V | 00:00:00 | 00:00:00 | 00:00:00 | |
| PETON7-10 | 2026-09-03 11:55:36 | 48.16787 | 16.58370 | 125° | 68km/h | 7180m | 5.5m/s | 0°C | 0% | 0hPa | 0V | 00:00:00 | 00:00:00 | 00:00:00 | |
| OE3OSB-13 | 2026-09-03 11:55:29 | 48.16872 | 16.58185 | 126° | 64km/h | 7125m | 3.8m/s | -22.2°C | 52.6% | 419.1hPa | 0V | 00:00:00 | 00:00:00 | 00:00:00 | |
| PETON7-10 | 2026-09-03 11:55:21 | 48.16929 | 16.58054 | 120° | 66km/h | 7087m | 5.1m/s | 0°C | 0% | 0hPa | 0V | 00:00:00 | 00:00:00 | 00:00:00 | |
| OE3JTB-15 | 2026-09-03 11:55:10 | 48.17037 | 16.57824 | 122° | 66km/h | 7024m | 3.7m/s | 0°C | 0% | 0hPa | 0V | 00:00:00 | 00:00:00 | 00:00:00 | |
| PETON7-10 | 2026-09-03 11:55:06 | 48.17075 | 16.57749 | 128° | 64km/h | 7000m | 4.4m/s | 0°C | 0% | 0hPa | 0V | 00:00:00 | 00:00:00 | 00:00:00 | |
| PG1ADW-2 | 2026-09-03 11:55:01 | 48.17117 | 16.57643 | 126° | 66km/h | 6980m | 5.5m/s | 0°C | 0% | 0hPa | 0V | 00:00:00 | 00:00:00 | 00:00:00 | |
| OE3OSB-13 | 2026-09-03 11:54:57 | 48.17169 | 16.57537 | 123° | 57km/h | 6952m | 3.3m/s | -20.8°C | 38.1% | 429.4hPa | 0V | 00:00:00 | 00:00:00 | 00:00:00 | |
| PETON7-10 | 2026-09-03 11:54:50 | 48.17221 | 16.57415 | 121° | 69km/h | 6914m | 5.3m/s | 0°C | 0% | 0hPa | 0V | 00:00:00 | 00:00:00 | 00:00:00 | |
| OE3JTB-15 | 2026-09-03 11:54:37 | 48.17349 | 16.57142 | 127° | 62km/h | 6841m | 1.7m/s | 0°C | 0% | 0hPa | 0V | 00:00:00 | 00:00:00 | 00:00:00 | |
| PETON7-10 | 2026-09-03 11:54:35 | 48.17368 | 16.57099 | 121° | 68km/h | 6831m | 5.6m/s | 0°C | 0% | 0hPa | 0V | 00:00:00 | 00:00:00 | 00:00:00 | |
| OE3OSB-13 | 2026-09-03 11:54:26 | 48.17464 | 16.56885 | 117° | 58km/h | 6769m | 5.7m/s | -19.1°C | 31.2% | 439.9hPa | 0V | 00:00:00 | 00:00:00 | 00:00:00 | |
| PETON7-10 | 2026-09-03 11:54:19 | 48.17520 | 16.56759 | 125° | 68km/h | 6737m | 0.9m/s | 0°C | 0% | 0hPa | 0V | 00:00:00 | 00:00:00 | 00:00:00 | |
| PETON7-10 | 2026-09-03 11:54:02 | 48.17684 | 16.56412 | 112° | 66km/h | 6639m | 3.4m/s | 0°C | 0% | 0hPa | 0V | 00:00:00 | 00:00:00 | 00:00:00 | |
| OE3OSB-13 | 2026-09-03 11:53:55 | 48.17761 | 16.56253 | 127° | 75km/h | 6596m | 6.6m/s | -17.4°C | 27.4% | 450.7hPa | 0V | 00:00:00 | 00:00:00 | 00:00:00 | |
| PG1ADW-2 | 2026-09-03 11:53:51 | 48.17784 | 16.56188 | 113° | 58km/h | 6581m | 3.5m/s | 0°C | 0% | 0hPa | 0V | 00:00:00 | 00:00:00 | 00:00:00 | |
| PETON7-10 | 2026-09-03 11:53:44 | 48.17850 | 16.56061 | 130° | 66km/h | 6540m | 4.2m/s | 0°C | 0% | 0hPa | 0V | 00:00:00 | 00:00:00 | 00:00:00 | |
| PETON7-10 | 2026-09-03 11:53:29 | 48.17981 | 16.55753 | 123° | 75km/h | 6463m | 9.6m/s | 0°C | 0% | 0hPa | 0V | 00:00:00 | 00:00:00 | 00:00:00 | |
| PG1ADW-2 | 2026-09-03 11:53:25 | 48.18030 | 16.55660 | 125° | 71km/h | 6436m | 6.2m/s | 0°C | 0% | 0hPa | 0V | 00:00:00 | 00:00:00 | 00:00:00 | |
| OE3OSB-13 | 2026-09-03 11:53:24 | 48.18046 | 16.55616 | 114° | 58km/h | 6423m | 5.0m/s | -16.1°C | 9.3% | 461.1hPa | 0V | 00:00:00 | 00:00:00 | 00:00:00 | |
| PETON7-10 | 2026-09-03 11:53:14 | 48.18137 | 16.55418 | 117° | 71km/h | 6376m | 2.1m/s | 0°C | 0% | 0hPa | 0V | 00:00:00 | 00:00:00 | 00:00:00 | |
| PG1ADW-2 | 2026-09-03 11:53:05 | 48.18232 | 16.55231 | 129° | 73km/h | 6339m | 4.3m/s | 0°C | 0% | 0hPa | 0V | 00:00:00 | 00:00:00 | 00:00:00 | |
| OE3OSB-13 | 2026-09-03 11:52:54 | 48.18363 | 16.54943 | 136° | 66km/h | 6284m | 6.2m/s | -15.2°C | 9.6% | 469.9hPa | 0V | 00:00:00 | 00:00:00 | 00:00:00 | |
| PG1ADW-2 | 2026-09-03 11:52:45 | 48.18442 | 16.54797 | 123° | 60km/h | 6247m | 5.7m/s | 0°C | 0% | 0hPa | 0V | 00:00:00 | 00:00:00 | 00:00:00 | |
| PETON7-10 | 2026-09-03 11:52:40 | 48.18493 | 16.54711 | 129° | 60km/h | 6217m | 5.6m/s | 0°C | 0% | 0hPa | 0V | 00:00:00 | 00:00:00 | 00:00:00 | |
| PETON7-10 | 2026-09-03 11:52:25 | 48.18643 | 16.54448 | 135° | 62km/h | 6141m | 2.9m/s | 0°C | 0% | 0hPa | 0V | 00:00:00 | 00:00:00 | 00:00:00 | |
| OE3OSB-13 | 2026-09-03 11:52:22 | 48.18679 | 16.54375 | 115° | 53km/h | 6122m | 2.1m/s | -14.5°C | 12.3% | 480.2hPa | 0V | 00:00:00 | 00:00:00 | 00:00:00 | |
| PG1ADW-2 | 2026-09-03 11:52:21 | 48.18686 | 16.54358 | 128° | 64km/h | 6119m | 5.3m/s | 0°C | 0% | 0hPa | 0V | 00:00:00 | 00:00:00 | 00:00:00 | |
| PETON7-10 | 2026-09-03 11:52:10 | 48.18791 | 16.54202 | 142° | 62km/h | 6065m | 7.7m/s | 0°C | 0% | 0hPa | 0V | 00:00:00 | 00:00:00 | 00:00:00 | |
| OE3JTB-15 | 2026-09-03 11:52:09 | 48.18803 | 16.54186 | 137° | 60km/h | 6055m | 7.1m/s | 0°C | 0% | 0hPa | 0V | 00:00:00 | 00:00:00 | 00:00:00 | |
| OE3OSB-13 | 2026-09-03 11:51:51 | 48.19003 | 16.53860 | 131° | 49km/h | 5966m | 4.6m/s | -13.5°C | 11.0% | 490.3hPa | 0V | 00:00:00 | 00:00:00 | 00:00:00 | |
| PETON7-10 | 2026-09-03 11:51:40 | 48.19093 | 16.53703 | 131° | 64km/h | 5918m | 6.6m/s | 0°C | 0% | 0hPa | 0V | 00:00:00 | 00:00:00 | 00:00:00 | |
| OE3JTB-15 | 2026-09-03 11:51:39 | 48.19103 | 16.53685 | 127° | 58km/h | 5910m | 6.0m/s | 0°C | 0% | 0hPa | 0V | 00:00:00 | 00:00:00 | 00:00:00 | |
| PG1ADW-2 | 2026-09-03 11:51:36 | 48.19131 | 16.53632 | 137° | 53km/h | 5897m | 4.7m/s | 0°C | 0% | 0hPa | 0V | 00:00:00 | 00:00:00 | 00:00:00 | |
| PETON7-10 | 2026-09-03 11:51:25 | 48.19260 | 16.53464 | 124° | 55km/h | 5847m | 4.7m/s | 0°C | 0% | 0hPa | 0V | 00:00:00 | 00:00:00 | 00:00:00 | |
| OE3OSB-13 | 2026-09-03 11:51:20 | 48.19313 | 16.53380 | 129° | 73km/h | 5816m | 5.5m/s | -13.3°C | 7.0% | 500.1hPa | 0V | 00:00:00 | 00:00:00 | 00:00:00 | |
| PG1ADW-2 | 2026-09-03 11:51:12 | 48.19384 | 16.53262 | 141° | 53km/h | 5784m | 6.8m/s | 0°C | 0% | 0hPa | 0V | 00:00:00 | 00:00:00 | 00:00:00 | |
| OE3JTB-15 | 2026-09-03 11:51:10 | 48.19406 | 16.53229 | 128° | 53km/h | 5773m | 1.8m/s | 0°C | 0% | 0hPa | 0V | 00:00:00 | 00:00:00 | 00:00:00 | |
| PETON7-10 | 2026-09-03 11:51:09 | 48.19414 | 16.53210 | 119° | 49km/h | 5770m | 3.1m/s | 0°C | 0% | 0hPa | 0V | 00:00:00 | 00:00:00 | 00:00:00 | |
| OE3OSB-13 | 2026-09-03 11:50:49 | 48.19585 | 16.52902 | 141° | 60km/h | 5670m | 4.2m/s | -13.1°C | 16.6% | 510.0hPa | 0V | 00:00:00 | 00:00:00 | 00:00:00 | |
| PG1ADW-2 | 2026-09-03 11:50:45 | 48.19615 | 16.52865 | 134° | 47km/h | 5657m | 3.4m/s | 0°C | 0% | 0hPa | 0V | 00:00:00 | 00:00:00 | 00:00:00 | |
| OE3JTB-15 | 2026-09-03 11:50:41 | 48.19641 | 16.52804 | 129° | 51km/h | 5644m | 3.6m/s | 0°C | 0% | 0hPa | 0V | 00:00:00 | 00:00:00 | 00:00:00 | |
| PETON7-10 | 2026-09-03 11:50:39 | 48.19662 | 16.52775 | 145° | 49km/h | 5632m | 5.6m/s | 0°C | 0% | 0hPa | 0V | 00:00:00 | 00:00:00 | 00:00:00 | |
| PETON7-10 | 2026-09-03 11:50:24 | 48.19806 | 16.52595 | 144° | 51km/h | 5574m | 2.7m/s | 0°C | 0% | 0hPa | 0V | 00:00:00 | 00:00:00 | 00:00:00 | |
| OE3OSB-13 | 2026-09-03 11:50:18 | 48.19860 | 16.52514 | 131° | 55km/h | 5538m | 5.0m/s | -12.0°C | 14.5% | 518.8hPa | 0V | 00:00:00 | 00:00:00 | 00:00:00 | |
| OE3JTB-15 | 2026-09-03 11:50:11 | 48.19913 | 16.52410 | 120° | 53km/h | 5511m | 4.5m/s | 0°C | 0% | 0hPa | 0V | 00:00:00 | 00:00:00 | 00:00:00 | |
| PETON7-10 | 2026-09-03 11:50:08 | 48.19933 | 16.52369 | 138° | 49km/h | 5496m | 2.0m/s | 0°C | 0% | 0hPa | 0V | 00:00:00 | 00:00:00 | 00:00:00 | |
| OE3OSB-13 | 2026-09-03 11:49:47 | 48.20101 | 16.52026 | 127° | 37km/h | 5392m | 4.9m/s | -11.0°C | 15.9% | 528.9hPa | 0V | 00:00:00 | 00:00:00 | 00:00:00 | |
| OE3JTB-15 | 2026-09-03 11:49:39 | 48.20148 | 16.51927 | 130° | 46km/h | 5360m | 5.3m/s | 0°C | 0% | 0hPa | 0V | 00:00:00 | 00:00:00 | 00:00:00 | |
| PETON7-10 | 2026-09-03 11:49:37 | 48.20164 | 16.51902 | 145° | 46km/h | 5350m | 6.0m/s | 0°C | 0% | 0hPa | 0V | 00:00:00 | 00:00:00 | 00:00:00 | |
| PG1ADW-2 | 2026-09-03 11:49:29 | 48.20227 | 16.51805 | 131° | 47km/h | 5318m | 2.0m/s | 0°C | 0% | 0hPa | 0V | 00:00:00 | 00:00:00 | 00:00:00 | |
| PETON7-10 | 2026-09-03 11:49:21 | 48.20269 | 16.51677 | 119° | 40km/h | 5280m | 3.2m/s | 0°C | 0% | 0hPa | 0V | 00:00:00 | 00:00:00 | 00:00:00 | |
| OE3OSB-13 | 2026-09-03 11:49:16 | 48.20297 | 16.51606 | 112° | 51km/h | 5247m | 3.2m/s | -10.0°C | 16.0% | 538.7hPa | 0V | 00:00:00 | 00:00:00 | 00:00:00 | |
| OE3JTB-15 | 2026-09-03 11:49:10 | 48.20324 | 16.51520 | 116° | 47km/h | 5226m | 4.5m/s | 0°C | 0% | 0hPa | 0V | 00:00:00 | 00:00:00 | 00:00:00 | |
| PG1ADW-2 | 2026-09-03 11:49:09 | 48.20327 | 16.51509 | 115° | 46km/h | 5221m | 4.0m/s | 0°C | 0% | 0hPa | 0V | 00:00:00 | 00:00:00 | 00:00:00 | |
| PETON7-10 | 2026-09-03 11:49:05 | 48.20351 | 16.51459 | 129° | 51km/h | 5201m | 3.8m/s | 0°C | 0% | 0hPa | 0V | 00:00:00 | 00:00:00 | 00:00:00 | |
| OE3OSB-13 | 2026-09-03 11:48:45 | 48.20497 | 16.51139 | 139° | 55km/h | 5097m | 1.9m/s | -8.8°C | 15.9% | 549.2hPa | 0V | 00:00:00 | 00:00:00 | 00:00:00 | |
| PG1ADW-2 | 2026-09-03 11:48:44 | 48.20497 | 16.51139 | 140° | 49km/h | 5098m | 1.8m/s | 0°C | 0% | 0hPa | 0V | 00:00:00 | 00:00:00 | 00:00:00 | |
| OE3JTB-15 | 2026-09-03 11:48:41 | 48.20516 | 16.51092 | 108° | 49km/h | 5086m | 3.4m/s | 0°C | 0% | 0hPa | 0V | 00:00:00 | 00:00:00 | 00:00:00 | |
| PETON7-10 | 2026-09-03 11:48:34 | 48.20550 | 16.50986 | 117° | 53km/h | 5052m | 5.0m/s | 0°C | 0% | 0hPa | 0V | 00:00:00 | 00:00:00 | 00:00:00 | |
| PETON7-10 | 2026-09-03 11:48:19 | 48.20650 | 16.50724 | 125° | 51km/h | 4985m | 5.5m/s | 0°C | 0% | 0hPa | 0V | 00:00:00 | 00:00:00 | 00:00:00 | |
| PETON7-10 | 2026-09-03 11:48:04 | 48.20752 | 16.50481 | 127° | 47km/h | 4916m | 1.1m/s | 0°C | 0% | 0hPa | 0V | 00:00:00 | 00:00:00 | 00:00:00 | |
| OE3OSB-13 | 2026-09-03 11:47:43 | 48.20852 | 16.50132 | 117° | 47km/h | 4813m | 4.0m/s | -9.0°C | 65.1% | 570.2hPa | 0V | 00:00:00 | 00:00:00 | 00:00:00 | |
| PETON7-10 | 2026-09-03 11:47:34 | 48.20880 | 16.50008 | 117° | 47km/h | 4776m | 3.5m/s | 0°C | 0% | 0hPa | 0V | 00:00:00 | 00:00:00 | 00:00:00 | |
| PETON7-10 | 2026-09-03 11:47:19 | 48.20946 | 16.49782 | 110° | 44km/h | 4707m | 4.3m/s | 0°C | 0% | 0hPa | 0V | 00:00:00 | 00:00:00 | 00:00:00 | |
| OE3JTB-15 | 2026-09-03 11:47:13 | 48.20949 | 16.49681 | 96° | 44km/h | 4682m | 4.9m/s | 0°C | 0% | 0hPa | 0V | 00:00:00 | 00:00:00 | 00:00:00 | |
| OE3OSB-13 | 2026-09-03 11:47:12 | 48.20960 | 16.49640 | 131° | 42km/h | 4666m | 4.5m/s | -7.8°C | 53.7% | 581.3hPa | 0V | 00:00:00 | 00:00:00 | 00:00:00 | |
| PETON7-10 | 2026-09-03 11:47:04 | 48.21001 | 16.49558 | 114° | 42km/h | 4639m | 3.9m/s | 0°C | 0% | 0hPa | 0V | 00:00:00 | 00:00:00 | 00:00:00 | |
| OM5KV | 2026-09-03 11:46:50 | 48.21078 | 16.49351 | 119° | 31km/h | 4578m | 2.4m/s | 0°C | 0% | 0hPa | 0V | 00:00:00 | 00:00:00 | 00:00:00 | |
| PETON7-10 | 2026-09-03 11:46:48 | 48.21083 | 16.49326 | 94° | 49km/h | 4571m | 3.4m/s | 0°C | 0% | 0hPa | 0V | 00:00:00 | 00:00:00 | 00:00:00 | |
| OE3JTB-15 | 2026-09-03 11:46:43 | 48.21094 | 16.49230 | 118° | 51km/h | 4542m | 4.7m/s | 0°C | 0% | 0hPa | 0V | 00:00:00 | 00:00:00 | 00:00:00 | |
| OE3OSB-13 | 2026-09-03 11:46:40 | 48.21123 | 16.49171 | 122° | 55km/h | 4516m | 4.4m/s | -6.8°C | 70.3% | 592.4hPa | 0V | 00:00:00 | 00:00:00 | 00:00:00 | |
| OM5KV | 2026-09-03 11:46:38 | 48.21131 | 16.49152 | 118° | 62km/h | 4511m | 2.3m/s | 0°C | 0% | 0hPa | 0V | 00:00:00 | 00:00:00 | 00:00:00 | |
| S52SK | 2026-09-03 11:46:34 | 48.21151 | 16.49085 | 119° | 35km/h | 4493m | 4.1m/s | 0°C | 0% | 0hPa | 0V | 00:00:00 | 00:00:00 | 00:00:00 | |
| OM5KV | 2026-09-03 11:46:33 | 48.21155 | 16.49075 | 124° | 27km/h | 4488m | 3.8m/s | 0°C | 0% | 0hPa | 0V | 00:00:00 | 00:00:00 | 00:00:00 | |
| PETON7-10 | 2026-09-03 11:46:32 | 48.21159 | 16.49065 | 121° | 46km/h | 4484m | 2.6m/s | 0°C | 0% | 0hPa | 0V | 00:00:00 | 00:00:00 | 00:00:00 | |
| OM5KV | 2026-09-03 11:46:29 | 48.21181 | 16.49027 | 135° | 60km/h | 4470m | 7.8m/s | 0°C | 0% | 0hPa | 0V | 00:00:00 | 00:00:00 | 00:00:00 | |
| S52SK | 2026-09-03 11:46:28 | 48.21192 | 16.49010 | 136° | 58km/h | 4462m | 5.0m/s | 0°C | 0% | 0hPa | 0V | 00:00:00 | 00:00:00 | 00:00:00 | |
| OM5KV | 2026-09-03 11:46:26 | 48.21207 | 16.48978 | 115° | 46km/h | 4450m | 2.6m/s | 0°C | 0% | 0hPa | 0V | 00:00:00 | 00:00:00 | 00:00:00 | |
| S52SK | 2026-09-03 11:46:23 | 48.21217 | 16.48931 | 114° | 46km/h | 4437m | 4.9m/s | 0°C | 0% | 0hPa | 0V | 00:00:00 | 00:00:00 | 00:00:00 | |
| OM5KV | 2026-09-03 11:46:20 | 48.21239 | 16.48882 | 126° | 55km/h | 4421m | 2.9m/s | 0°C | 0% | 0hPa | 0V | 00:00:00 | 00:00:00 | 00:00:00 | |
| OM5KV | 2026-09-03 11:46:16 | 48.21263 | 16.48801 | 107° | 53km/h | 4402m | 2.2m/s | 0°C | 0% | 0hPa | 0V | 00:00:00 | 00:00:00 | 00:00:00 | |
| OM5KV | 2026-09-03 11:46:15 | 48.21267 | 16.48784 | 116° | 46km/h | 4399m | 3.0m/s | 0°C | 0% | 0hPa | 0V | 00:00:00 | 00:00:00 | 00:00:00 | |
| OE3JTB-15 | 2026-09-03 11:46:13 | 48.21278 | 16.48748 | 115° | 46km/h | 4384m | 7.2m/s | 0°C | 0% | 0hPa | 0V | 00:00:00 | 00:00:00 | 00:00:00 | |
| OM5KV | 2026-09-03 11:46:09 | 48.21298 | 16.48681 | 112° | 38km/h | 4361m | 3.9m/s | 0°C | 0% | 0hPa | 0V | 00:00:00 | 00:00:00 | 00:00:00 | |
| OM5KV | 2026-09-03 11:46:08 | 48.21302 | 16.48667 | 115° | 42km/h | 4355m | 5.8m/s | 0°C | 0% | 0hPa | 0V | 00:00:00 | 00:00:00 | 00:00:00 | |
| PETON7-10 | 2026-09-03 11:46:01 | 48.21351 | 16.48542 | 132° | 42km/h | 4317m | 6.2m/s | 0°C | 0% | 0hPa | 0V | 00:00:00 | 00:00:00 | 00:00:00 | |
| OM5KV | 2026-09-03 11:45:59 | 48.21362 | 16.48519 | 117° | 37km/h | 4305m | 5.7m/s | 0°C | 0% | 0hPa | 0V | 00:00:00 | 00:00:00 | 00:00:00 | |
| OM5KV | 2026-09-03 11:45:57 | 48.21370 | 16.48492 | 113° | 38km/h | 4292m | 4.0m/s | 0°C | 0% | 0hPa | 0V | 00:00:00 | 00:00:00 | 00:00:00 | |
| PETON7-10 | 2026-09-03 11:45:46 | 48.21442 | 16.48348 | 144° | 49km/h | 4234m | 2.2m/s | 0°C | 0% | 0hPa | 0V | 00:00:00 | 00:00:00 | 00:00:00 | |
| OE3JTB-15 | 2026-09-03 11:45:44 | 48.21458 | 16.48323 | 127° | 46km/h | 4223m | 4.9m/s | 0°C | 0% | 0hPa | 0V | 00:00:00 | 00:00:00 | 00:00:00 | |
| OM5KV | 2026-09-03 11:45:39 | 48.21498 | 16.48226 | 125° | 55km/h | 4191m | 9.1m/s | 0°C | 0% | 0hPa | 0V | 00:00:00 | 00:00:00 | 00:00:00 | |
| OE3OSB-13 | 2026-09-03 11:45:38 | 48.21513 | 16.48192 | 131° | 47km/h | 4176m | 6.0m/s | -3.7°C | 60.1% | 618.9hPa | 0V | 00:00:00 | 00:00:00 | 00:00:00 | |
| OM5KV | 2026-09-03 11:45:33 | 48.21538 | 16.48142 | 133° | 35km/h | 4155m | 3.3m/s | 0°C | 0% | 0hPa | 0V | 00:00:00 | 00:00:00 | 00:00:00 | |
| OM5KV | 2026-09-03 11:45:27 | 48.21567 | 16.48073 | 130° | 47km/h | 4118m | 4.5m/s | 0°C | 0% | 0hPa | 0V | 00:00:00 | 00:00:00 | 00:00:00 | |
| OM5KV | 2026-09-03 11:45:26 | 48.21576 | 16.48058 | 135° | 58km/h | 4113m | 3.8m/s | 0°C | 0% | 0hPa | 0V | 00:00:00 | 00:00:00 | 00:00:00 | |
| OM5KV | 2026-09-03 11:45:21 | 48.21618 | 16.47967 | 110° | 38km/h | 4082m | 4.4m/s | 0°C | 0% | 0hPa | 0V | 00:00:00 | 00:00:00 | 00:00:00 | |
| OE3JTB-15 | 2026-09-03 11:45:16 | 48.21663 | 16.47889 | 118° | 44km/h | 4048m | 4.4m/s | 0°C | 0% | 0hPa | 0V | 00:00:00 | 00:00:00 | 00:00:00 | |
| PETON7-10 | 2026-09-03 11:45:14 | 48.21669 | 16.47867 | 107° | 47km/h | 4042m | 5.1m/s | 0°C | 0% | 0hPa | 0V | 00:00:00 | 00:00:00 | 00:00:00 | |
| OE3OSB-13 | 2026-09-03 11:45:07 | 48.21699 | 16.47762 | 127° | 44km/h | 3994m | 6.2m/s | -2.7°C | 34.3% | 633.3hPa | 0V | 00:00:00 | 00:00:00 | 00:00:00 | |
| S52SK | 2026-09-03 11:45:01 | 48.21733 | 16.47678 | 104° | 60km/h | 3969m | 3.6m/s | 0°C | 0% | 0hPa | 0V | 00:00:00 | 00:00:00 | 00:00:00 | |
| OM5KV | 2026-09-03 11:45:00 | 48.21736 | 16.47656 | 95° | 57km/h | 3964m | 4.6m/s | 0°C | 0% | 0hPa | 0V | 00:00:00 | 00:00:00 | 00:00:00 | |
| PETON7-10 | 2026-09-03 11:44:57 | 48.21736 | 16.47603 | 91° | 42km/h | 3947m | 4.5m/s | 0°C | 0% | 0hPa | 0V | 00:00:00 | 00:00:00 | 00:00:00 | |
| OM5KV | 2026-09-03 11:44:55 | 48.21736 | 16.47577 | 85° | 37km/h | 3933m | 4.9m/s | 0°C | 0% | 0hPa | 0V | 00:00:00 | 00:00:00 | 00:00:00 | |
| OE3JTB-15 | 2026-09-03 11:44:45 | 48.21747 | 16.47408 | 105° | 40km/h | 3880m | 6.1m/s | 0°C | 0% | 0hPa | 0V | 00:00:00 | 00:00:00 | 00:00:00 | |
| PETON7-10 | 2026-09-03 11:44:42 | 48.21747 | 16.47368 | 90° | 47km/h | 3855m | 6.0m/s | 0°C | 0% | 0hPa | 0V | 00:00:00 | 00:00:00 | 00:00:00 | |
| OM5KV | 2026-09-03 11:44:40 | 48.21751 | 16.47327 | 97° | 58km/h | 3844m | 4.1m/s | 0°C | 0% | 0hPa | 0V | 00:00:00 | 00:00:00 | 00:00:00 | |
| OE3OSB-13 | 2026-09-03 11:44:36 | 48.21762 | 16.47256 | 110° | 38km/h | 3811m | 4.0m/s | -1.4°C | 38.0% | 648.1hPa | 0V | 00:00:00 | 00:00:00 | 00:00:00 | |
| OM5KV | 2026-09-03 11:44:31 | 48.21766 | 16.47178 | 87° | 49km/h | 3788m | 7.9m/s | 0°C | 0% | 0hPa | 0V | 00:00:00 | 00:00:00 | 00:00:00 | |
| PETON7-10 | 2026-09-03 11:44:27 | 48.21767 | 16.47126 | 109° | 38km/h | 3766m | 1.9m/s | 0°C | 0% | 0hPa | 0V | 00:00:00 | 00:00:00 | 00:00:00 | |
| OM5KV | 2026-09-03 11:44:26 | 48.21769 | 16.47119 | 117° | 22km/h | 3764m | 1.4m/s | 0°C | 0% | 0hPa | 0V | 00:00:00 | 00:00:00 | 00:00:00 | |
| OM5KV | 2026-09-03 11:44:24 | 48.21773 | 16.47101 | 101° | 26km/h | 3757m | 3.7m/s | 0°C | 0% | 0hPa | 0V | 00:00:00 | 00:00:00 | 00:00:00 | |
| OM5KV | 2026-09-03 11:44:20 | 48.21772 | 16.47051 | 97° | 47km/h | 3736m | 5.4m/s | 0°C | 0% | 0hPa | 0V | 00:00:00 | 00:00:00 | 00:00:00 | |
| OM5KV | 2026-09-03 11:44:18 | 48.21779 | 16.47013 | 114° | 53km/h | 3723m | 5.9m/s | 0°C | 0% | 0hPa | 0V | 00:00:00 | 00:00:00 | 00:00:00 | |
| OE3JTB-15 | 2026-09-03 11:44:16 | 48.21790 | 16.46979 | 120° | 42km/h | 3713m | 2.7m/s | 0°C | 0% | 0hPa | 0V | 00:00:00 | 00:00:00 | 00:00:00 | |
| PETON7-10 | 2026-09-03 11:44:12 | 48.21812 | 16.46914 | 101° | 49km/h | 3694m | 4.5m/s | 0°C | 0% | 0hPa | 0V | 00:00:00 | 00:00:00 | 00:00:00 | |
| OM5KV | 2026-09-03 11:44:11 | 48.21813 | 16.46895 | 88° | 47km/h | 3687m | 4.5m/s | 0°C | 0% | 0hPa | 0V | 00:00:00 | 00:00:00 | 00:00:00 | |
| OE3OSB-13 | 2026-09-03 11:44:05 | 48.21832 | 16.46763 | 123° | 38km/h | 3654m | 3.1m/s | 0.0°C | 38.3% | 661.3hPa | 0V | 00:00:00 | 00:00:00 | 00:00:00 | |
| OM5KV | 2026-09-03 11:44:00 | 48.21848 | 16.46719 | 92° | 42km/h | 3630m | 4.6m/s | 0°C | 0% | 0hPa | 0V | 00:00:00 | 00:00:00 | 00:00:00 | |
| OM5KV | 2026-09-03 11:43:58 | 48.21851 | 16.46681 | 100° | 58km/h | 3616m | 5.3m/s | 0°C | 0% | 0hPa | 0V | 00:00:00 | 00:00:00 | 00:00:00 | |
| PETON7-10 | 2026-09-03 11:43:57 | 48.21853 | 16.46659 | 97° | 38km/h | 3611m | 2.9m/s | 0°C | 0% | 0hPa | 0V | 00:00:00 | 00:00:00 | 00:00:00 | |
| OM5KV | 2026-09-03 11:43:53 | 48.21852 | 16.46587 | 82° | 29km/h | 3591m | 4.8m/s | 0°C | 0% | 0hPa | 0V | 00:00:00 | 00:00:00 | 00:00:00 | |
| OM5KV | 2026-09-03 11:43:52 | 48.21851 | 16.46578 | 85° | 20km/h | 3586m | 4.6m/s | 0°C | 0% | 0hPa | 0V | 00:00:00 | 00:00:00 | 00:00:00 | |
| OE3JTB-15 | 2026-09-03 11:43:46 | 48.21876 | 16.46503 | 105° | 38km/h | 3551m | 3.5m/s | 0°C | 0% | 0hPa | 0V | 00:00:00 | 00:00:00 | 00:00:00 | |
| OM5KV | 2026-09-03 11:43:45 | 48.21878 | 16.46483 | 98° | 51km/h | 3547m | 4.5m/s | 0°C | 0% | 0hPa | 0V | 00:00:00 | 00:00:00 | 00:00:00 | |
| PETON7-10 | 2026-09-03 11:43:39 | 48.21880 | 16.46401 | 114° | 46km/h | 3511m | 3.3m/s | 0°C | 0% | 0hPa | 0V | 00:00:00 | 00:00:00 | 00:00:00 | |
| OM5KV | 2026-09-03 11:43:37 | 48.21889 | 16.46380 | 128° | 40km/h | 3500m | 3.6m/s | 0°C | 0% | 0hPa | 0V | 00:00:00 | 00:00:00 | 00:00:00 | |
| OE3OSB-13 | 2026-09-03 11:43:34 | 48.21912 | 16.46310 | 103° | 57km/h | 3480m | 4.4m/s | 1.6°C | 36.3% | 675.4hPa | 0V | 00:00:00 | 00:00:00 | 00:00:00 | |
| PETON7-10 | 2026-09-03 11:43:22 | 48.21939 | 16.46136 | 92° | 47km/h | 3422m | 3.5m/s | 0°C | 0% | 0hPa | 0V | 00:00:00 | 00:00:00 | 00:00:00 | |
| OE3JTB-15 | 2026-09-03 11:43:17 | 48.21961 | 16.46071 | 121° | 53km/h | 3393m | 2.5m/s | 0°C | 0% | 0hPa | 0V | 00:00:00 | 00:00:00 | 00:00:00 | |
| PETON7-10 | 2026-09-03 11:43:07 | 48.22006 | 16.45895 | 143° | 49km/h | 3363m | 3.9m/s | 0°C | 0% | 0hPa | 0V | 00:00:00 | 00:00:00 | 00:00:00 | |
| OE3OSB-13 | 2026-09-03 11:43:03 | 48.22033 | 16.45836 | 98° | 49km/h | 3343m | 5.6m/s | 2.0°C | 48.8% | 687.9hPa | 0V | 00:00:00 | 00:00:00 | 00:00:00 | |
| PETON7-10 | 2026-09-03 11:42:50 | 48.22092 | 16.45640 | 107° | 53km/h | 3297m | 3.8m/s | 0°C | 0% | 0hPa | 0V | 00:00:00 | 00:00:00 | 00:00:00 | |
| OE3JTB-15 | 2026-09-03 11:42:45 | 48.22133 | 16.45550 | 132° | 51km/h | 3281m | 2.3m/s | 0°C | 0% | 0hPa | 0V | 00:00:00 | 00:00:00 | 00:00:00 | |
| PETON7-10 | 2026-09-03 11:42:34 | 48.22198 | 16.45358 | 139° | 51km/h | 3242m | 4.1m/s | 0°C | 0% | 0hPa | 0V | 00:00:00 | 00:00:00 | 00:00:00 | |
| OE3OSB-13 | 2026-09-03 11:42:32 | 48.22220 | 16.45316 | 112° | 42km/h | 3227m | 4.5m/s | 2.0°C | 63.1% | 697.8hPa | 0V | 00:00:00 | 00:00:00 | 00:00:00 | |
| PETON7-10 | 2026-09-03 11:42:18 | 48.22310 | 16.45111 | 134° | 51km/h | 3188m | 2.1m/s | 0°C | 0% | 0hPa | 0V | 00:00:00 | 00:00:00 | 00:00:00 | |
| OE3JTB-15 | 2026-09-03 11:42:16 | 48.22325 | 16.45068 | 104° | 49km/h | 3175m | 4.5m/s | 0°C | 0% | 0hPa | 0V | 00:00:00 | 00:00:00 | 00:00:00 | |
| PETON7-10 | 2026-09-03 11:42:03 | 48.22397 | 16.44854 | 127° | 53km/h | 3119m | 2.5m/s | 0°C | 0% | 0hPa | 0V | 00:00:00 | 00:00:00 | 00:00:00 | |
| OE3OSB-13 | 2026-09-03 11:42:01 | 48.22420 | 16.44811 | 125° | 42km/h | 3109m | 1.9m/s | 2.7°C | 67.2% | 707.8hPa | 0V | 00:00:00 | 00:00:00 | 00:00:00 | |
| PETON7-10 | 2026-09-03 11:41:47 | 48.22486 | 16.44573 | 109° | 55km/h | 3065m | 2.0m/s | 0°C | 0% | 0hPa | 0V | 00:00:00 | 00:00:00 | 00:00:00 | |
| PETON7-10 | 2026-09-03 11:41:32 | 48.22599 | 16.44311 | 131° | 66km/h | 3004m | 1.3m/s | 0°C | 0% | 0hPa | 0V | 00:00:00 | 00:00:00 | 00:00:00 | |
| OE3OSB-13 | 2026-09-03 11:41:31 | 48.22624 | 16.44240 | 104° | 64km/h | 2995m | 2.2m/s | 3.5°C | 69.7% | 718.1hPa | 0V | 00:00:00 | 00:00:00 | 00:00:00 | |
| OE3JTB-15 | 2026-09-03 11:41:18 | 48.22706 | 16.44044 | 120° | 58km/h | 2952m | 4.5m/s | 0°C | 0% | 0hPa | 0V | 00:00:00 | 00:00:00 | 00:00:00 | |
| PETON7-10 | 2026-09-03 11:41:17 | 48.22713 | 16.44021 | 113° | 64km/h | 2947m | 3.1m/s | 0°C | 0% | 0hPa | 0V | 00:00:00 | 00:00:00 | 00:00:00 | |
| PETON7-10 | 2026-09-03 11:41:02 | 48.22818 | 16.43705 | 126° | 57km/h | 2891m | 1.2m/s | 0°C | 0% | 0hPa | 0V | 00:00:00 | 00:00:00 | 00:00:00 | |
| OE3OSB-13 | 2026-09-03 11:40:58 | 48.22853 | 16.43617 | 142° | 40km/h | 2861m | 5.5m/s | 3.2°C | 81.1% | 730.5hPa | 0V | 00:00:00 | 00:00:00 | 00:00:00 | |
| OE3JTB-15 | 2026-09-03 11:40:49 | 48.22900 | 16.43463 | 126° | 51km/h | 2825m | 3.6m/s | 0°C | 0% | 0hPa | 0V | 00:00:00 | 00:00:00 | 00:00:00 | |
| PETON7-10 | 2026-09-03 11:40:47 | 48.22922 | 16.43425 | 133° | 51km/h | 2818m | 0.3m/s | 0°C | 0% | 0hPa | 0V | 00:00:00 | 00:00:00 | 00:00:00 | |
| PETON7-10 | 2026-09-03 11:40:32 | 48.23004 | 16.43176 | 96° | 49km/h | 2756m | 3.7m/s | 0°C | 0% | 0hPa | 0V | 00:00:00 | 00:00:00 | 00:00:00 | |
| OE3OSB-13 | 2026-09-03 11:40:27 | 48.23036 | 16.43048 | 101° | 49km/h | 2736m | 5.5m/s | 3.5°C | 84.7% | 741.9hPa | 0V | 00:00:00 | 00:00:00 | 00:00:00 | |
| OE3JTB-15 | 2026-09-03 11:40:20 | 48.23048 | 16.42968 | 95° | 44km/h | 2707m | 4.7m/s | 0°C | 0% | 0hPa | 0V | 00:00:00 | 00:00:00 | 00:00:00 | |
| PETON7-10 | 2026-09-03 11:40:17 | 48.23056 | 16.42909 | 96° | 47km/h | 2692m | 5.6m/s | 0°C | 0% | 0hPa | 0V | 00:00:00 | 00:00:00 | 00:00:00 | |
| PETON7-10 | 2026-09-03 11:40:02 | 48.23128 | 16.42710 | 100° | 47km/h | 2625m | 3.4m/s | 0°C | 0% | 0hPa | 0V | 00:00:00 | 00:00:00 | 00:00:00 | |
| OE3OSB-13 | 2026-09-03 11:39:56 | 48.23162 | 16.42621 | 98° | 42km/h | 2594m | 3.6m/s | 4.5°C | 88.6% | 754.9hPa | 0V | 00:00:00 | 00:00:00 | 00:00:00 | |
| OE3JTB-15 | 2026-09-03 11:39:51 | 48.23172 | 16.42543 | 111° | 44km/h | 2581m | 2.0m/s | 0°C | 0% | 0hPa | 0V | 00:00:00 | 00:00:00 | 00:00:00 | |
| PETON7-10 | 2026-09-03 11:39:31 | 48.23279 | 16.42246 | 129° | 37km/h | 2494m | 5.9m/s | 0°C | 0% | 0hPa | 0V | 00:00:00 | 00:00:00 | 00:00:00 | |
| OE3OSB-13 | 2026-09-03 11:39:26 | 48.23327 | 16.42179 | 113° | 57km/h | 2463m | 4.5m/s | 5.3°C | 89.7% | 767.1hPa | 0V | 00:00:00 | 00:00:00 | 00:00:00 | |
| OE3JTB-15 | 2026-09-03 11:39:22 | 48.23334 | 16.42140 | 100° | 37km/h | 2453m | 4.3m/s | 0°C | 0% | 0hPa | 0V | 00:00:00 | 00:00:00 | 00:00:00 | |
| PETON7-10 | 2026-09-03 11:39:16 | 48.23338 | 16.42057 | 106° | 35km/h | 2421m | 7.0m/s | 0°C | 0% | 0hPa | 0V | 00:00:00 | 00:00:00 | 00:00:00 | |
| PETON7-10 | 2026-09-03 11:39:01 | 48.23402 | 16.41876 | 113° | 40km/h | 2346m | 2.7m/s | 0°C | 0% | 0hPa | 0V | 00:00:00 | 00:00:00 | 00:00:00 | |
| OE3OSB-13 | 2026-09-03 11:38:54 | 48.23429 | 16.41781 | 138° | 51km/h | 2307m | 4.9m/s | 6.3°C | 91.2% | 781.9hPa | 0V | 00:00:00 | 00:00:00 | 00:00:00 | |
| OE3JTB-15 | 2026-09-03 11:38:53 | 48.23429 | 16.41781 | 139° | 40km/h | 2307m | 4.9m/s | 0°C | 0% | 0hPa | 0V | 00:00:00 | 00:00:00 | 00:00:00 | |
| PETON7-10 | 2026-09-03 11:38:44 | 48.23456 | 16.41645 | 133° | 38km/h | 2260m | 3.6m/s | 0°C | 0% | 0hPa | 0V | 00:00:00 | 00:00:00 | 00:00:00 | |
| PETON7-10 | 2026-09-03 11:38:29 | 48.23550 | 16.41486 | 112° | 37km/h | 2192m | 4.5m/s | 0°C | 0% | 0hPa | 0V | 00:00:00 | 00:00:00 | 00:00:00 | |
| OE3OSB-13 | 2026-09-03 11:38:23 | 48.23578 | 16.41389 | 92° | 46km/h | 2168m | 1.6m/s | 7.4°C | 91.3% | 795.2hPa | 0V | 00:00:00 | 00:00:00 | 00:00:00 | |
| PETON7-10 | 2026-09-03 11:38:14 | 48.23609 | 16.41295 | 82° | 37km/h | 2131m | 2.6m/s | 0°C | 0% | 0hPa | 0V | 00:00:00 | 00:00:00 | 00:00:00 | |
| OE3OSB-13 | 2026-09-03 11:37:52 | 48.23699 | 16.41022 | 131° | 18km/h | 2019m | 3.5m/s | 8.6°C | 86.6% | 809.1hPa | 0V | 00:00:00 | 00:00:00 | 00:00:00 | |
| PETON7-10 | 2026-09-03 11:37:41 | 48.23736 | 16.40903 | 128° | 37km/h | 1988m | 2.3m/s | 0°C | 0% | 0hPa | 0V | 00:00:00 | 00:00:00 | 00:00:00 | |
| PETON7-10 | 2026-09-03 11:37:26 | 48.23806 | 16.40710 | 94° | 33km/h | 1933m | 2.1m/s | 0°C | 0% | 0hPa | 0V | 00:00:00 | 00:00:00 | 00:00:00 | |
| OE3JTB-15 | 2026-09-03 11:37:21 | 48.23818 | 16.40670 | 78° | 38km/h | 1917m | 2.6m/s | 0°C | 0% | 0hPa | 0V | 00:00:00 | 00:00:00 | 00:00:00 | |
| OE3OSB-13 | 2026-09-03 11:37:21 | 48.23818 | 16.40658 | 93° | 38km/h | 1912m | 3.0m/s | 9.9°C | 77.5% | 819.8hPa | 0V | 00:00:00 | 00:00:00 | 00:00:00 | |
| PETON7-10 | 2026-09-03 11:37:11 | 48.23838 | 16.40547 | 143° | 42km/h | 1874m | 2.7m/s | 0°C | 0% | 0hPa | 0V | 00:00:00 | 00:00:00 | 00:00:00 | |
| OE3OSB-13 | 2026-09-03 11:36:50 | 48.23928 | 16.40241 | 115° | 44km/h | 1793m | 1.2m/s | 10.9°C | 76.2% | 831.9hPa | 0V | 00:00:00 | 00:00:00 | 00:00:00 | |
| PETON7-10 | 2026-09-03 11:36:40 | 48.23951 | 16.40150 | 94° | 29km/h | 1760m | 4.4m/s | 0°C | 0% | 0hPa | 0V | 00:00:00 | 00:00:00 | 00:00:00 | |
| PETON7-10 | 2026-09-03 11:36:25 | 48.24001 | 16.39979 | 121° | 38km/h | 1681m | 5.4m/s | 0°C | 0% | 0hPa | 0V | 00:00:00 | 00:00:00 | 00:00:00 | |
| OE3JTB-15 | 2026-09-03 11:36:24 | 48.24012 | 16.39961 | 124° | 35km/h | 1669m | 3.5m/s | 0°C | 0% | 0hPa | 0V | 00:00:00 | 00:00:00 | 00:00:00 | |
| OE3OSB-13 | 2026-09-03 11:36:19 | 48.24024 | 16.39887 | 98° | 22km/h | 1643m | 2.4m/s | 12.2°C | 71.9% | 846.9hPa | 0V | 00:00:00 | 00:00:00 | 00:00:00 | |
| PETON7-10 | 2026-09-03 11:36:10 | 48.24049 | 16.39801 | 93° | 35km/h | 1608m | 2.7m/s | 0°C | 0% | 0hPa | 0V | 00:00:00 | 00:00:00 | 00:00:00 | |
| OE3OSB-13 | 2026-09-03 11:35:48 | 48.24104 | 16.39519 | 129° | 42km/h | 1522m | 2.9m/s | 13.4°C | 69.3% | 859.0hPa | 0V | 00:00:00 | 00:00:00 | 00:00:00 | |
| PETON7-10 | 2026-09-03 11:35:40 | 48.24114 | 16.39424 | 103° | 35km/h | 1495m | 1.2m/s | 0°C | 0% | 0hPa | 0V | 00:00:00 | 00:00:00 | 00:00:00 | |
| OE3JTB-15 | 2026-09-03 11:35:25 | 48.24145 | 16.39236 | 76° | 37km/h | 1447m | -1.8m/s | 0°C | 0% | 0hPa | 0V | 00:00:00 | 00:00:00 | 00:00:00 | |
| PETON7-10 | 2026-09-03 11:35:25 | 48.24145 | 16.39236 | 76° | 31km/h | 1447m | -1.8m/s | 0°C | 0% | 0hPa | 0V | 00:00:00 | 00:00:00 | 00:00:00 | |
| OE3OSB-13 | 2026-09-03 11:35:17 | 48.24148 | 16.39130 | 145° | 24km/h | 1415m | 5.0m/s | 14.3°C | 66.2% | 870.5hPa | 0V | 00:00:00 | 00:00:00 | 00:00:00 | |
| PETON7-10 | 2026-09-03 11:35:16 | 48.24147 | 16.39130 | 146° | 31km/h | 1415m | 5.0m/s | 0°C | 0% | 0hPa | 0V | 00:00:00 | 00:00:00 | 00:00:00 | |
| OE3JTB-15 | 2026-09-03 11:35:05 | 48.24170 | 16.38997 | 116° | 37km/h | 1366m | 2.8m/s | 0°C | 0% | 0hPa | 0V | 00:00:00 | 00:00:00 | 00:00:00 | |
| PETON7-10 | 2026-09-03 11:35:00 | 48.24169 | 16.38935 | 107° | 38km/h | 1346m | 3.0m/s | 0°C | 0% | 0hPa | 0V | 00:00:00 | 00:00:00 | 00:00:00 | |
| OE3OSB-13 | 2026-09-03 11:34:46 | 48.24214 | 16.38760 | 94° | 26km/h | 1291m | 2.5m/s | 15.4°C | 62.7% | 883.1hPa | 0V | 00:00:00 | 00:00:00 | 00:00:00 | |
| PETON7-10 | 2026-09-03 11:34:45 | 48.24214 | 16.38760 | 95° | 37km/h | 1291m | 2.5m/s | 0°C | 0% | 0hPa | 0V | 00:00:00 | 00:00:00 | 00:00:00 | |
| OE3JTB-15 | 2026-09-03 11:34:36 | 48.24236 | 16.38645 | 83° | 38km/h | 1259m | 0.6m/s | 0°C | 0% | 0hPa | 0V | 00:00:00 | 00:00:00 | 00:00:00 | |
| PETON7-10 | 2026-09-03 11:34:28 | 48.24269 | 16.38557 | 142° | 42km/h | 1226m | 1.9m/s | 0°C | 0% | 0hPa | 0V | 00:00:00 | 00:00:00 | 00:00:00 | |
| OE3OSB-13 | 2026-09-03 11:34:15 | 48.24303 | 16.38366 | 121° | 49km/h | 1163m | 2.7m/s | 16.7°C | 59.7% | 896.1hPa | 0V | 00:00:00 | 00:00:00 | 00:00:00 | |
| PETON7-10 | 2026-09-03 11:34:12 | 48.24315 | 16.38341 | 129° | 27km/h | 1155m | 3.5m/s | 0°C | 0% | 0hPa | 0V | 00:00:00 | 00:00:00 | 00:00:00 | |
| OE3JTB-15 | 2026-09-03 11:34:07 | 48.24322 | 16.38281 | 103° | 38km/h | 1130m | 1.0m/s | 0°C | 0% | 0hPa | 0V | 00:00:00 | 00:00:00 | 00:00:00 | |
| OE3OSB-13 | 2026-09-03 11:33:43 | 48.24393 | 16.37994 | 89° | 46km/h | 1045m | 0.9m/s | 17.8°C | 56.0% | 909.1hPa | 0V | 00:00:00 | 00:00:00 | 00:00:00 | |
| OE3JTB-15 | 2026-09-03 11:33:38 | 48.24411 | 16.37925 | 124° | 40km/h | 1032m | -0.6m/s | 0°C | 0% | 0hPa | 0V | 00:00:00 | 00:00:00 | 00:00:00 | |
| PETON7-10 | 2026-09-03 11:33:38 | 48.24411 | 16.37925 | 124° | 44km/h | 1032m | -0.6m/s | 0°C | 0% | 0hPa | 0V | 00:00:00 | 00:00:00 | 00:00:00 | |
| PETON7-10 | 2026-09-03 11:33:32 | 48.24423 | 16.37837 | 104° | 49km/h | 1012m | 1.6m/s | 0°C | 0% | 0hPa | 0V | 00:00:00 | 00:00:00 | 00:00:00 | |
| OE3OSB-13 | 2026-09-03 11:33:13 | 48.24510 | 16.37562 | 105° | 53km/h | 931m | 3.3m/s | 18.9°C | 53.3% | 921.0hPa | 0V | 00:00:00 | 00:00:00 | 00:00:00 | |
| OE3JTB-15 | 2026-09-03 11:33:12 | 48.24508 | 16.37582 | 92° | 37km/h | 936m | 3.4m/s | 0°C | 0% | 0hPa | 0V | 00:00:00 | 00:00:00 | 00:00:00 | |
| PETON7-10 | 2026-09-03 11:32:45 | 48.24582 | 16.37226 | 104° | 24km/h | 823m | 3.6m/s | 0°C | 0% | 0hPa | 0V | 00:00:00 | 00:00:00 | 00:00:00 | |
| OE3JTB-15 | 2026-09-03 11:32:43 | 48.24587 | 16.37209 | 111° | 37km/h | 818m | -0.8m/s | 0°C | 0% | 0hPa | 0V | 00:00:00 | 00:00:00 | 00:00:00 | |
| OE3OSB-13 | 2026-09-03 11:32:42 | 48.24597 | 16.37189 | 123° | 29km/h | 815m | 3.4m/s | 20.0°C | 50.7% | 933.9hPa | 0V | 00:00:00 | 00:00:00 | 00:00:00 | |
| OE3JTB-15 | 2026-09-03 11:32:20 | 48.24642 | 16.36924 | 125° | 37km/h | 743m | 2.5m/s | 0°C | 0% | 0hPa | 0V | 00:00:00 | 00:00:00 | 00:00:00 | |
| OE3JTB-15 | 2026-09-03 11:31:50 | 48.24709 | 16.36585 | 136° | 35km/h | 628m | 1.1m/s | 0°C | 0% | 0hPa | 0V | 00:00:00 | 00:00:00 | 00:00:00 | |
| OE3JTB-15 | 2026-09-03 11:31:20 | 48.24750 | 16.36218 | 82° | 26km/h | 456m | 6.2m/s | 0°C | 0% | 0hPa | 0V | 00:00:00 | 00:00:00 | 00:00:00 |